<?xml version="1.0" encoding="UTF-8" standalone="no" ?>
<gpx xmlns="http://www.topografix.com/GPX/1/1" xmlns:xsi="http://www.w3.org/2001/XMLSchema-instance" xsi:schemaLocation="http://www.topografix.com/GPX/1/1 http://www.topografix.com/GPX/1/1/gpx.xsd" version="1.1" creator="VisuGPX - https://www.visugpx.com">
  <metadata>
    <name>Les Ollières</name>
  </metadata>
  <trk>
    <name><![CDATA[Les Ollières_1]]></name>
    <trkseg>
      <trkpt lat="44.80406" lon="4.61338">
        <ele>184</ele>
        <time>2016-12-18T15:52:21Z</time>
      </trkpt>
      <trkpt lat="44.80405" lon="4.6134">
        <ele>184</ele>
        <time>2016-12-18T15:52:16Z</time>
      </trkpt>
      <trkpt lat="44.80406" lon="4.61351">
        <ele>181</ele>
        <time>2016-12-18T15:52:07Z</time>
      </trkpt>
      <trkpt lat="44.80397" lon="4.61359">
        <ele>183</ele>
        <time>2016-12-18T15:51:58Z</time>
      </trkpt>
      <trkpt lat="44.80398" lon="4.61373">
        <ele>183</ele>
        <time>2016-12-18T15:51:48Z</time>
      </trkpt>
      <trkpt lat="44.80396" lon="4.61383">
        <ele>180</ele>
        <time>2016-12-18T15:51:38Z</time>
      </trkpt>
      <trkpt lat="44.80384" lon="4.61386">
        <ele>180</ele>
        <time>2016-12-18T15:51:27Z</time>
      </trkpt>
      <trkpt lat="44.80372" lon="4.61387">
        <ele>183</ele>
        <time>2016-12-18T15:51:16Z</time>
      </trkpt>
      <trkpt lat="44.80361" lon="4.61388">
        <ele>183</ele>
        <time>2016-12-18T15:51:06Z</time>
      </trkpt>
      <trkpt lat="44.80348" lon="4.61388">
        <ele>183</ele>
        <time>2016-12-18T15:50:56Z</time>
      </trkpt>
      <trkpt lat="44.80335" lon="4.61388">
        <ele>183</ele>
        <time>2016-12-18T15:50:46Z</time>
      </trkpt>
      <trkpt lat="44.80324" lon="4.61386">
        <ele>183</ele>
        <time>2016-12-18T15:50:37Z</time>
      </trkpt>
      <trkpt lat="44.8031" lon="4.61388">
        <ele>184</ele>
        <time>2016-12-18T15:50:27Z</time>
      </trkpt>
      <trkpt lat="44.80297" lon="4.61391">
        <ele>184</ele>
        <time>2016-12-18T15:50:17Z</time>
      </trkpt>
      <trkpt lat="44.80296" lon="4.61391">
        <ele>184</ele>
        <time>2016-12-18T15:50:13Z</time>
      </trkpt>
      <trkpt lat="44.80288" lon="4.61382">
        <ele>184</ele>
        <time>2016-12-18T15:50:03Z</time>
      </trkpt>
      <trkpt lat="44.80278" lon="4.61377">
        <ele>184</ele>
        <time>2016-12-18T15:49:54Z</time>
      </trkpt>
      <trkpt lat="44.8027" lon="4.61361">
        <ele>191</ele>
        <time>2016-12-18T15:49:43Z</time>
      </trkpt>
      <trkpt lat="44.80261" lon="4.61349">
        <ele>190</ele>
        <time>2016-12-18T15:49:34Z</time>
      </trkpt>
      <trkpt lat="44.80256" lon="4.6135">
        <ele>190</ele>
        <time>2016-12-18T15:49:24Z</time>
      </trkpt>
      <trkpt lat="44.80244" lon="4.61361">
        <ele>190</ele>
        <time>2016-12-18T15:49:13Z</time>
      </trkpt>
      <trkpt lat="44.80236" lon="4.61378">
        <ele>185</ele>
        <time>2016-12-18T15:49:01Z</time>
      </trkpt>
      <trkpt lat="44.80225" lon="4.61383">
        <ele>186</ele>
        <time>2016-12-18T15:48:53Z</time>
      </trkpt>
      <trkpt lat="44.80215" lon="4.6139">
        <ele>186</ele>
        <time>2016-12-18T15:48:43Z</time>
      </trkpt>
      <trkpt lat="44.80204" lon="4.614">
        <ele>192</ele>
        <time>2016-12-18T15:48:33Z</time>
      </trkpt>
      <trkpt lat="44.80194" lon="4.6142">
        <ele>187</ele>
        <time>2016-12-18T15:48:22Z</time>
      </trkpt>
      <trkpt lat="44.80186" lon="4.61434">
        <ele>185</ele>
        <time>2016-12-18T15:48:13Z</time>
      </trkpt>
      <trkpt lat="44.80177" lon="4.61443">
        <ele>191</ele>
        <time>2016-12-18T15:48:03Z</time>
      </trkpt>
      <trkpt lat="44.80165" lon="4.61457">
        <ele>191</ele>
        <time>2016-12-18T15:47:53Z</time>
      </trkpt>
      <trkpt lat="44.80157" lon="4.61466">
        <ele>186</ele>
        <time>2016-12-18T15:47:43Z</time>
      </trkpt>
      <trkpt lat="44.80149" lon="4.61473">
        <ele>192</ele>
        <time>2016-12-18T15:47:33Z</time>
      </trkpt>
      <trkpt lat="44.80133" lon="4.61481">
        <ele>192</ele>
        <time>2016-12-18T15:47:23Z</time>
      </trkpt>
      <trkpt lat="44.80124" lon="4.6149">
        <ele>191</ele>
        <time>2016-12-18T15:47:13Z</time>
      </trkpt>
      <trkpt lat="44.80115" lon="4.615">
        <ele>191</ele>
        <time>2016-12-18T15:47:04Z</time>
      </trkpt>
      <trkpt lat="44.80107" lon="4.6151">
        <ele>191</ele>
        <time>2016-12-18T15:46:54Z</time>
      </trkpt>
      <trkpt lat="44.80096" lon="4.61522">
        <ele>198</ele>
        <time>2016-12-18T15:46:44Z</time>
      </trkpt>
      <trkpt lat="44.80085" lon="4.61542">
        <ele>194</ele>
        <time>2016-12-18T15:45:28Z</time>
      </trkpt>
      <trkpt lat="44.80082" lon="4.61546">
        <ele>194</ele>
        <time>2016-12-18T15:45:18Z</time>
      </trkpt>
      <trkpt lat="44.8008" lon="4.61554">
        <ele>194</ele>
        <time>2016-12-18T15:45:08Z</time>
      </trkpt>
      <trkpt lat="44.80071" lon="4.61566">
        <ele>194</ele>
        <time>2016-12-18T15:44:58Z</time>
      </trkpt>
      <trkpt lat="44.80062" lon="4.61581">
        <ele>201</ele>
        <time>2016-12-18T15:44:48Z</time>
      </trkpt>
      <trkpt lat="44.80055" lon="4.61598">
        <ele>195</ele>
        <time>2016-12-18T15:44:38Z</time>
      </trkpt>
      <trkpt lat="44.80051" lon="4.61604">
        <ele>195</ele>
        <time>2016-12-18T15:44:34Z</time>
      </trkpt>
      <trkpt lat="44.80044" lon="4.61619">
        <ele>195</ele>
        <time>2016-12-18T15:44:24Z</time>
      </trkpt>
      <trkpt lat="44.80038" lon="4.61631">
        <ele>202</ele>
        <time>2016-12-18T15:44:13Z</time>
      </trkpt>
      <trkpt lat="44.80032" lon="4.61644">
        <ele>202</ele>
        <time>2016-12-18T15:44:04Z</time>
      </trkpt>
      <trkpt lat="44.80023" lon="4.61661">
        <ele>195</ele>
        <time>2016-12-18T15:43:54Z</time>
      </trkpt>
      <trkpt lat="44.80018" lon="4.61678">
        <ele>195</ele>
        <time>2016-12-18T15:43:44Z</time>
      </trkpt>
      <trkpt lat="44.80008" lon="4.61695">
        <ele>199</ele>
        <time>2016-12-18T15:43:33Z</time>
      </trkpt>
      <trkpt lat="44.79991" lon="4.61706">
        <ele>199</ele>
        <time>2016-12-18T15:43:23Z</time>
      </trkpt>
      <trkpt lat="44.79975" lon="4.61711">
        <ele>201</ele>
        <time>2016-12-18T15:43:13Z</time>
      </trkpt>
      <trkpt lat="44.7997" lon="4.61711">
        <ele>201</ele>
        <time>2016-12-18T15:43:03Z</time>
      </trkpt>
      <trkpt lat="44.79955" lon="4.61716">
        <ele>203</ele>
        <time>2016-12-18T15:42:54Z</time>
      </trkpt>
      <trkpt lat="44.79942" lon="4.61713">
        <ele>203</ele>
        <time>2016-12-18T15:42:44Z</time>
      </trkpt>
      <trkpt lat="44.79936" lon="4.61709">
        <ele>203</ele>
        <time>2016-12-18T15:42:34Z</time>
      </trkpt>
      <trkpt lat="44.7992" lon="4.61713">
        <ele>204</ele>
        <time>2016-12-18T15:42:24Z</time>
      </trkpt>
      <trkpt lat="44.79907" lon="4.61719">
        <ele>204</ele>
        <time>2016-12-18T15:42:13Z</time>
      </trkpt>
      <trkpt lat="44.79891" lon="4.61722">
        <ele>207</ele>
        <time>2016-12-18T15:42:02Z</time>
      </trkpt>
      <trkpt lat="44.79883" lon="4.61721">
        <ele>207</ele>
        <time>2016-12-18T15:41:54Z</time>
      </trkpt>
      <trkpt lat="44.79873" lon="4.61718">
        <ele>209</ele>
        <time>2016-12-18T15:41:44Z</time>
      </trkpt>
      <trkpt lat="44.7986" lon="4.61716">
        <ele>209</ele>
        <time>2016-12-18T15:41:34Z</time>
      </trkpt>
      <trkpt lat="44.79852" lon="4.61713">
        <ele>209</ele>
        <time>2016-12-18T15:41:24Z</time>
      </trkpt>
      <trkpt lat="44.79837" lon="4.61706">
        <ele>218</ele>
        <time>2016-12-18T15:41:14Z</time>
      </trkpt>
      <trkpt lat="44.79825" lon="4.61701">
        <ele>218</ele>
        <time>2016-12-18T15:41:03Z</time>
      </trkpt>
      <trkpt lat="44.79814" lon="4.6169">
        <ele>217</ele>
        <time>2016-12-18T15:40:53Z</time>
      </trkpt>
      <trkpt lat="44.79804" lon="4.61691">
        <ele>217</ele>
        <time>2016-12-18T15:40:43Z</time>
      </trkpt>
      <trkpt lat="44.79796" lon="4.61686">
        <ele>217</ele>
        <time>2016-12-18T15:40:33Z</time>
      </trkpt>
      <trkpt lat="44.79782" lon="4.61683">
        <ele>218</ele>
        <time>2016-12-18T15:40:23Z</time>
      </trkpt>
      <trkpt lat="44.79777" lon="4.61684">
        <ele>218</ele>
        <time>2016-12-18T15:40:12Z</time>
      </trkpt>
      <trkpt lat="44.79774" lon="4.61683">
        <ele>218</ele>
        <time>2016-12-18T15:40:10Z</time>
      </trkpt>
      <trkpt lat="44.79764" lon="4.6169">
        <ele>223</ele>
        <time>2016-12-18T15:39:58Z</time>
      </trkpt>
      <trkpt lat="44.79759" lon="4.61705">
        <ele>223</ele>
        <time>2016-12-18T15:39:49Z</time>
      </trkpt>
      <trkpt lat="44.79766" lon="4.6172">
        <ele>221</ele>
        <time>2016-12-18T15:39:39Z</time>
      </trkpt>
      <trkpt lat="44.79775" lon="4.6173">
        <ele>221</ele>
        <time>2016-12-18T15:39:28Z</time>
      </trkpt>
      <trkpt lat="44.79787" lon="4.61737">
        <ele>227</ele>
        <time>2016-12-18T15:39:18Z</time>
      </trkpt>
      <trkpt lat="44.79793" lon="4.61737">
        <ele>218</ele>
        <time>2016-12-18T15:39:07Z</time>
      </trkpt>
      <trkpt lat="44.79802" lon="4.61752">
        <ele>218</ele>
        <time>2016-12-18T15:38:57Z</time>
      </trkpt>
      <trkpt lat="44.79807" lon="4.61766">
        <ele>224</ele>
        <time>2016-12-18T15:38:49Z</time>
      </trkpt>
      <trkpt lat="44.79813" lon="4.61779">
        <ele>224</ele>
        <time>2016-12-18T15:38:40Z</time>
      </trkpt>
      <trkpt lat="44.79823" lon="4.6179">
        <ele>217</ele>
        <time>2016-12-18T15:38:30Z</time>
      </trkpt>
      <trkpt lat="44.79829" lon="4.61792">
        <ele>228</ele>
        <time>2016-12-18T15:38:19Z</time>
      </trkpt>
      <trkpt lat="44.79838" lon="4.618">
        <ele>228</ele>
        <time>2016-12-18T15:38:09Z</time>
      </trkpt>
      <trkpt lat="44.79853" lon="4.61805">
        <ele>227</ele>
        <time>2016-12-18T15:37:58Z</time>
      </trkpt>
      <trkpt lat="44.79865" lon="4.61815">
        <ele>227</ele>
        <time>2016-12-18T15:37:48Z</time>
      </trkpt>
      <trkpt lat="44.79871" lon="4.61821">
        <ele>235</ele>
        <time>2016-12-18T15:37:38Z</time>
      </trkpt>
      <trkpt lat="44.79881" lon="4.61828">
        <ele>214</ele>
        <time>2016-12-18T15:37:28Z</time>
      </trkpt>
      <trkpt lat="44.79887" lon="4.6184">
        <ele>214</ele>
        <time>2016-12-18T15:37:18Z</time>
      </trkpt>
      <trkpt lat="44.79891" lon="4.61855">
        <ele>222</ele>
        <time>2016-12-18T15:37:09Z</time>
      </trkpt>
      <trkpt lat="44.79893" lon="4.61876">
        <ele>226</ele>
        <time>2016-12-18T15:36:58Z</time>
      </trkpt>
      <trkpt lat="44.79887" lon="4.61899">
        <ele>226</ele>
        <time>2016-12-18T15:36:28Z</time>
      </trkpt>
      <trkpt lat="44.79884" lon="4.61906">
        <ele>231</ele>
        <time>2016-12-18T15:36:18Z</time>
      </trkpt>
      <trkpt lat="44.79883" lon="4.61908">
        <ele>231</ele>
        <time>2016-12-18T15:36:08Z</time>
      </trkpt>
      <trkpt lat="44.79876" lon="4.61914">
        <ele>231</ele>
        <time>2016-12-18T15:35:59Z</time>
      </trkpt>
      <trkpt lat="44.79867" lon="4.61922">
        <ele>239</ele>
        <time>2016-12-18T15:35:49Z</time>
      </trkpt>
      <trkpt lat="44.79865" lon="4.6193">
        <ele>239</ele>
        <time>2016-12-18T15:35:39Z</time>
      </trkpt>
      <trkpt lat="44.79841" lon="4.61976">
        <ele>252</ele>
        <time>2016-12-18T15:33:44Z</time>
      </trkpt>
      <trkpt lat="44.79851" lon="4.61977">
        <ele>245</ele>
        <time>2016-12-18T15:33:32Z</time>
      </trkpt>
      <trkpt lat="44.79854" lon="4.61978">
        <ele>245</ele>
        <time>2016-12-18T15:33:29Z</time>
      </trkpt>
      <trkpt lat="44.7986" lon="4.61979">
        <ele>245</ele>
        <time>2016-12-18T15:33:19Z</time>
      </trkpt>
      <trkpt lat="44.79866" lon="4.61975">
        <ele>245</ele>
        <time>2016-12-18T15:33:08Z</time>
      </trkpt>
      <trkpt lat="44.79874" lon="4.61972">
        <ele>245</ele>
        <time>2016-12-18T15:32:58Z</time>
      </trkpt>
      <trkpt lat="44.79892" lon="4.6196">
        <ele>244</ele>
        <time>2016-12-18T15:32:46Z</time>
      </trkpt>
      <trkpt lat="44.79902" lon="4.61958">
        <ele>235</ele>
        <time>2016-12-18T15:32:36Z</time>
      </trkpt>
      <trkpt lat="44.79909" lon="4.61957">
        <ele>240</ele>
        <time>2016-12-18T15:32:28Z</time>
      </trkpt>
      <trkpt lat="44.79922" lon="4.61948">
        <ele>240</ele>
        <time>2016-12-18T15:32:18Z</time>
      </trkpt>
      <trkpt lat="44.79925" lon="4.61947">
        <ele>240</ele>
        <time>2016-12-18T15:32:08Z</time>
      </trkpt>
      <trkpt lat="44.79925" lon="4.61952">
        <ele>240</ele>
        <time>2016-12-18T15:31:59Z</time>
      </trkpt>
      <trkpt lat="44.79918" lon="4.61964">
        <ele>249</ele>
        <time>2016-12-18T15:31:49Z</time>
      </trkpt>
      <trkpt lat="44.79908" lon="4.61969">
        <ele>249</ele>
        <time>2016-12-18T15:31:39Z</time>
      </trkpt>
      <trkpt lat="44.79898" lon="4.61983">
        <ele>244</ele>
        <time>2016-12-18T15:31:30Z</time>
      </trkpt>
      <trkpt lat="44.79887" lon="4.61987">
        <ele>255</ele>
        <time>2016-12-18T15:31:20Z</time>
      </trkpt>
      <trkpt lat="44.79881" lon="4.61993">
        <ele>255</ele>
        <time>2016-12-18T15:31:10Z</time>
      </trkpt>
      <trkpt lat="44.79873" lon="4.62001">
        <ele>256</ele>
        <time>2016-12-18T15:31:00Z</time>
      </trkpt>
      <trkpt lat="44.7986" lon="4.6201">
        <ele>256</ele>
        <time>2016-12-18T15:30:49Z</time>
      </trkpt>
      <trkpt lat="44.79847" lon="4.62007">
        <ele>256</ele>
        <time>2016-12-18T15:30:39Z</time>
      </trkpt>
      <trkpt lat="44.79839" lon="4.62011">
        <ele>256</ele>
        <time>2016-12-18T15:30:30Z</time>
      </trkpt>
      <trkpt lat="44.79828" lon="4.62017">
        <ele>266</ele>
        <time>2016-12-18T15:30:20Z</time>
      </trkpt>
      <trkpt lat="44.79819" lon="4.62023">
        <ele>266</ele>
        <time>2016-12-18T15:30:10Z</time>
      </trkpt>
      <trkpt lat="44.79808" lon="4.62027">
        <ele>266</ele>
        <time>2016-12-18T15:29:59Z</time>
      </trkpt>
      <trkpt lat="44.79798" lon="4.6204">
        <ele>266</ele>
        <time>2016-12-18T15:29:48Z</time>
      </trkpt>
      <trkpt lat="44.79787" lon="4.6205">
        <ele>272</ele>
        <time>2016-12-18T15:29:38Z</time>
      </trkpt>
      <trkpt lat="44.79776" lon="4.62061">
        <ele>272</ele>
        <time>2016-12-18T15:29:28Z</time>
      </trkpt>
      <trkpt lat="44.79767" lon="4.62073">
        <ele>278</ele>
        <time>2016-12-18T15:29:17Z</time>
      </trkpt>
      <trkpt lat="44.79762" lon="4.6209">
        <ele>283</ele>
        <time>2016-12-18T15:29:09Z</time>
      </trkpt>
      <trkpt lat="44.79754" lon="4.62103">
        <ele>287</ele>
        <time>2016-12-18T15:28:59Z</time>
      </trkpt>
      <trkpt lat="44.79751" lon="4.62112">
        <ele>287</ele>
        <time>2016-12-18T15:28:53Z</time>
      </trkpt>
      <trkpt lat="44.79742" lon="4.62126">
        <ele>294</ele>
        <time>2016-12-18T15:28:43Z</time>
      </trkpt>
      <trkpt lat="44.79736" lon="4.62145">
        <ele>295</ele>
        <time>2016-12-18T15:28:33Z</time>
      </trkpt>
      <trkpt lat="44.79726" lon="4.62155">
        <ele>300</ele>
        <time>2016-12-18T15:28:21Z</time>
      </trkpt>
      <trkpt lat="44.79718" lon="4.62169">
        <ele>300</ele>
        <time>2016-12-18T15:28:13Z</time>
      </trkpt>
      <trkpt lat="44.79693" lon="4.62224">
        <ele>305</ele>
        <time>2016-12-18T15:26:06Z</time>
      </trkpt>
      <trkpt lat="44.7969" lon="4.62226">
        <ele>305</ele>
        <time>2016-12-18T15:25:58Z</time>
      </trkpt>
      <trkpt lat="44.79685" lon="4.62223">
        <ele>305</ele>
        <time>2016-12-18T15:25:49Z</time>
      </trkpt>
      <trkpt lat="44.79686" lon="4.6221">
        <ele>305</ele>
        <time>2016-12-18T15:25:39Z</time>
      </trkpt>
      <trkpt lat="44.79683" lon="4.622">
        <ele>303</ele>
        <time>2016-12-18T15:25:29Z</time>
      </trkpt>
      <trkpt lat="44.79684" lon="4.62188">
        <ele>303</ele>
        <time>2016-12-18T15:25:19Z</time>
      </trkpt>
      <trkpt lat="44.79685" lon="4.62173">
        <ele>301</ele>
        <time>2016-12-18T15:25:09Z</time>
      </trkpt>
      <trkpt lat="44.79682" lon="4.62158">
        <ele>301</ele>
        <time>2016-12-18T15:24:58Z</time>
      </trkpt>
      <trkpt lat="44.79682" lon="4.6215">
        <ele>300</ele>
        <time>2016-12-18T15:24:48Z</time>
      </trkpt>
      <trkpt lat="44.79681" lon="4.62139">
        <ele>300</ele>
        <time>2016-12-18T15:24:38Z</time>
      </trkpt>
      <trkpt lat="44.7968" lon="4.6213">
        <ele>313</ele>
        <time>2016-12-18T15:24:28Z</time>
      </trkpt>
      <trkpt lat="44.79675" lon="4.62123">
        <ele>316</ele>
        <time>2016-12-18T15:24:18Z</time>
      </trkpt>
      <trkpt lat="44.79671" lon="4.62129">
        <ele>313</ele>
        <time>2016-12-18T15:24:09Z</time>
      </trkpt>
      <trkpt lat="44.79663" lon="4.62137">
        <ele>313</ele>
        <time>2016-12-18T15:23:58Z</time>
      </trkpt>
      <trkpt lat="44.79657" lon="4.62148">
        <ele>313</ele>
        <time>2016-12-18T15:23:48Z</time>
      </trkpt>
      <trkpt lat="44.79659" lon="4.62158">
        <ele>310</ele>
        <time>2016-12-18T15:23:38Z</time>
      </trkpt>
      <trkpt lat="44.79659" lon="4.62153">
        <ele>310</ele>
        <time>2016-12-18T15:23:28Z</time>
      </trkpt>
      <trkpt lat="44.79659" lon="4.62143">
        <ele>313</ele>
        <time>2016-12-18T15:23:18Z</time>
      </trkpt>
      <trkpt lat="44.79657" lon="4.62129">
        <ele>313</ele>
        <time>2016-12-18T15:23:08Z</time>
      </trkpt>
      <trkpt lat="44.79657" lon="4.62115">
        <ele>316</ele>
        <time>2016-12-18T15:22:58Z</time>
      </trkpt>
      <trkpt lat="44.79662" lon="4.62102">
        <ele>316</ele>
        <time>2016-12-18T15:22:48Z</time>
      </trkpt>
      <trkpt lat="44.79661" lon="4.62096">
        <ele>318</ele>
        <time>2016-12-18T15:22:38Z</time>
      </trkpt>
      <trkpt lat="44.79654" lon="4.62098">
        <ele>316</ele>
        <time>2016-12-18T15:22:28Z</time>
      </trkpt>
      <trkpt lat="44.79653" lon="4.62105">
        <ele>316</ele>
        <time>2016-12-18T15:22:24Z</time>
      </trkpt>
      <trkpt lat="44.79647" lon="4.62116">
        <ele>331</ele>
        <time>2016-12-18T15:22:14Z</time>
      </trkpt>
      <trkpt lat="44.79638" lon="4.62123">
        <ele>331</ele>
        <time>2016-12-18T15:22:04Z</time>
      </trkpt>
      <trkpt lat="44.79631" lon="4.6213">
        <ele>328</ele>
        <time>2016-12-18T15:21:54Z</time>
      </trkpt>
      <trkpt lat="44.79626" lon="4.6214">
        <ele>328</ele>
        <time>2016-12-18T15:21:44Z</time>
      </trkpt>
      <trkpt lat="44.79622" lon="4.62148">
        <ele>344</ele>
        <time>2016-12-18T15:21:34Z</time>
      </trkpt>
      <trkpt lat="44.79615" lon="4.62156">
        <ele>340</ele>
        <time>2016-12-18T15:21:24Z</time>
      </trkpt>
      <trkpt lat="44.79605" lon="4.62164">
        <ele>340</ele>
        <time>2016-12-18T15:21:13Z</time>
      </trkpt>
      <trkpt lat="44.79598" lon="4.62171">
        <ele>340</ele>
        <time>2016-12-18T15:21:03Z</time>
      </trkpt>
      <trkpt lat="44.79593" lon="4.62182">
        <ele>351</ele>
        <time>2016-12-18T15:20:53Z</time>
      </trkpt>
      <trkpt lat="44.79592" lon="4.62195">
        <ele>351</ele>
        <time>2016-12-18T15:20:43Z</time>
      </trkpt>
      <trkpt lat="44.79584" lon="4.62203">
        <ele>351</ele>
        <time>2016-12-18T15:20:33Z</time>
      </trkpt>
      <trkpt lat="44.79576" lon="4.62206">
        <ele>351</ele>
        <time>2016-12-18T15:20:23Z</time>
      </trkpt>
      <trkpt lat="44.79568" lon="4.62211">
        <ele>362</ele>
        <time>2016-12-18T15:20:12Z</time>
      </trkpt>
      <trkpt lat="44.79564" lon="4.62219">
        <ele>362</ele>
        <time>2016-12-18T15:20:02Z</time>
      </trkpt>
      <trkpt lat="44.79563" lon="4.62216">
        <ele>362</ele>
        <time>2016-12-18T15:19:53Z</time>
      </trkpt>
      <trkpt lat="44.79564" lon="4.62209">
        <ele>362</ele>
        <time>2016-12-18T15:19:44Z</time>
      </trkpt>
      <trkpt lat="44.79563" lon="4.622">
        <ele>360</ele>
        <time>2016-12-18T15:19:34Z</time>
      </trkpt>
      <trkpt lat="44.79557" lon="4.62188">
        <ele>360</ele>
        <time>2016-12-18T15:19:24Z</time>
      </trkpt>
      <trkpt lat="44.79559" lon="4.62175">
        <ele>359</ele>
        <time>2016-12-18T15:19:15Z</time>
      </trkpt>
      <trkpt lat="44.79554" lon="4.62157">
        <ele>359</ele>
        <time>2016-12-18T15:19:02Z</time>
      </trkpt>
      <trkpt lat="44.79552" lon="4.62147">
        <ele>360</ele>
        <time>2016-12-18T15:18:53Z</time>
      </trkpt>
      <trkpt lat="44.79538" lon="4.62138">
        <ele>363</ele>
        <time>2016-12-18T15:18:43Z</time>
      </trkpt>
      <trkpt lat="44.79529" lon="4.6214">
        <ele>363</ele>
        <time>2016-12-18T15:18:33Z</time>
      </trkpt>
      <trkpt lat="44.79518" lon="4.62155">
        <ele>364</ele>
        <time>2016-12-18T15:18:22Z</time>
      </trkpt>
      <trkpt lat="44.79506" lon="4.6216">
        <ele>367</ele>
        <time>2016-12-18T15:18:13Z</time>
      </trkpt>
      <trkpt lat="44.79499" lon="4.6217">
        <ele>367</ele>
        <time>2016-12-18T15:18:03Z</time>
      </trkpt>
      <trkpt lat="44.79488" lon="4.62181">
        <ele>367</ele>
        <time>2016-12-18T15:17:53Z</time>
      </trkpt>
      <trkpt lat="44.79484" lon="4.62186">
        <ele>375</ele>
        <time>2016-12-18T15:17:49Z</time>
      </trkpt>
      <trkpt lat="44.79476" lon="4.62197">
        <ele>375</ele>
        <time>2016-12-18T15:17:39Z</time>
      </trkpt>
      <trkpt lat="44.79469" lon="4.62214">
        <ele>380</ele>
        <time>2016-12-18T15:17:29Z</time>
      </trkpt>
      <trkpt lat="44.7946" lon="4.62227">
        <ele>380</ele>
        <time>2016-12-18T15:17:19Z</time>
      </trkpt>
      <trkpt lat="44.79454" lon="4.62243">
        <ele>384</ele>
        <time>2016-12-18T15:17:09Z</time>
      </trkpt>
      <trkpt lat="44.79441" lon="4.62257">
        <ele>384</ele>
        <time>2016-12-18T15:16:58Z</time>
      </trkpt>
      <trkpt lat="44.79432" lon="4.62263">
        <ele>384</ele>
        <time>2016-12-18T15:16:49Z</time>
      </trkpt>
      <trkpt lat="44.79421" lon="4.62268">
        <ele>387</ele>
        <time>2016-12-18T15:16:39Z</time>
      </trkpt>
      <trkpt lat="44.79414" lon="4.62274">
        <ele>387</ele>
        <time>2016-12-18T15:16:29Z</time>
      </trkpt>
      <trkpt lat="44.79401" lon="4.62287">
        <ele>384</ele>
        <time>2016-12-18T15:16:19Z</time>
      </trkpt>
      <trkpt lat="44.79391" lon="4.62297">
        <ele>391</ele>
        <time>2016-12-18T15:16:09Z</time>
      </trkpt>
      <trkpt lat="44.7938" lon="4.62311">
        <ele>391</ele>
        <time>2016-12-18T15:15:58Z</time>
      </trkpt>
      <trkpt lat="44.7937" lon="4.62319">
        <ele>390</ele>
        <time>2016-12-18T15:15:48Z</time>
      </trkpt>
      <trkpt lat="44.7936" lon="4.62332">
        <ele>396</ele>
        <time>2016-12-18T15:15:38Z</time>
      </trkpt>
      <trkpt lat="44.79351" lon="4.62338">
        <ele>396</ele>
        <time>2016-12-18T15:15:29Z</time>
      </trkpt>
      <trkpt lat="44.79335" lon="4.62336">
        <ele>398</ele>
        <time>2016-12-18T15:15:19Z</time>
      </trkpt>
      <trkpt lat="44.79324" lon="4.62333">
        <ele>398</ele>
        <time>2016-12-18T15:15:09Z</time>
      </trkpt>
      <trkpt lat="44.79309" lon="4.62334">
        <ele>404</ele>
        <time>2016-12-18T15:14:58Z</time>
      </trkpt>
      <trkpt lat="44.79296" lon="4.62334">
        <ele>404</ele>
        <time>2016-12-18T15:14:48Z</time>
      </trkpt>
      <trkpt lat="44.79283" lon="4.62347">
        <ele>406</ele>
        <time>2016-12-18T15:14:38Z</time>
      </trkpt>
      <trkpt lat="44.79276" lon="4.62355">
        <ele>410</ele>
        <time>2016-12-18T15:14:28Z</time>
      </trkpt>
      <trkpt lat="44.79266" lon="4.62369">
        <ele>410</ele>
        <time>2016-12-18T15:14:17Z</time>
      </trkpt>
      <trkpt lat="44.79256" lon="4.62376">
        <ele>410</ele>
        <time>2016-12-18T15:14:07Z</time>
      </trkpt>
      <trkpt lat="44.79249" lon="4.6239">
        <ele>410</ele>
        <time>2016-12-18T15:13:59Z</time>
      </trkpt>
      <trkpt lat="44.79241" lon="4.62404">
        <ele>413</ele>
        <time>2016-12-18T15:13:49Z</time>
      </trkpt>
      <trkpt lat="44.79229" lon="4.62413">
        <ele>409</ele>
        <time>2016-12-18T15:13:39Z</time>
      </trkpt>
      <trkpt lat="44.79219" lon="4.62423">
        <ele>409</ele>
        <time>2016-12-18T15:13:29Z</time>
      </trkpt>
      <trkpt lat="44.79213" lon="4.62424">
        <ele>409</ele>
        <time>2016-12-18T15:13:23Z</time>
      </trkpt>
      <trkpt lat="44.79197" lon="4.62431">
        <ele>415</ele>
        <time>2016-12-18T15:13:13Z</time>
      </trkpt>
      <trkpt lat="44.79183" lon="4.62432">
        <ele>415</ele>
        <time>2016-12-18T15:13:03Z</time>
      </trkpt>
      <trkpt lat="44.79168" lon="4.62438">
        <ele>417</ele>
        <time>2016-12-18T15:12:53Z</time>
      </trkpt>
      <trkpt lat="44.79157" lon="4.62442">
        <ele>417</ele>
        <time>2016-12-18T15:12:44Z</time>
      </trkpt>
      <trkpt lat="44.79143" lon="4.62434">
        <ele>420</ele>
        <time>2016-12-18T15:12:34Z</time>
      </trkpt>
      <trkpt lat="44.79129" lon="4.6243">
        <ele>410</ele>
        <time>2016-12-18T15:12:24Z</time>
      </trkpt>
      <trkpt lat="44.79116" lon="4.62427">
        <ele>416</ele>
        <time>2016-12-18T15:12:12Z</time>
      </trkpt>
      <trkpt lat="44.79099" lon="4.62425">
        <ele>416</ele>
        <time>2016-12-18T15:12:02Z</time>
      </trkpt>
      <trkpt lat="44.79085" lon="4.62423">
        <ele>420</ele>
        <time>2016-12-18T15:11:54Z</time>
      </trkpt>
      <trkpt lat="44.79074" lon="4.62422">
        <ele>420</ele>
        <time>2016-12-18T15:11:44Z</time>
      </trkpt>
      <trkpt lat="44.79063" lon="4.62426">
        <ele>423</ele>
        <time>2016-12-18T15:11:34Z</time>
      </trkpt>
      <trkpt lat="44.79053" lon="4.62431">
        <ele>429</ele>
        <time>2016-12-18T15:11:25Z</time>
      </trkpt>
      <trkpt lat="44.79038" lon="4.62442">
        <ele>430</ele>
        <time>2016-12-18T15:11:11Z</time>
      </trkpt>
      <trkpt lat="44.79025" lon="4.62442">
        <ele>430</ele>
        <time>2016-12-18T15:11:01Z</time>
      </trkpt>
      <trkpt lat="44.79009" lon="4.62441">
        <ele>433</ele>
        <time>2016-12-18T15:10:51Z</time>
      </trkpt>
      <trkpt lat="44.78996" lon="4.62442">
        <ele>433</ele>
        <time>2016-12-18T15:10:41Z</time>
      </trkpt>
      <trkpt lat="44.78982" lon="4.62434">
        <ele>437</ele>
        <time>2016-12-18T15:10:33Z</time>
      </trkpt>
      <trkpt lat="44.78975" lon="4.62421">
        <ele>434</ele>
        <time>2016-12-18T15:10:23Z</time>
      </trkpt>
      <trkpt lat="44.78969" lon="4.62406">
        <ele>434</ele>
        <time>2016-12-18T15:10:13Z</time>
      </trkpt>
      <trkpt lat="44.78963" lon="4.62387">
        <ele>429</ele>
        <time>2016-12-18T15:10:01Z</time>
      </trkpt>
      <trkpt lat="44.78954" lon="4.62375">
        <ele>437</ele>
        <time>2016-12-18T15:09:53Z</time>
      </trkpt>
      <trkpt lat="44.7895" lon="4.6236">
        <ele>431</ele>
        <time>2016-12-18T15:09:43Z</time>
      </trkpt>
      <trkpt lat="44.78942" lon="4.6235">
        <ele>431</ele>
        <time>2016-12-18T15:09:33Z</time>
      </trkpt>
      <trkpt lat="44.7893" lon="4.62337">
        <ele>430</ele>
        <time>2016-12-18T15:09:23Z</time>
      </trkpt>
      <trkpt lat="44.78924" lon="4.62325">
        <ele>430</ele>
        <time>2016-12-18T15:09:13Z</time>
      </trkpt>
      <trkpt lat="44.78914" lon="4.62313">
        <ele>425</ele>
        <time>2016-12-18T15:09:03Z</time>
      </trkpt>
      <trkpt lat="44.78897" lon="4.62305">
        <ele>431</ele>
        <time>2016-12-18T15:08:54Z</time>
      </trkpt>
      <trkpt lat="44.78888" lon="4.62298">
        <ele>431</ele>
        <time>2016-12-18T15:08:48Z</time>
      </trkpt>
      <trkpt lat="44.78873" lon="4.62286">
        <ele>436</ele>
        <time>2016-12-18T15:08:38Z</time>
      </trkpt>
      <trkpt lat="44.78865" lon="4.6228">
        <ele>436</ele>
        <time>2016-12-18T15:08:28Z</time>
      </trkpt>
      <trkpt lat="44.78861" lon="4.62265">
        <ele>436</ele>
        <time>2016-12-18T15:08:18Z</time>
      </trkpt>
      <trkpt lat="44.78853" lon="4.62252">
        <ele>433</ele>
        <time>2016-12-18T15:08:08Z</time>
      </trkpt>
      <trkpt lat="44.78845" lon="4.62242">
        <ele>438</ele>
        <time>2016-12-18T15:07:58Z</time>
      </trkpt>
      <trkpt lat="44.7884" lon="4.62234">
        <ele>434</ele>
        <time>2016-12-18T15:07:48Z</time>
      </trkpt>
      <trkpt lat="44.78837" lon="4.62242">
        <ele>438</ele>
        <time>2016-12-18T15:07:38Z</time>
      </trkpt>
      <trkpt lat="44.78833" lon="4.62251">
        <ele>438</ele>
        <time>2016-12-18T15:07:28Z</time>
      </trkpt>
      <trkpt lat="44.78829" lon="4.62256">
        <ele>438</ele>
        <time>2016-12-18T15:07:18Z</time>
      </trkpt>
      <trkpt lat="44.78825" lon="4.62261">
        <ele>438</ele>
        <time>2016-12-18T15:07:08Z</time>
      </trkpt>
      <trkpt lat="44.78821" lon="4.62277">
        <ele>440</ele>
        <time>2016-12-18T15:06:58Z</time>
      </trkpt>
      <trkpt lat="44.7882" lon="4.62289">
        <ele>440</ele>
        <time>2016-12-18T15:06:49Z</time>
      </trkpt>
      <trkpt lat="44.78811" lon="4.62297">
        <ele>433</ele>
        <time>2016-12-18T15:06:39Z</time>
      </trkpt>
      <trkpt lat="44.78802" lon="4.62301">
        <ele>433</ele>
        <time>2016-12-18T15:06:29Z</time>
      </trkpt>
      <trkpt lat="44.78793" lon="4.62298">
        <ele>433</ele>
        <time>2016-12-18T15:06:19Z</time>
      </trkpt>
      <trkpt lat="44.78783" lon="4.62286">
        <ele>431</ele>
        <time>2016-12-18T15:06:08Z</time>
      </trkpt>
      <trkpt lat="44.78776" lon="4.62275">
        <ele>431</ele>
        <time>2016-12-18T15:05:58Z</time>
      </trkpt>
      <trkpt lat="44.78771" lon="4.62268">
        <ele>431</ele>
        <time>2016-12-18T15:05:48Z</time>
      </trkpt>
      <trkpt lat="44.78766" lon="4.6226">
        <ele>435</ele>
        <time>2016-12-18T15:05:38Z</time>
      </trkpt>
      <trkpt lat="44.78765" lon="4.62259">
        <ele>435</ele>
        <time>2016-12-18T15:05:28Z</time>
      </trkpt>
      <trkpt lat="44.78761" lon="4.6226">
        <ele>430</ele>
        <time>2016-12-18T15:05:18Z</time>
      </trkpt>
      <trkpt lat="44.78755" lon="4.62262">
        <ele>430</ele>
        <time>2016-12-18T15:05:08Z</time>
      </trkpt>
      <trkpt lat="44.78759" lon="4.62256">
        <ele>430</ele>
        <time>2016-12-18T15:04:59Z</time>
      </trkpt>
      <trkpt lat="44.78757" lon="4.62252">
        <ele>430</ele>
        <time>2016-12-18T15:04:49Z</time>
      </trkpt>
      <trkpt lat="44.78751" lon="4.62242">
        <ele>430</ele>
        <time>2016-12-18T15:04:39Z</time>
      </trkpt>
      <trkpt lat="44.78742" lon="4.62236">
        <ele>430</ele>
        <time>2016-12-18T15:04:29Z</time>
      </trkpt>
      <trkpt lat="44.78736" lon="4.62232">
        <ele>436</ele>
        <time>2016-12-18T15:04:17Z</time>
      </trkpt>
      <trkpt lat="44.78733" lon="4.62228">
        <ele>428</ele>
        <time>2016-12-18T15:04:13Z</time>
      </trkpt>
      <trkpt lat="44.78724" lon="4.62219">
        <ele>428</ele>
        <time>2016-12-18T15:04:02Z</time>
      </trkpt>
      <trkpt lat="44.7871" lon="4.62201">
        <ele>434</ele>
        <time>2016-12-18T15:01:54Z</time>
      </trkpt>
      <trkpt lat="44.78706" lon="4.62197">
        <ele>424</ele>
        <time>2016-12-18T15:01:43Z</time>
      </trkpt>
      <trkpt lat="44.78703" lon="4.62194">
        <ele>424</ele>
        <time>2016-12-18T15:01:33Z</time>
      </trkpt>
      <trkpt lat="44.78707" lon="4.62194">
        <ele>424</ele>
        <time>2016-12-18T15:01:23Z</time>
      </trkpt>
      <trkpt lat="44.78704" lon="4.6219">
        <ele>424</ele>
        <time>2016-12-18T15:01:13Z</time>
      </trkpt>
      <trkpt lat="44.78695" lon="4.62175">
        <ele>428</ele>
        <time>2016-12-18T15:01:03Z</time>
      </trkpt>
      <trkpt lat="44.78687" lon="4.62178">
        <ele>428</ele>
        <time>2016-12-18T15:00:53Z</time>
      </trkpt>
      <trkpt lat="44.78677" lon="4.62173">
        <ele>419</ele>
        <time>2016-12-18T15:00:43Z</time>
      </trkpt>
      <trkpt lat="44.78675" lon="4.62165">
        <ele>419</ele>
        <time>2016-12-18T15:00:33Z</time>
      </trkpt>
      <trkpt lat="44.78672" lon="4.62154">
        <ele>419</ele>
        <time>2016-12-18T15:00:23Z</time>
      </trkpt>
      <trkpt lat="44.78667" lon="4.62146">
        <ele>426</ele>
        <time>2016-12-18T15:00:12Z</time>
      </trkpt>
      <trkpt lat="44.78661" lon="4.62144">
        <ele>426</ele>
        <time>2016-12-18T15:00:02Z</time>
      </trkpt>
      <trkpt lat="44.78656" lon="4.62136">
        <ele>426</ele>
        <time>2016-12-18T14:59:54Z</time>
      </trkpt>
      <trkpt lat="44.78651" lon="4.62136">
        <ele>418</ele>
        <time>2016-12-18T14:59:44Z</time>
      </trkpt>
      <trkpt lat="44.78652" lon="4.62143">
        <ele>418</ele>
        <time>2016-12-18T14:59:34Z</time>
      </trkpt>
      <trkpt lat="44.78656" lon="4.62142">
        <ele>426</ele>
        <time>2016-12-18T14:59:24Z</time>
      </trkpt>
      <trkpt lat="44.78661" lon="4.62151">
        <ele>426</ele>
        <time>2016-12-18T14:59:14Z</time>
      </trkpt>
      <trkpt lat="44.78656" lon="4.62155">
        <ele>419</ele>
        <time>2016-12-18T14:59:04Z</time>
      </trkpt>
      <trkpt lat="44.78651" lon="4.62154">
        <ele>411</ele>
        <time>2016-12-18T14:58:53Z</time>
      </trkpt>
      <trkpt lat="44.78643" lon="4.62146">
        <ele>418</ele>
        <time>2016-12-18T14:58:44Z</time>
      </trkpt>
      <trkpt lat="44.78636" lon="4.62152">
        <ele>418</ele>
        <time>2016-12-18T14:58:34Z</time>
      </trkpt>
      <trkpt lat="44.78639" lon="4.6215">
        <ele>418</ele>
        <time>2016-12-18T14:58:24Z</time>
      </trkpt>
      <trkpt lat="44.78619" lon="4.62198">
        <ele>401</ele>
        <time>2016-12-18T14:57:33Z</time>
      </trkpt>
      <trkpt lat="44.78619" lon="4.62189">
        <ele>401</ele>
        <time>2016-12-18T14:57:23Z</time>
      </trkpt>
      <trkpt lat="44.78619" lon="4.62193">
        <ele>401</ele>
        <time>2016-12-18T14:57:14Z</time>
      </trkpt>
      <trkpt lat="44.78623" lon="4.62196">
        <ele>401</ele>
        <time>2016-12-18T14:57:03Z</time>
      </trkpt>
      <trkpt lat="44.78622" lon="4.62201">
        <ele>401</ele>
        <time>2016-12-18T14:56:58Z</time>
      </trkpt>
      <trkpt lat="44.78617" lon="4.62214">
        <ele>399</ele>
        <time>2016-12-18T14:56:49Z</time>
      </trkpt>
      <trkpt lat="44.7861" lon="4.62225">
        <ele>399</ele>
        <time>2016-12-18T14:56:39Z</time>
      </trkpt>
      <trkpt lat="44.78605" lon="4.62232">
        <ele>399</ele>
        <time>2016-12-18T14:56:29Z</time>
      </trkpt>
      <trkpt lat="44.78598" lon="4.62239">
        <ele>398</ele>
        <time>2016-12-18T14:56:19Z</time>
      </trkpt>
      <trkpt lat="44.78589" lon="4.62247">
        <ele>402</ele>
        <time>2016-12-18T14:56:09Z</time>
      </trkpt>
      <trkpt lat="44.7858" lon="4.62252">
        <ele>402</ele>
        <time>2016-12-18T14:55:58Z</time>
      </trkpt>
      <trkpt lat="44.7857" lon="4.62237">
        <ele>402</ele>
        <time>2016-12-18T14:55:47Z</time>
      </trkpt>
      <trkpt lat="44.78558" lon="4.62226">
        <ele>401</ele>
        <time>2016-12-18T14:55:36Z</time>
      </trkpt>
      <trkpt lat="44.78546" lon="4.62213">
        <ele>401</ele>
        <time>2016-12-18T14:55:27Z</time>
      </trkpt>
      <trkpt lat="44.78537" lon="4.62203">
        <ele>401</ele>
        <time>2016-12-18T14:55:17Z</time>
      </trkpt>
      <trkpt lat="44.78524" lon="4.62198">
        <ele>401</ele>
        <time>2016-12-18T14:55:07Z</time>
      </trkpt>
      <trkpt lat="44.78513" lon="4.62191">
        <ele>403</ele>
        <time>2016-12-18T14:54:57Z</time>
      </trkpt>
      <trkpt lat="44.785" lon="4.62187">
        <ele>403</ele>
        <time>2016-12-18T14:54:48Z</time>
      </trkpt>
      <trkpt lat="44.78493" lon="4.62188">
        <ele>403</ele>
        <time>2016-12-18T14:54:38Z</time>
      </trkpt>
      <trkpt lat="44.78479" lon="4.62194">
        <ele>403</ele>
        <time>2016-12-18T14:54:28Z</time>
      </trkpt>
      <trkpt lat="44.78465" lon="4.622">
        <ele>403</ele>
        <time>2016-12-18T14:54:18Z</time>
      </trkpt>
      <trkpt lat="44.78452" lon="4.62206">
        <ele>404</ele>
        <time>2016-12-18T14:54:08Z</time>
      </trkpt>
      <trkpt lat="44.78442" lon="4.62212">
        <ele>407</ele>
        <time>2016-12-18T14:53:58Z</time>
      </trkpt>
      <trkpt lat="44.78433" lon="4.62221">
        <ele>407</ele>
        <time>2016-12-18T14:53:48Z</time>
      </trkpt>
      <trkpt lat="44.78419" lon="4.62231">
        <ele>406</ele>
        <time>2016-12-18T14:53:38Z</time>
      </trkpt>
      <trkpt lat="44.78407" lon="4.62237">
        <ele>410</ele>
        <time>2016-12-18T14:53:27Z</time>
      </trkpt>
      <trkpt lat="44.78407" lon="4.62253">
        <ele>410</ele>
        <time>2016-12-18T14:53:17Z</time>
      </trkpt>
      <trkpt lat="44.78402" lon="4.62262">
        <ele>409</ele>
        <time>2016-12-18T14:53:06Z</time>
      </trkpt>
      <trkpt lat="44.78394" lon="4.6226">
        <ele>409</ele>
        <time>2016-12-18T14:52:57Z</time>
      </trkpt>
      <trkpt lat="44.78385" lon="4.62247">
        <ele>409</ele>
        <time>2016-12-18T14:52:47Z</time>
      </trkpt>
      <trkpt lat="44.7838" lon="4.62241">
        <ele>409</ele>
        <time>2016-12-18T14:52:37Z</time>
      </trkpt>
      <trkpt lat="44.78377" lon="4.6224">
        <ele>409</ele>
        <time>2016-12-18T14:52:34Z</time>
      </trkpt>
      <trkpt lat="44.78377" lon="4.62241">
        <ele>409</ele>
        <time>2016-12-18T14:52:25Z</time>
      </trkpt>
      <trkpt lat="44.78371" lon="4.6223">
        <ele>407</ele>
        <time>2016-12-18T14:52:15Z</time>
      </trkpt>
      <trkpt lat="44.78368" lon="4.62233">
        <ele>407</ele>
        <time>2016-12-18T14:52:02Z</time>
      </trkpt>
      <trkpt lat="44.7837" lon="4.62232">
        <ele>407</ele>
        <time>2016-12-18T14:51:53Z</time>
      </trkpt>
      <trkpt lat="44.78372" lon="4.62231">
        <ele>407</ele>
        <time>2016-12-18T14:51:42Z</time>
      </trkpt>
      <trkpt lat="44.78371" lon="4.62228">
        <ele>407</ele>
        <time>2016-12-18T14:50:09Z</time>
      </trkpt>
      <trkpt lat="44.78371" lon="4.62227">
        <ele>407</ele>
        <time>2016-12-18T14:49:58Z</time>
      </trkpt>
      <trkpt lat="44.78368" lon="4.62231">
        <ele>407</ele>
        <time>2016-12-18T14:49:49Z</time>
      </trkpt>
      <trkpt lat="44.78365" lon="4.62244">
        <ele>410</ele>
        <time>2016-12-18T14:49:39Z</time>
      </trkpt>
      <trkpt lat="44.78363" lon="4.62247">
        <ele>410</ele>
        <time>2016-12-18T14:49:29Z</time>
      </trkpt>
      <trkpt lat="44.7836" lon="4.62245">
        <ele>410</ele>
        <time>2016-12-18T14:45:56Z</time>
      </trkpt>
      <trkpt lat="44.78362" lon="4.62245">
        <ele>410</ele>
        <time>2016-12-18T14:45:46Z</time>
      </trkpt>
      <trkpt lat="44.78361" lon="4.62248">
        <ele>410</ele>
        <time>2016-12-18T14:45:36Z</time>
      </trkpt>
      <trkpt lat="44.78361" lon="4.62245">
        <ele>410</ele>
        <time>2016-12-18T14:45:26Z</time>
      </trkpt>
      <trkpt lat="44.78365" lon="4.62238">
        <ele>410</ele>
        <time>2016-12-18T14:44:12Z</time>
      </trkpt>
      <trkpt lat="44.78368" lon="4.62242">
        <ele>410</ele>
        <time>2016-12-18T14:44:02Z</time>
      </trkpt>
      <trkpt lat="44.78358" lon="4.62251">
        <ele>410</ele>
        <time>2016-12-18T14:42:08Z</time>
      </trkpt>
      <trkpt lat="44.7836" lon="4.62243">
        <ele>410</ele>
        <time>2016-12-18T14:41:58Z</time>
      </trkpt>
      <trkpt lat="44.78362" lon="4.62238">
        <ele>410</ele>
        <time>2016-12-18T14:41:47Z</time>
      </trkpt>
      <trkpt lat="44.78365" lon="4.62238">
        <ele>410</ele>
        <time>2016-12-18T14:41:36Z</time>
      </trkpt>
      <trkpt lat="44.78362" lon="4.62242">
        <ele>410</ele>
        <time>2016-12-18T14:41:26Z</time>
      </trkpt>
      <trkpt lat="44.78348" lon="4.62254">
        <ele>410</ele>
        <time>2016-12-18T14:40:16Z</time>
      </trkpt>
      <trkpt lat="44.78342" lon="4.6226">
        <ele>413</ele>
        <time>2016-12-18T14:40:08Z</time>
      </trkpt>
      <trkpt lat="44.78334" lon="4.62264">
        <ele>419</ele>
        <time>2016-12-18T14:40:00Z</time>
      </trkpt>
      <trkpt lat="44.78326" lon="4.62271">
        <ele>419</ele>
        <time>2016-12-18T14:39:50Z</time>
      </trkpt>
      <trkpt lat="44.7832" lon="4.62271">
        <ele>419</ele>
        <time>2016-12-18T14:39:40Z</time>
      </trkpt>
      <trkpt lat="44.78309" lon="4.62274">
        <ele>427</ele>
        <time>2016-12-18T14:39:30Z</time>
      </trkpt>
      <trkpt lat="44.78299" lon="4.62275">
        <ele>427</ele>
        <time>2016-12-18T14:39:22Z</time>
      </trkpt>
      <trkpt lat="44.78291" lon="4.62279">
        <ele>435</ele>
        <time>2016-12-18T14:39:12Z</time>
      </trkpt>
      <trkpt lat="44.78282" lon="4.62285">
        <ele>435</ele>
        <time>2016-12-18T14:39:02Z</time>
      </trkpt>
      <trkpt lat="44.78271" lon="4.62281">
        <ele>435</ele>
        <time>2016-12-18T14:38:53Z</time>
      </trkpt>
      <trkpt lat="44.78264" lon="4.62276">
        <ele>439</ele>
        <time>2016-12-18T14:38:44Z</time>
      </trkpt>
      <trkpt lat="44.78263" lon="4.62277">
        <ele>439</ele>
        <time>2016-12-18T14:38:34Z</time>
      </trkpt>
      <trkpt lat="44.78255" lon="4.62283">
        <ele>439</ele>
        <time>2016-12-18T14:38:24Z</time>
      </trkpt>
      <trkpt lat="44.7825" lon="4.62285">
        <ele>439</ele>
        <time>2016-12-18T14:38:14Z</time>
      </trkpt>
      <trkpt lat="44.78239" lon="4.62288">
        <ele>439</ele>
        <time>2016-12-18T14:38:03Z</time>
      </trkpt>
      <trkpt lat="44.78235" lon="4.62305">
        <ele>445</ele>
        <time>2016-12-18T14:37:53Z</time>
      </trkpt>
      <trkpt lat="44.78232" lon="4.62318">
        <ele>445</ele>
        <time>2016-12-18T14:37:43Z</time>
      </trkpt>
      <trkpt lat="44.78232" lon="4.62325">
        <ele>450</ele>
        <time>2016-12-18T14:37:33Z</time>
      </trkpt>
      <trkpt lat="44.78225" lon="4.62339">
        <ele>450</ele>
        <time>2016-12-18T14:37:23Z</time>
      </trkpt>
      <trkpt lat="44.78224" lon="4.62346">
        <ele>450</ele>
        <time>2016-12-18T14:37:13Z</time>
      </trkpt>
      <trkpt lat="44.78226" lon="4.62355">
        <ele>457</ele>
        <time>2016-12-18T14:37:03Z</time>
      </trkpt>
      <trkpt lat="44.78227" lon="4.62371">
        <ele>457</ele>
        <time>2016-12-18T14:36:51Z</time>
      </trkpt>
      <trkpt lat="44.78228" lon="4.62371">
        <ele>457</ele>
        <time>2016-12-18T14:36:41Z</time>
      </trkpt>
      <trkpt lat="44.78225" lon="4.62378">
        <ele>463</ele>
        <time>2016-12-18T14:36:31Z</time>
      </trkpt>
      <trkpt lat="44.78224" lon="4.62378">
        <ele>463</ele>
        <time>2016-12-18T14:36:23Z</time>
      </trkpt>
      <trkpt lat="44.78219" lon="4.62382">
        <ele>463</ele>
        <time>2016-12-18T14:36:13Z</time>
      </trkpt>
      <trkpt lat="44.78212" lon="4.62386">
        <ele>463</ele>
        <time>2016-12-18T14:36:04Z</time>
      </trkpt>
      <trkpt lat="44.78202" lon="4.62389">
        <ele>466</ele>
        <time>2016-12-18T14:35:54Z</time>
      </trkpt>
      <trkpt lat="44.78192" lon="4.62391">
        <ele>466</ele>
        <time>2016-12-18T14:35:44Z</time>
      </trkpt>
      <trkpt lat="44.78185" lon="4.62392">
        <ele>466</ele>
        <time>2016-12-18T14:35:33Z</time>
      </trkpt>
      <trkpt lat="44.78183" lon="4.62399">
        <ele>466</ele>
        <time>2016-12-18T14:35:24Z</time>
      </trkpt>
      <trkpt lat="44.78174" lon="4.6241">
        <ele>470</ele>
        <time>2016-12-18T14:35:14Z</time>
      </trkpt>
      <trkpt lat="44.78168" lon="4.62424">
        <ele>470</ele>
        <time>2016-12-18T14:35:04Z</time>
      </trkpt>
      <trkpt lat="44.78165" lon="4.6244">
        <ele>471</ele>
        <time>2016-12-18T14:34:54Z</time>
      </trkpt>
      <trkpt lat="44.78166" lon="4.62445">
        <ele>471</ele>
        <time>2016-12-18T14:34:48Z</time>
      </trkpt>
      <trkpt lat="44.78153" lon="4.62457">
        <ele>471</ele>
        <time>2016-12-18T14:34:38Z</time>
      </trkpt>
      <trkpt lat="44.78134" lon="4.62465">
        <ele>473</ele>
        <time>2016-12-18T14:34:28Z</time>
      </trkpt>
      <trkpt lat="44.78122" lon="4.62471">
        <ele>478</ele>
        <time>2016-12-18T14:34:18Z</time>
      </trkpt>
      <trkpt lat="44.78108" lon="4.6247">
        <ele>478</ele>
        <time>2016-12-18T14:34:06Z</time>
      </trkpt>
      <trkpt lat="44.78101" lon="4.62472">
        <ele>478</ele>
        <time>2016-12-18T14:33:59Z</time>
      </trkpt>
      <trkpt lat="44.78097" lon="4.62472">
        <ele>483</ele>
        <time>2016-12-18T14:33:49Z</time>
      </trkpt>
      <trkpt lat="44.78081" lon="4.62467">
        <ele>483</ele>
        <time>2016-12-18T14:33:39Z</time>
      </trkpt>
      <trkpt lat="44.78068" lon="4.62468">
        <ele>487</ele>
        <time>2016-12-18T14:33:29Z</time>
      </trkpt>
      <trkpt lat="44.78062" lon="4.62466">
        <ele>487</ele>
        <time>2016-12-18T14:33:19Z</time>
      </trkpt>
      <trkpt lat="44.78054" lon="4.62463">
        <ele>487</ele>
        <time>2016-12-18T14:33:09Z</time>
      </trkpt>
      <trkpt lat="44.78042" lon="4.62462">
        <ele>487</ele>
        <time>2016-12-18T14:32:59Z</time>
      </trkpt>
      <trkpt lat="44.78029" lon="4.62461">
        <ele>491</ele>
        <time>2016-12-18T14:32:49Z</time>
      </trkpt>
      <trkpt lat="44.78017" lon="4.62463">
        <ele>491</ele>
        <time>2016-12-18T14:32:39Z</time>
      </trkpt>
      <trkpt lat="44.78004" lon="4.62471">
        <ele>500</ele>
        <time>2016-12-18T14:32:29Z</time>
      </trkpt>
      <trkpt lat="44.7799" lon="4.62479">
        <ele>500</ele>
        <time>2016-12-18T14:32:18Z</time>
      </trkpt>
      <trkpt lat="44.77977" lon="4.62479">
        <ele>509</ele>
        <time>2016-12-18T14:32:10Z</time>
      </trkpt>
      <trkpt lat="44.77967" lon="4.62494">
        <ele>512</ele>
        <time>2016-12-18T14:31:56Z</time>
      </trkpt>
      <trkpt lat="44.77959" lon="4.62502">
        <ele>512</ele>
        <time>2016-12-18T14:31:46Z</time>
      </trkpt>
      <trkpt lat="44.77954" lon="4.62514">
        <ele>521</ele>
        <time>2016-12-18T14:31:36Z</time>
      </trkpt>
      <trkpt lat="44.77943" lon="4.62515">
        <ele>525</ele>
        <time>2016-12-18T14:31:26Z</time>
      </trkpt>
      <trkpt lat="44.77938" lon="4.62526">
        <ele>525</ele>
        <time>2016-12-18T14:31:16Z</time>
      </trkpt>
      <trkpt lat="44.77932" lon="4.62535">
        <ele>525</ele>
        <time>2016-12-18T14:31:06Z</time>
      </trkpt>
      <trkpt lat="44.77926" lon="4.62546">
        <ele>539</ele>
        <time>2016-12-18T14:30:59Z</time>
      </trkpt>
      <trkpt lat="44.77923" lon="4.6256">
        <ele>539</ele>
        <time>2016-12-18T14:30:49Z</time>
      </trkpt>
      <trkpt lat="44.77922" lon="4.6257">
        <ele>538</ele>
        <time>2016-12-18T14:30:39Z</time>
      </trkpt>
      <trkpt lat="44.77898" lon="4.62586">
        <ele>547</ele>
        <time>2016-12-18T14:29:59Z</time>
      </trkpt>
      <trkpt lat="44.77895" lon="4.62587">
        <ele>547</ele>
        <time>2016-12-18T14:29:49Z</time>
      </trkpt>
      <trkpt lat="44.77891" lon="4.62591">
        <ele>547</ele>
        <time>2016-12-18T14:29:43Z</time>
      </trkpt>
      <trkpt lat="44.77883" lon="4.62596">
        <ele>547</ele>
        <time>2016-12-18T14:29:34Z</time>
      </trkpt>
      <trkpt lat="44.77872" lon="4.62604">
        <ele>552</ele>
        <time>2016-12-18T14:29:24Z</time>
      </trkpt>
      <trkpt lat="44.77862" lon="4.6261">
        <ele>552</ele>
        <time>2016-12-18T14:29:14Z</time>
      </trkpt>
      <trkpt lat="44.77853" lon="4.62618">
        <ele>552</ele>
        <time>2016-12-18T14:29:02Z</time>
      </trkpt>
      <trkpt lat="44.77842" lon="4.62624">
        <ele>564</ele>
        <time>2016-12-18T14:28:53Z</time>
      </trkpt>
      <trkpt lat="44.77827" lon="4.62633">
        <ele>559</ele>
        <time>2016-12-18T14:28:43Z</time>
      </trkpt>
      <trkpt lat="44.77822" lon="4.62633">
        <ele>559</ele>
        <time>2016-12-18T14:28:33Z</time>
      </trkpt>
      <trkpt lat="44.77811" lon="4.62638">
        <ele>571</ele>
        <time>2016-12-18T14:28:23Z</time>
      </trkpt>
      <trkpt lat="44.77803" lon="4.62649">
        <ele>571</ele>
        <time>2016-12-18T14:28:13Z</time>
      </trkpt>
      <trkpt lat="44.77794" lon="4.62665">
        <ele>566</ele>
        <time>2016-12-18T14:28:02Z</time>
      </trkpt>
      <trkpt lat="44.77788" lon="4.6268">
        <ele>579</ele>
        <time>2016-12-18T14:27:53Z</time>
      </trkpt>
      <trkpt lat="44.77784" lon="4.62695">
        <ele>577</ele>
        <time>2016-12-18T14:27:43Z</time>
      </trkpt>
      <trkpt lat="44.77781" lon="4.62713">
        <ele>576</ele>
        <time>2016-12-18T14:27:33Z</time>
      </trkpt>
      <trkpt lat="44.77777" lon="4.62738">
        <ele>574</ele>
        <time>2016-12-18T14:27:23Z</time>
      </trkpt>
      <trkpt lat="44.77768" lon="4.62757">
        <ele>574</ele>
        <time>2016-12-18T14:27:13Z</time>
      </trkpt>
      <trkpt lat="44.7776" lon="4.62777">
        <ele>583</ele>
        <time>2016-12-18T14:27:03Z</time>
      </trkpt>
      <trkpt lat="44.77756" lon="4.62792">
        <ele>579</ele>
        <time>2016-12-18T14:26:53Z</time>
      </trkpt>
      <trkpt lat="44.77749" lon="4.62813">
        <ele>579</ele>
        <time>2016-12-18T14:26:43Z</time>
      </trkpt>
      <trkpt lat="44.77735" lon="4.62824">
        <ele>587</ele>
        <time>2016-12-18T14:26:33Z</time>
      </trkpt>
      <trkpt lat="44.77728" lon="4.62837">
        <ele>587</ele>
        <time>2016-12-18T14:26:23Z</time>
      </trkpt>
      <trkpt lat="44.77724" lon="4.62855">
        <ele>584</ele>
        <time>2016-12-18T14:26:13Z</time>
      </trkpt>
      <trkpt lat="44.77721" lon="4.62855">
        <ele>584</ele>
        <time>2016-12-18T14:26:01Z</time>
      </trkpt>
      <trkpt lat="44.7772" lon="4.62854">
        <ele>584</ele>
        <time>2016-12-18T14:25:53Z</time>
      </trkpt>
      <trkpt lat="44.77714" lon="4.62846">
        <ele>587</ele>
        <time>2016-12-18T14:25:12Z</time>
      </trkpt>
      <trkpt lat="44.77712" lon="4.62845">
        <ele>587</ele>
        <time>2016-12-18T14:25:02Z</time>
      </trkpt>
      <trkpt lat="44.77715" lon="4.62852">
        <ele>584</ele>
        <time>2016-12-18T14:24:52Z</time>
      </trkpt>
      <trkpt lat="44.77719" lon="4.62854">
        <ele>584</ele>
        <time>2016-12-18T14:24:44Z</time>
      </trkpt>
      <trkpt lat="44.7772" lon="4.62852">
        <ele>584</ele>
        <time>2016-12-18T14:24:38Z</time>
      </trkpt>
      <trkpt lat="44.77714" lon="4.62855">
        <ele>584</ele>
        <time>2016-12-18T14:24:28Z</time>
      </trkpt>
      <trkpt lat="44.77706" lon="4.62866">
        <ele>597</ele>
        <time>2016-12-18T14:24:17Z</time>
      </trkpt>
      <trkpt lat="44.77698" lon="4.62879">
        <ele>592</ele>
        <time>2016-12-18T14:24:06Z</time>
      </trkpt>
      <trkpt lat="44.77692" lon="4.62883">
        <ele>592</ele>
        <time>2016-12-18T14:23:56Z</time>
      </trkpt>
      <trkpt lat="44.77682" lon="4.62889">
        <ele>592</ele>
        <time>2016-12-18T14:23:46Z</time>
      </trkpt>
      <trkpt lat="44.77675" lon="4.62896">
        <ele>605</ele>
        <time>2016-12-18T14:23:36Z</time>
      </trkpt>
      <trkpt lat="44.77662" lon="4.62908">
        <ele>599</ele>
        <time>2016-12-18T14:23:26Z</time>
      </trkpt>
      <trkpt lat="44.7763" lon="4.6294">
        <ele>603</ele>
        <time>2016-12-18T14:22:56Z</time>
      </trkpt>
      <trkpt lat="44.77628" lon="4.62939">
        <ele>603</ele>
        <time>2016-12-18T14:22:49Z</time>
      </trkpt>
      <trkpt lat="44.77619" lon="4.62951">
        <ele>616</ele>
        <time>2016-12-18T14:22:39Z</time>
      </trkpt>
      <trkpt lat="44.77611" lon="4.6296">
        <ele>610</ele>
        <time>2016-12-18T14:22:28Z</time>
      </trkpt>
      <trkpt lat="44.77603" lon="4.62965">
        <ele>610</ele>
        <time>2016-12-18T14:22:19Z</time>
      </trkpt>
      <trkpt lat="44.77595" lon="4.62976">
        <ele>622</ele>
        <time>2016-12-18T14:22:09Z</time>
      </trkpt>
      <trkpt lat="44.77588" lon="4.62984">
        <ele>622</ele>
        <time>2016-12-18T14:21:58Z</time>
      </trkpt>
      <trkpt lat="44.77582" lon="4.62995">
        <ele>619</ele>
        <time>2016-12-18T14:21:49Z</time>
      </trkpt>
      <trkpt lat="44.77578" lon="4.63004">
        <ele>619</ele>
        <time>2016-12-18T14:21:39Z</time>
      </trkpt>
      <trkpt lat="44.77568" lon="4.63015">
        <ele>629</ele>
        <time>2016-12-18T14:21:29Z</time>
      </trkpt>
      <trkpt lat="44.7756" lon="4.63027">
        <ele>629</ele>
        <time>2016-12-18T14:21:19Z</time>
      </trkpt>
      <trkpt lat="44.77557" lon="4.63038">
        <ele>629</ele>
        <time>2016-12-18T14:21:09Z</time>
      </trkpt>
      <trkpt lat="44.77545" lon="4.63051">
        <ele>627</ele>
        <time>2016-12-18T14:20:59Z</time>
      </trkpt>
      <trkpt lat="44.77544" lon="4.63062">
        <ele>627</ele>
        <time>2016-12-18T14:20:48Z</time>
      </trkpt>
      <trkpt lat="44.77538" lon="4.63072">
        <ele>637</ele>
        <time>2016-12-18T14:20:38Z</time>
      </trkpt>
      <trkpt lat="44.77533" lon="4.63084">
        <ele>637</ele>
        <time>2016-12-18T14:20:29Z</time>
      </trkpt>
      <trkpt lat="44.7753" lon="4.63094">
        <ele>637</ele>
        <time>2016-12-18T14:20:19Z</time>
      </trkpt>
      <trkpt lat="44.7753" lon="4.63108">
        <ele>639</ele>
        <time>2016-12-18T14:20:09Z</time>
      </trkpt>
      <trkpt lat="44.77538" lon="4.63121">
        <ele>639</ele>
        <time>2016-12-18T14:19:59Z</time>
      </trkpt>
      <trkpt lat="44.77544" lon="4.63127">
        <ele>635</ele>
        <time>2016-12-18T14:19:53Z</time>
      </trkpt>
      <trkpt lat="44.7755" lon="4.63134">
        <ele>635</ele>
        <time>2016-12-18T14:19:44Z</time>
      </trkpt>
      <trkpt lat="44.7756" lon="4.63142">
        <ele>635</ele>
        <time>2016-12-18T14:19:34Z</time>
      </trkpt>
      <trkpt lat="44.7757" lon="4.63156">
        <ele>625</ele>
        <time>2016-12-18T14:19:23Z</time>
      </trkpt>
      <trkpt lat="44.77566" lon="4.63166">
        <ele>638</ele>
        <time>2016-12-18T14:19:14Z</time>
      </trkpt>
      <trkpt lat="44.77561" lon="4.63181">
        <ele>639</ele>
        <time>2016-12-18T14:19:02Z</time>
      </trkpt>
      <trkpt lat="44.77556" lon="4.63191">
        <ele>639</ele>
        <time>2016-12-18T14:18:54Z</time>
      </trkpt>
      <trkpt lat="44.77544" lon="4.63204">
        <ele>639</ele>
        <time>2016-12-18T14:18:44Z</time>
      </trkpt>
      <trkpt lat="44.77539" lon="4.63216">
        <ele>650</ele>
        <time>2016-12-18T14:17:19Z</time>
      </trkpt>
      <trkpt lat="44.77536" lon="4.63219">
        <ele>650</ele>
        <time>2016-12-18T14:17:08Z</time>
      </trkpt>
      <trkpt lat="44.77536" lon="4.63217">
        <ele>650</ele>
        <time>2016-12-18T14:16:58Z</time>
      </trkpt>
      <trkpt lat="44.77532" lon="4.63219">
        <ele>650</ele>
        <time>2016-12-18T14:16:48Z</time>
      </trkpt>
      <trkpt lat="44.77532" lon="4.63219">
        <ele>650</ele>
        <time>2016-12-18T14:16:39Z</time>
      </trkpt>
      <trkpt lat="44.77532" lon="4.63218">
        <ele>650</ele>
        <time>2016-12-18T14:16:29Z</time>
      </trkpt>
      <trkpt lat="44.77534" lon="4.6322">
        <ele>650</ele>
        <time>2016-12-18T14:16:19Z</time>
      </trkpt>
      <trkpt lat="44.77528" lon="4.63229">
        <ele>650</ele>
        <time>2016-12-18T14:16:08Z</time>
      </trkpt>
      <trkpt lat="44.77521" lon="4.63239">
        <ele>646</ele>
        <time>2016-12-18T14:15:59Z</time>
      </trkpt>
      <trkpt lat="44.77519" lon="4.63261">
        <ele>646</ele>
        <time>2016-12-18T14:15:48Z</time>
      </trkpt>
      <trkpt lat="44.77512" lon="4.63272">
        <ele>655</ele>
        <time>2016-12-18T14:15:39Z</time>
      </trkpt>
      <trkpt lat="44.7751" lon="4.63288">
        <ele>655</ele>
        <time>2016-12-18T14:15:29Z</time>
      </trkpt>
      <trkpt lat="44.77506" lon="4.63304">
        <ele>651</ele>
        <time>2016-12-18T14:15:19Z</time>
      </trkpt>
      <trkpt lat="44.775" lon="4.6332">
        <ele>648</ele>
        <time>2016-12-18T14:15:09Z</time>
      </trkpt>
      <trkpt lat="44.77497" lon="4.63337">
        <ele>648</ele>
        <time>2016-12-18T14:14:59Z</time>
      </trkpt>
      <trkpt lat="44.7749" lon="4.63351">
        <ele>644</ele>
        <time>2016-12-18T14:14:49Z</time>
      </trkpt>
      <trkpt lat="44.77487" lon="4.63362">
        <ele>644</ele>
        <time>2016-12-18T14:14:39Z</time>
      </trkpt>
      <trkpt lat="44.77475" lon="4.63377">
        <ele>656</ele>
        <time>2016-12-18T14:14:28Z</time>
      </trkpt>
      <trkpt lat="44.7747" lon="4.63397">
        <ele>656</ele>
        <time>2016-12-18T14:14:18Z</time>
      </trkpt>
      <trkpt lat="44.77465" lon="4.63412">
        <ele>656</ele>
        <time>2016-12-18T14:14:07Z</time>
      </trkpt>
      <trkpt lat="44.77462" lon="4.63418">
        <ele>656</ele>
        <time>2016-12-18T14:14:03Z</time>
      </trkpt>
      <trkpt lat="44.77452" lon="4.6343">
        <ele>668</ele>
        <time>2016-12-18T14:13:54Z</time>
      </trkpt>
      <trkpt lat="44.77452" lon="4.6344">
        <ele>666</ele>
        <time>2016-12-18T14:13:44Z</time>
      </trkpt>
      <trkpt lat="44.77449" lon="4.63448">
        <ele>666</ele>
        <time>2016-12-18T14:13:34Z</time>
      </trkpt>
      <trkpt lat="44.77446" lon="4.63458">
        <ele>666</ele>
        <time>2016-12-18T14:13:24Z</time>
      </trkpt>
      <trkpt lat="44.77441" lon="4.63474">
        <ele>670</ele>
        <time>2016-12-18T14:13:13Z</time>
      </trkpt>
      <trkpt lat="44.77437" lon="4.63484">
        <ele>670</ele>
        <time>2016-12-18T14:13:04Z</time>
      </trkpt>
      <trkpt lat="44.7744" lon="4.63494">
        <ele>676</ele>
        <time>2016-12-18T14:12:54Z</time>
      </trkpt>
      <trkpt lat="44.7745" lon="4.63503">
        <ele>676</ele>
        <time>2016-12-18T14:12:44Z</time>
      </trkpt>
      <trkpt lat="44.77456" lon="4.63508">
        <ele>676</ele>
        <time>2016-12-18T14:12:34Z</time>
      </trkpt>
      <trkpt lat="44.77461" lon="4.63517">
        <ele>680</ele>
        <time>2016-12-18T14:12:24Z</time>
      </trkpt>
      <trkpt lat="44.77464" lon="4.63527">
        <ele>680</ele>
        <time>2016-12-18T14:12:14Z</time>
      </trkpt>
      <trkpt lat="44.7746" lon="4.6353">
        <ele>680</ele>
        <time>2016-12-18T14:12:03Z</time>
      </trkpt>
      <trkpt lat="44.77449" lon="4.63526">
        <ele>682</ele>
        <time>2016-12-18T14:11:54Z</time>
      </trkpt>
      <trkpt lat="44.77439" lon="4.63528">
        <ele>682</ele>
        <time>2016-12-18T14:11:43Z</time>
      </trkpt>
      <trkpt lat="44.7743" lon="4.63527">
        <ele>687</ele>
        <time>2016-12-18T14:11:33Z</time>
      </trkpt>
      <trkpt lat="44.7742" lon="4.63529">
        <ele>687</ele>
        <time>2016-12-18T14:11:23Z</time>
      </trkpt>
      <trkpt lat="44.77415" lon="4.63523">
        <ele>687</ele>
        <time>2016-12-18T14:11:13Z</time>
      </trkpt>
      <trkpt lat="44.77411" lon="4.63516">
        <ele>687</ele>
        <time>2016-12-18T14:11:03Z</time>
      </trkpt>
      <trkpt lat="44.77404" lon="4.63513">
        <ele>681</ele>
        <time>2016-12-18T14:10:54Z</time>
      </trkpt>
      <trkpt lat="44.77403" lon="4.63525">
        <ele>687</ele>
        <time>2016-12-18T14:10:44Z</time>
      </trkpt>
      <trkpt lat="44.77408" lon="4.63534">
        <ele>687</ele>
        <time>2016-12-18T14:10:34Z</time>
      </trkpt>
      <trkpt lat="44.77407" lon="4.63545">
        <ele>695</ele>
        <time>2016-12-18T14:10:24Z</time>
      </trkpt>
      <trkpt lat="44.77407" lon="4.63552">
        <ele>695</ele>
        <time>2016-12-18T14:10:15Z</time>
      </trkpt>
      <trkpt lat="44.77412" lon="4.63563">
        <ele>695</ele>
        <time>2016-12-18T14:10:01Z</time>
      </trkpt>
      <trkpt lat="44.7742" lon="4.63567">
        <ele>695</ele>
        <time>2016-12-18T14:09:53Z</time>
      </trkpt>
      <trkpt lat="44.77433" lon="4.63574">
        <ele>701</ele>
        <time>2016-12-18T14:09:44Z</time>
      </trkpt>
      <trkpt lat="44.77439" lon="4.63577">
        <ele>701</ele>
        <time>2016-12-18T14:09:34Z</time>
      </trkpt>
      <trkpt lat="44.77444" lon="4.63576">
        <ele>701</ele>
        <time>2016-12-18T14:09:29Z</time>
      </trkpt>
      <trkpt lat="44.77454" lon="4.63578">
        <ele>701</ele>
        <time>2016-12-18T14:09:19Z</time>
      </trkpt>
      <trkpt lat="44.77466" lon="4.63586">
        <ele>698</ele>
        <time>2016-12-18T14:09:09Z</time>
      </trkpt>
      <trkpt lat="44.77476" lon="4.6359">
        <ele>698</ele>
        <time>2016-12-18T14:09:00Z</time>
      </trkpt>
      <trkpt lat="44.7748" lon="4.63591">
        <ele>698</ele>
        <time>2016-12-18T14:08:50Z</time>
      </trkpt>
      <trkpt lat="44.77488" lon="4.63597">
        <ele>698</ele>
        <time>2016-12-18T14:08:40Z</time>
      </trkpt>
      <trkpt lat="44.775" lon="4.63602">
        <ele>709</ele>
        <time>2016-12-18T14:08:30Z</time>
      </trkpt>
      <trkpt lat="44.77507" lon="4.63605">
        <ele>709</ele>
        <time>2016-12-18T14:08:20Z</time>
      </trkpt>
      <trkpt lat="44.77513" lon="4.63605">
        <ele>709</ele>
        <time>2016-12-18T14:08:10Z</time>
      </trkpt>
      <trkpt lat="44.77522" lon="4.63611">
        <ele>710</ele>
        <time>2016-12-18T14:07:58Z</time>
      </trkpt>
      <trkpt lat="44.7753" lon="4.6361">
        <ele>710</ele>
        <time>2016-12-18T14:07:49Z</time>
      </trkpt>
      <trkpt lat="44.77539" lon="4.63611">
        <ele>710</ele>
        <time>2016-12-18T14:07:38Z</time>
      </trkpt>
      <trkpt lat="44.77549" lon="4.63616">
        <ele>713</ele>
        <time>2016-12-18T14:07:28Z</time>
      </trkpt>
      <trkpt lat="44.77558" lon="4.63622">
        <ele>713</ele>
        <time>2016-12-18T14:07:18Z</time>
      </trkpt>
      <trkpt lat="44.77569" lon="4.63624">
        <ele>713</ele>
        <time>2016-12-18T14:07:08Z</time>
      </trkpt>
      <trkpt lat="44.77579" lon="4.63629">
        <ele>721</ele>
        <time>2016-12-18T14:06:56Z</time>
      </trkpt>
      <trkpt lat="44.7759" lon="4.63638">
        <ele>721</ele>
        <time>2016-12-18T14:06:46Z</time>
      </trkpt>
      <trkpt lat="44.77593" lon="4.63645">
        <ele>721</ele>
        <time>2016-12-18T14:06:36Z</time>
      </trkpt>
      <trkpt lat="44.77594" lon="4.63647">
        <ele>721</ele>
        <time>2016-12-18T14:06:29Z</time>
      </trkpt>
      <trkpt lat="44.77599" lon="4.63662">
        <ele>720</ele>
        <time>2016-12-18T14:06:18Z</time>
      </trkpt>
      <trkpt lat="44.77599" lon="4.6367">
        <ele>720</ele>
        <time>2016-12-18T14:06:08Z</time>
      </trkpt>
      <trkpt lat="44.77596" lon="4.63686">
        <ele>729</ele>
        <time>2016-12-18T14:05:58Z</time>
      </trkpt>
      <trkpt lat="44.7759" lon="4.63698">
        <ele>729</ele>
        <time>2016-12-18T14:05:48Z</time>
      </trkpt>
      <trkpt lat="44.77579" lon="4.63712">
        <ele>728</ele>
        <time>2016-12-18T14:05:38Z</time>
      </trkpt>
      <trkpt lat="44.7757" lon="4.63727">
        <ele>728</ele>
        <time>2016-12-18T14:05:27Z</time>
      </trkpt>
      <trkpt lat="44.77563" lon="4.63733">
        <ele>739</ele>
        <time>2016-12-18T14:05:18Z</time>
      </trkpt>
      <trkpt lat="44.7756" lon="4.63739">
        <ele>738</ele>
        <time>2016-12-18T14:05:09Z</time>
      </trkpt>
      <trkpt lat="44.77553" lon="4.63758">
        <ele>738</ele>
        <time>2016-12-18T14:04:58Z</time>
      </trkpt>
      <trkpt lat="44.77551" lon="4.63762">
        <ele>738</ele>
        <time>2016-12-18T14:04:54Z</time>
      </trkpt>
      <trkpt lat="44.77545" lon="4.63783">
        <ele>737</ele>
        <time>2016-12-18T14:04:44Z</time>
      </trkpt>
      <trkpt lat="44.77542" lon="4.63798">
        <ele>736</ele>
        <time>2016-12-18T14:04:34Z</time>
      </trkpt>
      <trkpt lat="44.77536" lon="4.63807">
        <ele>749</ele>
        <time>2016-12-18T14:04:24Z</time>
      </trkpt>
      <trkpt lat="44.77529" lon="4.63824">
        <ele>747</ele>
        <time>2016-12-18T14:04:13Z</time>
      </trkpt>
      <trkpt lat="44.77525" lon="4.63837">
        <ele>747</ele>
        <time>2016-12-18T14:04:04Z</time>
      </trkpt>
      <trkpt lat="44.77523" lon="4.63854">
        <ele>746</ele>
        <time>2016-12-18T14:03:53Z</time>
      </trkpt>
      <trkpt lat="44.77518" lon="4.63867">
        <ele>746</ele>
        <time>2016-12-18T14:03:44Z</time>
      </trkpt>
      <trkpt lat="44.7751" lon="4.63888">
        <ele>755</ele>
        <time>2016-12-18T14:03:34Z</time>
      </trkpt>
      <trkpt lat="44.77502" lon="4.63907">
        <ele>757</ele>
        <time>2016-12-18T14:03:23Z</time>
      </trkpt>
      <trkpt lat="44.77501" lon="4.63918">
        <ele>757</ele>
        <time>2016-12-18T14:03:15Z</time>
      </trkpt>
      <trkpt lat="44.77499" lon="4.63936">
        <ele>758</ele>
        <time>2016-12-18T14:03:03Z</time>
      </trkpt>
      <trkpt lat="44.77501" lon="4.63957">
        <ele>758</ele>
        <time>2016-12-18T14:02:53Z</time>
      </trkpt>
      <trkpt lat="44.775" lon="4.63973">
        <ele>760</ele>
        <time>2016-12-18T14:02:43Z</time>
      </trkpt>
      <trkpt lat="44.77497" lon="4.63985">
        <ele>760</ele>
        <time>2016-12-18T14:02:33Z</time>
      </trkpt>
      <trkpt lat="44.77498" lon="4.64004">
        <ele>762</ele>
        <time>2016-12-18T14:02:23Z</time>
      </trkpt>
      <trkpt lat="44.77501" lon="4.64019">
        <ele>767</ele>
        <time>2016-12-18T14:02:13Z</time>
      </trkpt>
      <trkpt lat="44.77504" lon="4.64037">
        <ele>767</ele>
        <time>2016-12-18T14:02:03Z</time>
      </trkpt>
      <trkpt lat="44.77513" lon="4.64062">
        <ele>771</ele>
        <time>2016-12-18T14:01:52Z</time>
      </trkpt>
      <trkpt lat="44.77516" lon="4.64072">
        <ele>770</ele>
        <time>2016-12-18T14:01:44Z</time>
      </trkpt>
      <trkpt lat="44.7752" lon="4.64084">
        <ele>770</ele>
        <time>2016-12-18T14:01:34Z</time>
      </trkpt>
      <trkpt lat="44.77519" lon="4.6409">
        <ele>770</ele>
        <time>2016-12-18T14:01:24Z</time>
      </trkpt>
      <trkpt lat="44.77509" lon="4.64091">
        <ele>776</ele>
        <time>2016-12-18T14:01:14Z</time>
      </trkpt>
      <trkpt lat="44.77498" lon="4.64083">
        <ele>776</ele>
        <time>2016-12-18T14:01:03Z</time>
      </trkpt>
      <trkpt lat="44.77491" lon="4.64078">
        <ele>776</ele>
        <time>2016-12-18T14:00:54Z</time>
      </trkpt>
      <trkpt lat="44.77482" lon="4.64071">
        <ele>777</ele>
        <time>2016-12-18T14:00:43Z</time>
      </trkpt>
      <trkpt lat="44.77472" lon="4.64065">
        <ele>773</ele>
        <time>2016-12-18T14:00:31Z</time>
      </trkpt>
      <trkpt lat="44.77469" lon="4.64061">
        <ele>773</ele>
        <time>2016-12-18T14:00:28Z</time>
      </trkpt>
      <trkpt lat="44.77458" lon="4.64058">
        <ele>777</ele>
        <time>2016-12-18T14:00:18Z</time>
      </trkpt>
      <trkpt lat="44.77446" lon="4.64054">
        <ele>777</ele>
        <time>2016-12-18T14:00:08Z</time>
      </trkpt>
      <trkpt lat="44.7744" lon="4.64051">
        <ele>777</ele>
        <time>2016-12-18T13:59:58Z</time>
      </trkpt>
      <trkpt lat="44.7743" lon="4.6407">
        <ele>774</ele>
        <time>2016-12-18T13:58:29Z</time>
      </trkpt>
      <trkpt lat="44.77432" lon="4.6407">
        <ele>777</ele>
        <time>2016-12-18T13:58:20Z</time>
      </trkpt>
      <trkpt lat="44.77441" lon="4.64075">
        <ele>777</ele>
        <time>2016-12-18T13:58:09Z</time>
      </trkpt>
      <trkpt lat="44.77452" lon="4.64083">
        <ele>777</ele>
        <time>2016-12-18T13:57:59Z</time>
      </trkpt>
      <trkpt lat="44.77461" lon="4.64091">
        <ele>777</ele>
        <time>2016-12-18T13:57:49Z</time>
      </trkpt>
      <trkpt lat="44.77472" lon="4.64099">
        <ele>781</ele>
        <time>2016-12-18T13:57:39Z</time>
      </trkpt>
      <trkpt lat="44.77484" lon="4.6411">
        <ele>781</ele>
        <time>2016-12-18T13:57:29Z</time>
      </trkpt>
      <trkpt lat="44.77493" lon="4.6412">
        <ele>781</ele>
        <time>2016-12-18T13:57:19Z</time>
      </trkpt>
      <trkpt lat="44.77502" lon="4.64132">
        <ele>783</ele>
        <time>2016-12-18T13:57:10Z</time>
      </trkpt>
      <trkpt lat="44.77514" lon="4.64151">
        <ele>780</ele>
        <time>2016-12-18T13:56:58Z</time>
      </trkpt>
      <trkpt lat="44.77524" lon="4.64164">
        <ele>783</ele>
        <time>2016-12-18T13:56:48Z</time>
      </trkpt>
      <trkpt lat="44.77531" lon="4.64175">
        <ele>783</ele>
        <time>2016-12-18T13:56:38Z</time>
      </trkpt>
      <trkpt lat="44.7754" lon="4.64192">
        <ele>785</ele>
        <time>2016-12-18T13:56:29Z</time>
      </trkpt>
      <trkpt lat="44.77546" lon="4.64203">
        <ele>779</ele>
        <time>2016-12-18T13:56:18Z</time>
      </trkpt>
      <trkpt lat="44.77554" lon="4.64217">
        <ele>782</ele>
        <time>2016-12-18T13:56:08Z</time>
      </trkpt>
      <trkpt lat="44.77561" lon="4.64225">
        <ele>782</ele>
        <time>2016-12-18T13:55:59Z</time>
      </trkpt>
      <trkpt lat="44.77571" lon="4.64238">
        <ele>784</ele>
        <time>2016-12-18T13:55:49Z</time>
      </trkpt>
      <trkpt lat="44.77582" lon="4.64249">
        <ele>784</ele>
        <time>2016-12-18T13:55:38Z</time>
      </trkpt>
      <trkpt lat="44.7759" lon="4.6426">
        <ele>784</ele>
        <time>2016-12-18T13:55:28Z</time>
      </trkpt>
      <trkpt lat="44.77597" lon="4.64269">
        <ele>788</ele>
        <time>2016-12-18T13:55:18Z</time>
      </trkpt>
      <trkpt lat="44.77605" lon="4.64276">
        <ele>788</ele>
        <time>2016-12-18T13:55:08Z</time>
      </trkpt>
      <trkpt lat="44.77615" lon="4.64284">
        <ele>788</ele>
        <time>2016-12-18T13:54:58Z</time>
      </trkpt>
      <trkpt lat="44.77625" lon="4.64291">
        <ele>788</ele>
        <time>2016-12-18T13:54:48Z</time>
      </trkpt>
      <trkpt lat="44.77634" lon="4.643">
        <ele>790</ele>
        <time>2016-12-18T13:54:38Z</time>
      </trkpt>
      <trkpt lat="44.77637" lon="4.64305">
        <ele>790</ele>
        <time>2016-12-18T13:54:34Z</time>
      </trkpt>
      <trkpt lat="44.77644" lon="4.64315">
        <ele>790</ele>
        <time>2016-12-18T13:54:25Z</time>
      </trkpt>
      <trkpt lat="44.77652" lon="4.6433">
        <ele>791</ele>
        <time>2016-12-18T13:54:13Z</time>
      </trkpt>
      <trkpt lat="44.77662" lon="4.64336">
        <ele>793</ele>
        <time>2016-12-18T13:54:03Z</time>
      </trkpt>
      <trkpt lat="44.7767" lon="4.64347">
        <ele>793</ele>
        <time>2016-12-18T13:53:53Z</time>
      </trkpt>
      <trkpt lat="44.77677" lon="4.64353">
        <ele>792</ele>
        <time>2016-12-18T13:53:44Z</time>
      </trkpt>
      <trkpt lat="44.77682" lon="4.64362">
        <ele>795</ele>
        <time>2016-12-18T13:53:33Z</time>
      </trkpt>
      <trkpt lat="44.77688" lon="4.64368">
        <ele>795</ele>
        <time>2016-12-18T13:53:23Z</time>
      </trkpt>
      <trkpt lat="44.77695" lon="4.64377">
        <ele>794</ele>
        <time>2016-12-18T13:53:14Z</time>
      </trkpt>
      <trkpt lat="44.77701" lon="4.64383">
        <ele>794</ele>
        <time>2016-12-18T13:53:02Z</time>
      </trkpt>
      <trkpt lat="44.77709" lon="4.64387">
        <ele>796</ele>
        <time>2016-12-18T13:52:54Z</time>
      </trkpt>
      <trkpt lat="44.77715" lon="4.64392">
        <ele>796</ele>
        <time>2016-12-18T13:52:44Z</time>
      </trkpt>
      <trkpt lat="44.77721" lon="4.64389">
        <ele>796</ele>
        <time>2016-12-18T13:52:34Z</time>
      </trkpt>
      <trkpt lat="44.77732" lon="4.64386">
        <ele>796</ele>
        <time>2016-12-18T13:52:24Z</time>
      </trkpt>
      <trkpt lat="44.77742" lon="4.64394">
        <ele>796</ele>
        <time>2016-12-18T13:52:14Z</time>
      </trkpt>
      <trkpt lat="44.77749" lon="4.64412">
        <ele>798</ele>
        <time>2016-12-18T13:52:04Z</time>
      </trkpt>
      <trkpt lat="44.77754" lon="4.64427">
        <ele>798</ele>
        <time>2016-12-18T13:51:53Z</time>
      </trkpt>
      <trkpt lat="44.7776" lon="4.64447">
        <ele>799</ele>
        <time>2016-12-18T13:51:43Z</time>
      </trkpt>
      <trkpt lat="44.77764" lon="4.64461">
        <ele>797</ele>
        <time>2016-12-18T13:51:34Z</time>
      </trkpt>
      <trkpt lat="44.77772" lon="4.64479">
        <ele>800</ele>
        <time>2016-12-18T13:51:24Z</time>
      </trkpt>
      <trkpt lat="44.77779" lon="4.64493">
        <ele>798</ele>
        <time>2016-12-18T13:51:14Z</time>
      </trkpt>
      <trkpt lat="44.77789" lon="4.64508">
        <ele>798</ele>
        <time>2016-12-18T13:51:02Z</time>
      </trkpt>
      <trkpt lat="44.77793" lon="4.64516">
        <ele>804</ele>
        <time>2016-12-18T13:50:54Z</time>
      </trkpt>
      <trkpt lat="44.77799" lon="4.64532">
        <ele>804</ele>
        <time>2016-12-18T13:50:44Z</time>
      </trkpt>
      <trkpt lat="44.77803" lon="4.64547">
        <ele>803</ele>
        <time>2016-12-18T13:50:34Z</time>
      </trkpt>
      <trkpt lat="44.77811" lon="4.64564">
        <ele>803</ele>
        <time>2016-12-18T13:50:24Z</time>
      </trkpt>
      <trkpt lat="44.77817" lon="4.64583">
        <ele>799</ele>
        <time>2016-12-18T13:50:13Z</time>
      </trkpt>
      <trkpt lat="44.77823" lon="4.64598">
        <ele>804</ele>
        <time>2016-12-18T13:50:03Z</time>
      </trkpt>
      <trkpt lat="44.77825" lon="4.64606">
        <ele>804</ele>
        <time>2016-12-18T13:49:58Z</time>
      </trkpt>
      <trkpt lat="44.77829" lon="4.64619">
        <ele>804</ele>
        <time>2016-12-18T13:49:48Z</time>
      </trkpt>
      <trkpt lat="44.77837" lon="4.64637">
        <ele>803</ele>
        <time>2016-12-18T13:49:39Z</time>
      </trkpt>
      <trkpt lat="44.77842" lon="4.64648">
        <ele>803</ele>
        <time>2016-12-18T13:49:29Z</time>
      </trkpt>
      <trkpt lat="44.77845" lon="4.64666">
        <ele>801</ele>
        <time>2016-12-18T13:49:19Z</time>
      </trkpt>
      <trkpt lat="44.77849" lon="4.64679">
        <ele>808</ele>
        <time>2016-12-18T13:49:09Z</time>
      </trkpt>
      <trkpt lat="44.77855" lon="4.64696">
        <ele>806</ele>
        <time>2016-12-18T13:48:59Z</time>
      </trkpt>
      <trkpt lat="44.77864" lon="4.64716">
        <ele>806</ele>
        <time>2016-12-18T13:48:48Z</time>
      </trkpt>
      <trkpt lat="44.77867" lon="4.64728">
        <ele>806</ele>
        <time>2016-12-18T13:48:39Z</time>
      </trkpt>
      <trkpt lat="44.77874" lon="4.64748">
        <ele>805</ele>
        <time>2016-12-18T13:48:28Z</time>
      </trkpt>
      <trkpt lat="44.77878" lon="4.64762">
        <ele>812</ele>
        <time>2016-12-18T13:48:19Z</time>
      </trkpt>
      <trkpt lat="44.77884" lon="4.64779">
        <ele>808</ele>
        <time>2016-12-18T13:48:09Z</time>
      </trkpt>
      <trkpt lat="44.77893" lon="4.64795">
        <ele>807</ele>
        <time>2016-12-18T13:47:58Z</time>
      </trkpt>
      <trkpt lat="44.77901" lon="4.6481">
        <ele>807</ele>
        <time>2016-12-18T13:47:48Z</time>
      </trkpt>
      <trkpt lat="44.77909" lon="4.64822">
        <ele>812</ele>
        <time>2016-12-18T13:47:38Z</time>
      </trkpt>
      <trkpt lat="44.77915" lon="4.64833">
        <ele>812</ele>
        <time>2016-12-18T13:47:28Z</time>
      </trkpt>
      <trkpt lat="44.77916" lon="4.64835">
        <ele>812</ele>
        <time>2016-12-18T13:47:18Z</time>
      </trkpt>
      <trkpt lat="44.77922" lon="4.64839">
        <ele>812</ele>
        <time>2016-12-18T13:47:09Z</time>
      </trkpt>
      <trkpt lat="44.77925" lon="4.64843">
        <ele>812</ele>
        <time>2016-12-18T13:47:00Z</time>
      </trkpt>
      <trkpt lat="44.77936" lon="4.64848">
        <ele>812</ele>
        <time>2016-12-18T13:46:48Z</time>
      </trkpt>
      <trkpt lat="44.77945" lon="4.64855">
        <ele>812</ele>
        <time>2016-12-18T13:46:38Z</time>
      </trkpt>
      <trkpt lat="44.77953" lon="4.64859">
        <ele>812</ele>
        <time>2016-12-18T13:46:29Z</time>
      </trkpt>
      <trkpt lat="44.77964" lon="4.6487">
        <ele>814</ele>
        <time>2016-12-18T13:46:18Z</time>
      </trkpt>
      <trkpt lat="44.77974" lon="4.64878">
        <ele>807</ele>
        <time>2016-12-18T13:46:08Z</time>
      </trkpt>
      <trkpt lat="44.77985" lon="4.64887">
        <ele>807</ele>
        <time>2016-12-18T13:45:58Z</time>
      </trkpt>
      <trkpt lat="44.77997" lon="4.64904">
        <ele>800</ele>
        <time>2016-12-18T13:45:46Z</time>
      </trkpt>
      <trkpt lat="44.78001" lon="4.64912">
        <ele>800</ele>
        <time>2016-12-18T13:45:36Z</time>
      </trkpt>
      <trkpt lat="44.78011" lon="4.64915">
        <ele>800</ele>
        <time>2016-12-18T13:45:26Z</time>
      </trkpt>
      <trkpt lat="44.78013" lon="4.64916">
        <ele>800</ele>
        <time>2016-12-18T13:45:21Z</time>
      </trkpt>
      <trkpt lat="44.78022" lon="4.64921">
        <ele>804</ele>
        <time>2016-12-18T13:45:14Z</time>
      </trkpt>
      <trkpt lat="44.78034" lon="4.64929">
        <ele>804</ele>
        <time>2016-12-18T13:45:01Z</time>
      </trkpt>
      <trkpt lat="44.78043" lon="4.64937">
        <ele>803</ele>
        <time>2016-12-18T13:44:53Z</time>
      </trkpt>
      <trkpt lat="44.78052" lon="4.64948">
        <ele>803</ele>
        <time>2016-12-18T13:44:44Z</time>
      </trkpt>
      <trkpt lat="44.78061" lon="4.64962">
        <ele>801</ele>
        <time>2016-12-18T13:44:33Z</time>
      </trkpt>
      <trkpt lat="44.78068" lon="4.64973">
        <ele>801</ele>
        <time>2016-12-18T13:44:24Z</time>
      </trkpt>
      <trkpt lat="44.78074" lon="4.64986">
        <ele>804</ele>
        <time>2016-12-18T13:44:13Z</time>
      </trkpt>
      <trkpt lat="44.78085" lon="4.65002">
        <ele>802</ele>
        <time>2016-12-18T13:44:02Z</time>
      </trkpt>
      <trkpt lat="44.78092" lon="4.65013">
        <ele>802</ele>
        <time>2016-12-18T13:43:54Z</time>
      </trkpt>
      <trkpt lat="44.78101" lon="4.65029">
        <ele>803</ele>
        <time>2016-12-18T13:43:44Z</time>
      </trkpt>
      <trkpt lat="44.78105" lon="4.65045">
        <ele>799</ele>
        <time>2016-12-18T13:43:34Z</time>
      </trkpt>
      <trkpt lat="44.7811" lon="4.65056">
        <ele>799</ele>
        <time>2016-12-18T13:43:24Z</time>
      </trkpt>
      <trkpt lat="44.78109" lon="4.65056">
        <ele>799</ele>
        <time>2016-12-18T13:43:13Z</time>
      </trkpt>
      <trkpt lat="44.78114" lon="4.65066">
        <ele>799</ele>
        <time>2016-12-18T13:43:03Z</time>
      </trkpt>
      <trkpt lat="44.7812" lon="4.65077">
        <ele>797</ele>
        <time>2016-12-18T13:42:53Z</time>
      </trkpt>
      <trkpt lat="44.78129" lon="4.65093">
        <ele>802</ele>
        <time>2016-12-18T13:42:43Z</time>
      </trkpt>
      <trkpt lat="44.78135" lon="4.65104">
        <ele>800</ele>
        <time>2016-12-18T13:42:34Z</time>
      </trkpt>
      <trkpt lat="44.78141" lon="4.65118">
        <ele>800</ele>
        <time>2016-12-18T13:42:23Z</time>
      </trkpt>
      <trkpt lat="44.7815" lon="4.65132">
        <ele>796</ele>
        <time>2016-12-18T13:42:13Z</time>
      </trkpt>
      <trkpt lat="44.7816" lon="4.65143">
        <ele>798</ele>
        <time>2016-12-18T13:42:02Z</time>
      </trkpt>
      <trkpt lat="44.78166" lon="4.65149">
        <ele>798</ele>
        <time>2016-12-18T13:41:54Z</time>
      </trkpt>
      <trkpt lat="44.78176" lon="4.65158">
        <ele>791</ele>
        <time>2016-12-18T13:41:44Z</time>
      </trkpt>
      <trkpt lat="44.78181" lon="4.65167">
        <ele>795</ele>
        <time>2016-12-18T13:41:34Z</time>
      </trkpt>
      <trkpt lat="44.78188" lon="4.65179">
        <ele>795</ele>
        <time>2016-12-18T13:41:23Z</time>
      </trkpt>
      <trkpt lat="44.78197" lon="4.65188">
        <ele>786</ele>
        <time>2016-12-18T13:41:14Z</time>
      </trkpt>
      <trkpt lat="44.78203" lon="4.65197">
        <ele>786</ele>
        <time>2016-12-18T13:41:04Z</time>
      </trkpt>
      <trkpt lat="44.78209" lon="4.65204">
        <ele>789</ele>
        <time>2016-12-18T13:40:54Z</time>
      </trkpt>
      <trkpt lat="44.78212" lon="4.6521">
        <ele>785</ele>
        <time>2016-12-18T13:40:48Z</time>
      </trkpt>
      <trkpt lat="44.78219" lon="4.65219">
        <ele>785</ele>
        <time>2016-12-18T13:40:39Z</time>
      </trkpt>
      <trkpt lat="44.78226" lon="4.65227">
        <ele>785</ele>
        <time>2016-12-18T13:40:29Z</time>
      </trkpt>
      <trkpt lat="44.78229" lon="4.65238">
        <ele>780</ele>
        <time>2016-12-18T13:40:19Z</time>
      </trkpt>
      <trkpt lat="44.78234" lon="4.65247">
        <ele>780</ele>
        <time>2016-12-18T13:40:09Z</time>
      </trkpt>
      <trkpt lat="44.78238" lon="4.65257">
        <ele>783</ele>
        <time>2016-12-18T13:39:58Z</time>
      </trkpt>
      <trkpt lat="44.78247" lon="4.65274">
        <ele>779</ele>
        <time>2016-12-18T13:39:47Z</time>
      </trkpt>
      <trkpt lat="44.78252" lon="4.65284">
        <ele>779</ele>
        <time>2016-12-18T13:39:40Z</time>
      </trkpt>
      <trkpt lat="44.78257" lon="4.65297">
        <ele>775</ele>
        <time>2016-12-18T13:39:29Z</time>
      </trkpt>
      <trkpt lat="44.78264" lon="4.6531">
        <ele>775</ele>
        <time>2016-12-18T13:39:18Z</time>
      </trkpt>
      <trkpt lat="44.7827" lon="4.65322">
        <ele>780</ele>
        <time>2016-12-18T13:39:09Z</time>
      </trkpt>
      <trkpt lat="44.78277" lon="4.65331">
        <ele>780</ele>
        <time>2016-12-18T13:38:59Z</time>
      </trkpt>
      <trkpt lat="44.78283" lon="4.6534">
        <ele>780</ele>
        <time>2016-12-18T13:38:48Z</time>
      </trkpt>
      <trkpt lat="44.78285" lon="4.65347">
        <ele>780</ele>
        <time>2016-12-18T13:38:38Z</time>
      </trkpt>
      <trkpt lat="44.78283" lon="4.65351">
        <ele>777</ele>
        <time>2016-12-18T13:38:28Z</time>
      </trkpt>
      <trkpt lat="44.78291" lon="4.65362">
        <ele>777</ele>
        <time>2016-12-18T13:38:18Z</time>
      </trkpt>
      <trkpt lat="44.78304" lon="4.6537">
        <ele>782</ele>
        <time>2016-12-18T12:56:06Z</time>
      </trkpt>
      <trkpt lat="44.78306" lon="4.65371">
        <ele>782</ele>
        <time>2016-12-18T12:55:56Z</time>
      </trkpt>
      <trkpt lat="44.78315" lon="4.65365">
        <ele>782</ele>
        <time>2016-12-18T12:55:45Z</time>
      </trkpt>
      <trkpt lat="44.78311" lon="4.6537">
        <ele>782</ele>
        <time>2016-12-18T12:55:35Z</time>
      </trkpt>
      <trkpt lat="44.78297" lon="4.65376">
        <ele>778</ele>
        <time>2016-12-18T12:53:21Z</time>
      </trkpt>
      <trkpt lat="44.78298" lon="4.65377">
        <ele>778</ele>
        <time>2016-12-18T12:53:12Z</time>
      </trkpt>
      <trkpt lat="44.783" lon="4.65378">
        <ele>778</ele>
        <time>2016-12-18T12:53:01Z</time>
      </trkpt>
      <trkpt lat="44.78303" lon="4.65384">
        <ele>778</ele>
        <time>2016-12-18T12:52:51Z</time>
      </trkpt>
      <trkpt lat="44.78307" lon="4.65389">
        <ele>778</ele>
        <time>2016-12-18T12:52:41Z</time>
      </trkpt>
      <trkpt lat="44.78314" lon="4.65399">
        <ele>778</ele>
        <time>2016-12-18T12:52:31Z</time>
      </trkpt>
      <trkpt lat="44.78323" lon="4.65406">
        <ele>772</ele>
        <time>2016-12-18T12:52:22Z</time>
      </trkpt>
      <trkpt lat="44.78327" lon="4.65411">
        <ele>772</ele>
        <time>2016-12-18T12:52:15Z</time>
      </trkpt>
      <trkpt lat="44.78333" lon="4.65425">
        <ele>772</ele>
        <time>2016-12-18T12:51:24Z</time>
      </trkpt>
      <trkpt lat="44.78336" lon="4.65422">
        <ele>772</ele>
        <time>2016-12-18T12:51:13Z</time>
      </trkpt>
      <trkpt lat="44.78335" lon="4.65423">
        <ele>772</ele>
        <time>2016-12-18T12:51:06Z</time>
      </trkpt>
      <trkpt lat="44.78331" lon="4.65426">
        <ele>772</ele>
        <time>2016-12-18T12:50:56Z</time>
      </trkpt>
      <trkpt lat="44.78324" lon="4.65421">
        <ele>772</ele>
        <time>2016-12-18T12:50:46Z</time>
      </trkpt>
      <trkpt lat="44.78322" lon="4.65421">
        <ele>772</ele>
        <time>2016-12-18T12:50:36Z</time>
      </trkpt>
      <trkpt lat="44.78321" lon="4.65427">
        <ele>772</ele>
        <time>2016-12-18T12:50:26Z</time>
      </trkpt>
      <trkpt lat="44.78323" lon="4.65427">
        <ele>772</ele>
        <time>2016-12-18T12:50:16Z</time>
      </trkpt>
      <trkpt lat="44.78322" lon="4.65428">
        <ele>772</ele>
        <time>2016-12-18T12:50:05Z</time>
      </trkpt>
      <trkpt lat="44.7832" lon="4.65429">
        <ele>772</ele>
        <time>2016-12-18T12:49:56Z</time>
      </trkpt>
      <trkpt lat="44.78323" lon="4.65434">
        <ele>767</ele>
        <time>2016-12-18T12:49:46Z</time>
      </trkpt>
      <trkpt lat="44.78324" lon="4.6544">
        <ele>767</ele>
        <time>2016-12-18T12:49:35Z</time>
      </trkpt>
      <trkpt lat="44.78326" lon="4.65448">
        <ele>767</ele>
        <time>2016-12-18T12:49:24Z</time>
      </trkpt>
      <trkpt lat="44.78332" lon="4.65455">
        <ele>767</ele>
        <time>2016-12-18T12:49:13Z</time>
      </trkpt>
      <trkpt lat="44.78335" lon="4.65457">
        <ele>767</ele>
        <time>2016-12-18T12:49:03Z</time>
      </trkpt>
      <trkpt lat="44.78325" lon="4.65517">
        <ele>755</ele>
        <time>2016-12-18T12:45:44Z</time>
      </trkpt>
      <trkpt lat="44.78323" lon="4.65519">
        <ele>755</ele>
        <time>2016-12-18T12:45:36Z</time>
      </trkpt>
      <trkpt lat="44.78323" lon="4.65523">
        <ele>755</ele>
        <time>2016-12-18T12:45:27Z</time>
      </trkpt>
      <trkpt lat="44.78323" lon="4.65525">
        <ele>755</ele>
        <time>2016-12-18T12:45:18Z</time>
      </trkpt>
      <trkpt lat="44.78326" lon="4.65533">
        <ele>755</ele>
        <time>2016-12-18T12:45:05Z</time>
      </trkpt>
      <trkpt lat="44.78325" lon="4.65542">
        <ele>755</ele>
        <time>2016-12-18T12:44:56Z</time>
      </trkpt>
      <trkpt lat="44.78323" lon="4.65552">
        <ele>751</ele>
        <time>2016-12-18T12:44:46Z</time>
      </trkpt>
      <trkpt lat="44.78321" lon="4.65565">
        <ele>751</ele>
        <time>2016-12-18T12:44:36Z</time>
      </trkpt>
      <trkpt lat="44.78324" lon="4.65579">
        <ele>748</ele>
        <time>2016-12-18T12:44:26Z</time>
      </trkpt>
      <trkpt lat="44.78325" lon="4.65594">
        <ele>748</ele>
        <time>2016-12-18T12:44:15Z</time>
      </trkpt>
      <trkpt lat="44.78329" lon="4.6561">
        <ele>747</ele>
        <time>2016-12-18T12:44:05Z</time>
      </trkpt>
      <trkpt lat="44.78332" lon="4.65623">
        <ele>747</ele>
        <time>2016-12-18T12:43:56Z</time>
      </trkpt>
      <trkpt lat="44.78336" lon="4.65629">
        <ele>750</ele>
        <time>2016-12-18T12:43:50Z</time>
      </trkpt>
      <trkpt lat="44.78336" lon="4.65646">
        <ele>750</ele>
        <time>2016-12-18T12:43:40Z</time>
      </trkpt>
      <trkpt lat="44.78337" lon="4.6566">
        <ele>755</ele>
        <time>2016-12-18T12:43:30Z</time>
      </trkpt>
      <trkpt lat="44.78341" lon="4.65673">
        <ele>755</ele>
        <time>2016-12-18T12:43:21Z</time>
      </trkpt>
      <trkpt lat="44.78346" lon="4.65688">
        <ele>756</ele>
        <time>2016-12-18T12:43:11Z</time>
      </trkpt>
      <trkpt lat="44.78352" lon="4.657">
        <ele>749</ele>
        <time>2016-12-18T12:43:00Z</time>
      </trkpt>
      <trkpt lat="44.78361" lon="4.65711">
        <ele>751</ele>
        <time>2016-12-18T12:42:50Z</time>
      </trkpt>
      <trkpt lat="44.78365" lon="4.65722">
        <ele>751</ele>
        <time>2016-12-18T12:42:40Z</time>
      </trkpt>
      <trkpt lat="44.78369" lon="4.65732">
        <ele>751</ele>
        <time>2016-12-18T12:42:31Z</time>
      </trkpt>
      <trkpt lat="44.78375" lon="4.65739">
        <ele>753</ele>
        <time>2016-12-18T12:42:21Z</time>
      </trkpt>
      <trkpt lat="44.78377" lon="4.65749">
        <ele>739</ele>
        <time>2016-12-18T12:42:12Z</time>
      </trkpt>
      <trkpt lat="44.78383" lon="4.6576">
        <ele>739</ele>
        <time>2016-12-18T12:42:00Z</time>
      </trkpt>
      <trkpt lat="44.7839" lon="4.65769">
        <ele>742</ele>
        <time>2016-12-18T12:41:50Z</time>
      </trkpt>
      <trkpt lat="44.78393" lon="4.65778">
        <ele>742</ele>
        <time>2016-12-18T12:41:40Z</time>
      </trkpt>
      <trkpt lat="44.78399" lon="4.6579">
        <ele>742</ele>
        <time>2016-12-18T12:41:30Z</time>
      </trkpt>
      <trkpt lat="44.78402" lon="4.65801">
        <ele>744</ele>
        <time>2016-12-18T12:41:21Z</time>
      </trkpt>
      <trkpt lat="44.78406" lon="4.65812">
        <ele>736</ele>
        <time>2016-12-18T12:41:11Z</time>
      </trkpt>
      <trkpt lat="44.78412" lon="4.6583">
        <ele>739</ele>
        <time>2016-12-18T12:41:00Z</time>
      </trkpt>
      <trkpt lat="44.78414" lon="4.65843">
        <ele>739</ele>
        <time>2016-12-18T12:40:51Z</time>
      </trkpt>
      <trkpt lat="44.7842" lon="4.65854">
        <ele>741</ele>
        <time>2016-12-18T12:40:41Z</time>
      </trkpt>
      <trkpt lat="44.78426" lon="4.65864">
        <ele>741</ele>
        <time>2016-12-18T12:40:31Z</time>
      </trkpt>
      <trkpt lat="44.78436" lon="4.65873">
        <ele>733</ele>
        <time>2016-12-18T12:40:22Z</time>
      </trkpt>
      <trkpt lat="44.78441" lon="4.65882">
        <ele>734</ele>
        <time>2016-12-18T12:40:12Z</time>
      </trkpt>
      <trkpt lat="44.78447" lon="4.65896">
        <ele>734</ele>
        <time>2016-12-18T12:39:59Z</time>
      </trkpt>
      <trkpt lat="44.78452" lon="4.65906">
        <ele>732</ele>
        <time>2016-12-18T12:39:50Z</time>
      </trkpt>
      <trkpt lat="44.78458" lon="4.65917">
        <ele>727</ele>
        <time>2016-12-18T12:39:41Z</time>
      </trkpt>
      <trkpt lat="44.78465" lon="4.65929">
        <ele>727</ele>
        <time>2016-12-18T12:39:31Z</time>
      </trkpt>
      <trkpt lat="44.78468" lon="4.65939">
        <ele>726</ele>
        <time>2016-12-18T12:39:22Z</time>
      </trkpt>
      <trkpt lat="44.78471" lon="4.65951">
        <ele>726</ele>
        <time>2016-12-18T12:39:14Z</time>
      </trkpt>
      <trkpt lat="44.78475" lon="4.65965">
        <ele>723</ele>
        <time>2016-12-18T12:39:03Z</time>
      </trkpt>
      <trkpt lat="44.78497" lon="4.65988">
        <ele>724</ele>
        <time>2016-12-18T12:31:47Z</time>
      </trkpt>
      <trkpt lat="44.78497" lon="4.65986">
        <ele>721</ele>
        <time>2016-12-18T12:31:38Z</time>
      </trkpt>
      <trkpt lat="44.78503" lon="4.65985">
        <ele>721</ele>
        <time>2016-12-18T12:31:28Z</time>
      </trkpt>
      <trkpt lat="44.78512" lon="4.6598">
        <ele>721</ele>
        <time>2016-12-18T12:31:18Z</time>
      </trkpt>
      <trkpt lat="44.78517" lon="4.65974">
        <ele>716</ele>
        <time>2016-12-18T12:31:08Z</time>
      </trkpt>
      <trkpt lat="44.78519" lon="4.65964">
        <ele>716</ele>
        <time>2016-12-18T12:30:58Z</time>
      </trkpt>
      <trkpt lat="44.78515" lon="4.65951">
        <ele>713</ele>
        <time>2016-12-18T12:30:48Z</time>
      </trkpt>
      <trkpt lat="44.78513" lon="4.6594">
        <ele>719</ele>
        <time>2016-12-18T12:30:38Z</time>
      </trkpt>
      <trkpt lat="44.78508" lon="4.65926">
        <ele>717</ele>
        <time>2016-12-18T12:30:28Z</time>
      </trkpt>
      <trkpt lat="44.78505" lon="4.65919">
        <ele>717</ele>
        <time>2016-12-18T12:30:19Z</time>
      </trkpt>
      <trkpt lat="44.78502" lon="4.65909">
        <ele>717</ele>
        <time>2016-12-18T12:30:09Z</time>
      </trkpt>
      <trkpt lat="44.78497" lon="4.65894">
        <ele>712</ele>
        <time>2016-12-18T12:29:56Z</time>
      </trkpt>
      <trkpt lat="44.78492" lon="4.65882">
        <ele>712</ele>
        <time>2016-12-18T12:29:46Z</time>
      </trkpt>
      <trkpt lat="44.78489" lon="4.6587">
        <ele>707</ele>
        <time>2016-12-18T12:29:36Z</time>
      </trkpt>
      <trkpt lat="44.78484" lon="4.65853">
        <ele>719</ele>
        <time>2016-12-18T12:29:26Z</time>
      </trkpt>
      <trkpt lat="44.78483" lon="4.65844">
        <ele>715</ele>
        <time>2016-12-18T12:29:19Z</time>
      </trkpt>
      <trkpt lat="44.78482" lon="4.65831">
        <ele>715</ele>
        <time>2016-12-18T12:29:08Z</time>
      </trkpt>
      <trkpt lat="44.78482" lon="4.65818">
        <ele>709</ele>
        <time>2016-12-18T12:28:58Z</time>
      </trkpt>
      <trkpt lat="44.78478" lon="4.6581">
        <ele>709</ele>
        <time>2016-12-18T12:28:48Z</time>
      </trkpt>
      <trkpt lat="44.7847" lon="4.65797">
        <ele>709</ele>
        <time>2016-12-18T12:28:37Z</time>
      </trkpt>
      <trkpt lat="44.7847" lon="4.65784">
        <ele>707</ele>
        <time>2016-12-18T12:28:28Z</time>
      </trkpt>
      <trkpt lat="44.78465" lon="4.65766">
        <ele>707</ele>
        <time>2016-12-18T12:28:18Z</time>
      </trkpt>
      <trkpt lat="44.78463" lon="4.65751">
        <ele>703</ele>
        <time>2016-12-18T12:28:08Z</time>
      </trkpt>
      <trkpt lat="44.78464" lon="4.65736">
        <ele>703</ele>
        <time>2016-12-18T12:27:58Z</time>
      </trkpt>
      <trkpt lat="44.78462" lon="4.65723">
        <ele>699</ele>
        <time>2016-12-18T12:27:48Z</time>
      </trkpt>
      <trkpt lat="44.78462" lon="4.65707">
        <ele>695</ele>
        <time>2016-12-18T12:27:39Z</time>
      </trkpt>
      <trkpt lat="44.78463" lon="4.65697">
        <ele>695</ele>
        <time>2016-12-18T12:27:32Z</time>
      </trkpt>
      <trkpt lat="44.78461" lon="4.6568">
        <ele>695</ele>
        <time>2016-12-18T12:27:22Z</time>
      </trkpt>
      <trkpt lat="44.78462" lon="4.65661">
        <ele>695</ele>
        <time>2016-12-18T12:27:12Z</time>
      </trkpt>
      <trkpt lat="44.78469" lon="4.65642">
        <ele>697</ele>
        <time>2016-12-18T12:27:02Z</time>
      </trkpt>
      <trkpt lat="44.78476" lon="4.65624">
        <ele>701</ele>
        <time>2016-12-18T12:26:52Z</time>
      </trkpt>
      <trkpt lat="44.78481" lon="4.65609">
        <ele>701</ele>
        <time>2016-12-18T12:26:42Z</time>
      </trkpt>
      <trkpt lat="44.78491" lon="4.65605">
        <ele>686</ele>
        <time>2016-12-18T12:26:32Z</time>
      </trkpt>
      <trkpt lat="44.78498" lon="4.65588">
        <ele>694</ele>
        <time>2016-12-18T12:26:22Z</time>
      </trkpt>
      <trkpt lat="44.78507" lon="4.65575">
        <ele>694</ele>
        <time>2016-12-18T12:26:12Z</time>
      </trkpt>
      <trkpt lat="44.78518" lon="4.65566">
        <ele>692</ele>
        <time>2016-12-18T12:26:02Z</time>
      </trkpt>
      <trkpt lat="44.78527" lon="4.65553">
        <ele>692</ele>
        <time>2016-12-18T12:25:51Z</time>
      </trkpt>
      <trkpt lat="44.78537" lon="4.65543">
        <ele>692</ele>
        <time>2016-12-18T12:25:41Z</time>
      </trkpt>
      <trkpt lat="44.78549" lon="4.65531">
        <ele>692</ele>
        <time>2016-12-18T12:25:31Z</time>
      </trkpt>
      <trkpt lat="44.7856" lon="4.65529">
        <ele>692</ele>
        <time>2016-12-18T12:25:21Z</time>
      </trkpt>
      <trkpt lat="44.7857" lon="4.6551">
        <ele>688</ele>
        <time>2016-12-18T12:25:11Z</time>
      </trkpt>
      <trkpt lat="44.78578" lon="4.65503">
        <ele>688</ele>
        <time>2016-12-18T12:25:01Z</time>
      </trkpt>
      <trkpt lat="44.78584" lon="4.65493">
        <ele>688</ele>
        <time>2016-12-18T12:24:53Z</time>
      </trkpt>
      <trkpt lat="44.78591" lon="4.65476">
        <ele>692</ele>
        <time>2016-12-18T12:24:45Z</time>
      </trkpt>
      <trkpt lat="44.78595" lon="4.65459">
        <ele>692</ele>
        <time>2016-12-18T12:24:34Z</time>
      </trkpt>
      <trkpt lat="44.78601" lon="4.65445">
        <ele>680</ele>
        <time>2016-12-18T12:24:24Z</time>
      </trkpt>
      <trkpt lat="44.78604" lon="4.65428">
        <ele>680</ele>
        <time>2016-12-18T12:24:14Z</time>
      </trkpt>
      <trkpt lat="44.78604" lon="4.65409">
        <ele>680</ele>
        <time>2016-12-18T12:24:04Z</time>
      </trkpt>
      <trkpt lat="44.78604" lon="4.65395">
        <ele>680</ele>
        <time>2016-12-18T12:23:54Z</time>
      </trkpt>
      <trkpt lat="44.78607" lon="4.65378">
        <ele>680</ele>
        <time>2016-12-18T12:23:44Z</time>
      </trkpt>
      <trkpt lat="44.78611" lon="4.6537">
        <ele>677</ele>
        <time>2016-12-18T12:23:33Z</time>
      </trkpt>
      <trkpt lat="44.7861" lon="4.65356">
        <ele>677</ele>
        <time>2016-12-18T12:23:22Z</time>
      </trkpt>
      <trkpt lat="44.78603" lon="4.65343">
        <ele>672</ele>
        <time>2016-12-18T12:23:12Z</time>
      </trkpt>
      <trkpt lat="44.78601" lon="4.65338">
        <ele>672</ele>
        <time>2016-12-18T12:23:08Z</time>
      </trkpt>
      <trkpt lat="44.78595" lon="4.65329">
        <ele>676</ele>
        <time>2016-12-18T12:22:58Z</time>
      </trkpt>
      <trkpt lat="44.78585" lon="4.65326">
        <ele>676</ele>
        <time>2016-12-18T12:22:48Z</time>
      </trkpt>
      <trkpt lat="44.78576" lon="4.65322">
        <ele>676</ele>
        <time>2016-12-18T12:22:38Z</time>
      </trkpt>
      <trkpt lat="44.78568" lon="4.65316">
        <ele>674</ele>
        <time>2016-12-18T12:22:29Z</time>
      </trkpt>
      <trkpt lat="44.78557" lon="4.653">
        <ele>674</ele>
        <time>2016-12-18T12:22:16Z</time>
      </trkpt>
      <trkpt lat="44.7855" lon="4.65291">
        <ele>667</ele>
        <time>2016-12-18T12:22:08Z</time>
      </trkpt>
      <trkpt lat="44.78545" lon="4.65281">
        <ele>667</ele>
        <time>2016-12-18T12:21:58Z</time>
      </trkpt>
      <trkpt lat="44.78539" lon="4.65273">
        <ele>677</ele>
        <time>2016-12-18T12:21:48Z</time>
      </trkpt>
      <trkpt lat="44.78527" lon="4.65266">
        <ele>677</ele>
        <time>2016-12-18T12:21:38Z</time>
      </trkpt>
      <trkpt lat="44.78522" lon="4.65258">
        <ele>668</ele>
        <time>2016-12-18T12:21:29Z</time>
      </trkpt>
      <trkpt lat="44.78512" lon="4.65248">
        <ele>680</ele>
        <time>2016-12-18T12:21:19Z</time>
      </trkpt>
      <trkpt lat="44.78506" lon="4.6524">
        <ele>680</ele>
        <time>2016-12-18T12:21:08Z</time>
      </trkpt>
      <trkpt lat="44.78504" lon="4.6523">
        <ele>675</ele>
        <time>2016-12-18T12:20:58Z</time>
      </trkpt>
      <trkpt lat="44.78501" lon="4.65212">
        <ele>675</ele>
        <time>2016-12-18T12:19:38Z</time>
      </trkpt>
      <trkpt lat="44.78497" lon="4.65215">
        <ele>675</ele>
        <time>2016-12-18T12:19:29Z</time>
      </trkpt>
      <trkpt lat="44.78494" lon="4.65216">
        <ele>675</ele>
        <time>2016-12-18T12:19:16Z</time>
      </trkpt>
      <trkpt lat="44.78492" lon="4.6522">
        <ele>675</ele>
        <time>2016-12-18T12:19:06Z</time>
      </trkpt>
      <trkpt lat="44.78495" lon="4.6522">
        <ele>675</ele>
        <time>2016-12-18T12:18:27Z</time>
      </trkpt>
      <trkpt lat="44.78491" lon="4.65211">
        <ele>675</ele>
        <time>2016-12-18T12:18:17Z</time>
      </trkpt>
      <trkpt lat="44.78486" lon="4.65194">
        <ele>675</ele>
        <time>2016-12-18T12:18:06Z</time>
      </trkpt>
      <trkpt lat="44.78492" lon="4.65188">
        <ele>675</ele>
        <time>2016-12-18T12:17:57Z</time>
      </trkpt>
      <trkpt lat="44.78498" lon="4.65181">
        <ele>675</ele>
        <time>2016-12-18T12:17:47Z</time>
      </trkpt>
      <trkpt lat="44.78501" lon="4.65155">
        <ele>675</ele>
        <time>2016-12-18T12:16:58Z</time>
      </trkpt>
      <trkpt lat="44.785" lon="4.65151">
        <ele>674</ele>
        <time>2016-12-18T12:16:48Z</time>
      </trkpt>
      <trkpt lat="44.78496" lon="4.65147">
        <ele>674</ele>
        <time>2016-12-18T12:16:38Z</time>
      </trkpt>
      <trkpt lat="44.78498" lon="4.6513">
        <ele>674</ele>
        <time>2016-12-18T12:16:28Z</time>
      </trkpt>
      <trkpt lat="44.78505" lon="4.6512">
        <ele>674</ele>
        <time>2016-12-18T12:16:19Z</time>
      </trkpt>
      <trkpt lat="44.7851" lon="4.65115">
        <ele>674</ele>
        <time>2016-12-18T12:16:12Z</time>
      </trkpt>
      <trkpt lat="44.78516" lon="4.65109">
        <ele>659</ele>
        <time>2016-12-18T12:16:02Z</time>
      </trkpt>
      <trkpt lat="44.78519" lon="4.65106">
        <ele>659</ele>
        <time>2016-12-18T12:15:53Z</time>
      </trkpt>
      <trkpt lat="44.78527" lon="4.65103">
        <ele>659</ele>
        <time>2016-12-18T12:15:43Z</time>
      </trkpt>
      <trkpt lat="44.78533" lon="4.65095">
        <ele>663</ele>
        <time>2016-12-18T12:15:33Z</time>
      </trkpt>
      <trkpt lat="44.78543" lon="4.65091">
        <ele>649</ele>
        <time>2016-12-18T12:15:23Z</time>
      </trkpt>
      <trkpt lat="44.78547" lon="4.65079">
        <ele>649</ele>
        <time>2016-12-18T12:15:13Z</time>
      </trkpt>
      <trkpt lat="44.78554" lon="4.65074">
        <ele>649</ele>
        <time>2016-12-18T12:15:04Z</time>
      </trkpt>
      <trkpt lat="44.78561" lon="4.65065">
        <ele>653</ele>
        <time>2016-12-18T12:14:54Z</time>
      </trkpt>
      <trkpt lat="44.78568" lon="4.65049">
        <ele>653</ele>
        <time>2016-12-18T12:14:44Z</time>
      </trkpt>
      <trkpt lat="44.78577" lon="4.65041">
        <ele>645</ele>
        <time>2016-12-18T12:14:34Z</time>
      </trkpt>
      <trkpt lat="44.78586" lon="4.65033">
        <ele>645</ele>
        <time>2016-12-18T12:14:25Z</time>
      </trkpt>
      <trkpt lat="44.786" lon="4.65016">
        <ele>634</ele>
        <time>2016-12-18T12:14:13Z</time>
      </trkpt>
      <trkpt lat="44.7861" lon="4.65001">
        <ele>642</ele>
        <time>2016-12-18T12:14:03Z</time>
      </trkpt>
      <trkpt lat="44.7862" lon="4.64989">
        <ele>642</ele>
        <time>2016-12-18T12:13:53Z</time>
      </trkpt>
      <trkpt lat="44.78629" lon="4.64982">
        <ele>636</ele>
        <time>2016-12-18T12:13:44Z</time>
      </trkpt>
      <trkpt lat="44.78638" lon="4.64972">
        <ele>636</ele>
        <time>2016-12-18T12:13:33Z</time>
      </trkpt>
      <trkpt lat="44.78647" lon="4.64962">
        <ele>636</ele>
        <time>2016-12-18T12:13:24Z</time>
      </trkpt>
      <trkpt lat="44.78657" lon="4.64951">
        <ele>633</ele>
        <time>2016-12-18T12:13:13Z</time>
      </trkpt>
      <trkpt lat="44.78667" lon="4.6494">
        <ele>633</ele>
        <time>2016-12-18T12:13:01Z</time>
      </trkpt>
      <trkpt lat="44.78675" lon="4.64932">
        <ele>633</ele>
        <time>2016-12-18T12:12:53Z</time>
      </trkpt>
      <trkpt lat="44.78683" lon="4.6492">
        <ele>629</ele>
        <time>2016-12-18T12:12:43Z</time>
      </trkpt>
      <trkpt lat="44.7869" lon="4.64906">
        <ele>629</ele>
        <time>2016-12-18T12:12:32Z</time>
      </trkpt>
      <trkpt lat="44.78699" lon="4.64897">
        <ele>630</ele>
        <time>2016-12-18T12:12:23Z</time>
      </trkpt>
      <trkpt lat="44.78707" lon="4.64891">
        <ele>630</ele>
        <time>2016-12-18T12:12:13Z</time>
      </trkpt>
      <trkpt lat="44.78713" lon="4.6488">
        <ele>620</ele>
        <time>2016-12-18T12:12:02Z</time>
      </trkpt>
      <trkpt lat="44.78716" lon="4.64865">
        <ele>621</ele>
        <time>2016-12-18T12:11:53Z</time>
      </trkpt>
      <trkpt lat="44.78722" lon="4.6486">
        <ele>621</ele>
        <time>2016-12-18T12:11:43Z</time>
      </trkpt>
      <trkpt lat="44.78724" lon="4.6486">
        <ele>621</ele>
        <time>2016-12-18T12:11:38Z</time>
      </trkpt>
      <trkpt lat="44.78728" lon="4.64869">
        <ele>621</ele>
        <time>2016-12-18T12:11:28Z</time>
      </trkpt>
      <trkpt lat="44.78731" lon="4.6488">
        <ele>620</ele>
        <time>2016-12-18T12:11:18Z</time>
      </trkpt>
      <trkpt lat="44.78736" lon="4.6489">
        <ele>620</ele>
        <time>2016-12-18T12:11:08Z</time>
      </trkpt>
      <trkpt lat="44.7874" lon="4.64888">
        <ele>611</ele>
        <time>2016-12-18T12:10:58Z</time>
      </trkpt>
      <trkpt lat="44.7875" lon="4.64879">
        <ele>611</ele>
        <time>2016-12-18T12:10:48Z</time>
      </trkpt>
      <trkpt lat="44.78759" lon="4.64869">
        <ele>613</ele>
        <time>2016-12-18T12:10:38Z</time>
      </trkpt>
      <trkpt lat="44.78764" lon="4.64857">
        <ele>613</ele>
        <time>2016-12-18T12:10:28Z</time>
      </trkpt>
      <trkpt lat="44.78762" lon="4.64852">
        <ele>613</ele>
        <time>2016-12-18T12:10:18Z</time>
      </trkpt>
      <trkpt lat="44.78761" lon="4.64834">
        <ele>612</ele>
        <time>2016-12-18T12:10:09Z</time>
      </trkpt>
      <trkpt lat="44.78762" lon="4.64814">
        <ele>609</ele>
        <time>2016-12-18T12:09:57Z</time>
      </trkpt>
      <trkpt lat="44.78763" lon="4.64807">
        <ele>609</ele>
        <time>2016-12-18T12:09:46Z</time>
      </trkpt>
      <trkpt lat="44.78763" lon="4.64805">
        <ele>609</ele>
        <time>2016-12-18T12:09:36Z</time>
      </trkpt>
      <trkpt lat="44.7876" lon="4.6479">
        <ele>605</ele>
        <time>2016-12-18T12:08:47Z</time>
      </trkpt>
      <trkpt lat="44.7876" lon="4.6479">
        <ele>605</ele>
        <time>2016-12-18T12:08:37Z</time>
      </trkpt>
      <trkpt lat="44.7876" lon="4.64789">
        <ele>605</ele>
        <time>2016-12-18T12:08:28Z</time>
      </trkpt>
      <trkpt lat="44.78765" lon="4.64799">
        <ele>604</ele>
        <time>2016-12-18T12:07:54Z</time>
      </trkpt>
      <trkpt lat="44.78764" lon="4.64797">
        <ele>604</ele>
        <time>2016-12-18T12:07:44Z</time>
      </trkpt>
      <trkpt lat="44.78769" lon="4.64787">
        <ele>603</ele>
        <time>2016-12-18T12:07:34Z</time>
      </trkpt>
      <trkpt lat="44.78773" lon="4.64775">
        <ele>603</ele>
        <time>2016-12-18T12:07:24Z</time>
      </trkpt>
      <trkpt lat="44.78774" lon="4.64764">
        <ele>603</ele>
        <time>2016-12-18T12:07:14Z</time>
      </trkpt>
      <trkpt lat="44.7877" lon="4.64753">
        <ele>600</ele>
        <time>2016-12-18T12:07:03Z</time>
      </trkpt>
      <trkpt lat="44.78759" lon="4.64745">
        <ele>601</ele>
        <time>2016-12-18T12:06:53Z</time>
      </trkpt>
      <trkpt lat="44.78754" lon="4.64737">
        <ele>601</ele>
        <time>2016-12-18T12:06:43Z</time>
      </trkpt>
      <trkpt lat="44.78743" lon="4.64728">
        <ele>595</ele>
        <time>2016-12-18T12:06:33Z</time>
      </trkpt>
      <trkpt lat="44.78733" lon="4.64721">
        <ele>591</ele>
        <time>2016-12-18T12:06:23Z</time>
      </trkpt>
      <trkpt lat="44.78725" lon="4.64728">
        <ele>591</ele>
        <time>2016-12-18T12:06:13Z</time>
      </trkpt>
      <trkpt lat="44.78715" lon="4.64746">
        <ele>598</ele>
        <time>2016-12-18T12:06:03Z</time>
      </trkpt>
      <trkpt lat="44.7871" lon="4.6475">
        <ele>598</ele>
        <time>2016-12-18T12:05:58Z</time>
      </trkpt>
      <trkpt lat="44.78699" lon="4.64748">
        <ele>595</ele>
        <time>2016-12-18T12:05:48Z</time>
      </trkpt>
      <trkpt lat="44.78689" lon="4.64744">
        <ele>595</ele>
        <time>2016-12-18T12:05:38Z</time>
      </trkpt>
      <trkpt lat="44.78681" lon="4.6474">
        <ele>595</ele>
        <time>2016-12-18T12:05:28Z</time>
      </trkpt>
      <trkpt lat="44.78673" lon="4.64734">
        <ele>585</ele>
        <time>2016-12-18T12:05:18Z</time>
      </trkpt>
      <trkpt lat="44.78662" lon="4.64729">
        <ele>585</ele>
        <time>2016-12-18T12:05:07Z</time>
      </trkpt>
      <trkpt lat="44.78651" lon="4.64727">
        <ele>587</ele>
        <time>2016-12-18T12:04:57Z</time>
      </trkpt>
      <trkpt lat="44.78642" lon="4.64728">
        <ele>587</ele>
        <time>2016-12-18T12:04:46Z</time>
      </trkpt>
      <trkpt lat="44.78634" lon="4.64726">
        <ele>587</ele>
        <time>2016-12-18T12:04:38Z</time>
      </trkpt>
      <trkpt lat="44.78625" lon="4.64726">
        <ele>587</ele>
        <time>2016-12-18T12:04:27Z</time>
      </trkpt>
      <trkpt lat="44.78622" lon="4.64714">
        <ele>592</ele>
        <time>2016-12-18T12:04:16Z</time>
      </trkpt>
      <trkpt lat="44.78615" lon="4.64702">
        <ele>584</ele>
        <time>2016-12-18T12:04:08Z</time>
      </trkpt>
      <trkpt lat="44.7861" lon="4.64684">
        <ele>584</ele>
        <time>2016-12-18T12:03:58Z</time>
      </trkpt>
      <trkpt lat="44.78603" lon="4.64672">
        <ele>577</ele>
        <time>2016-12-18T12:03:48Z</time>
      </trkpt>
      <trkpt lat="44.78598" lon="4.64661">
        <ele>577</ele>
        <time>2016-12-18T12:03:38Z</time>
      </trkpt>
      <trkpt lat="44.78589" lon="4.64646">
        <ele>579</ele>
        <time>2016-12-18T12:03:28Z</time>
      </trkpt>
      <trkpt lat="44.78586" lon="4.64636">
        <ele>579</ele>
        <time>2016-12-18T12:03:18Z</time>
      </trkpt>
      <trkpt lat="44.78575" lon="4.6462">
        <ele>572</ele>
        <time>2016-12-18T12:03:07Z</time>
      </trkpt>
      <trkpt lat="44.78571" lon="4.64607">
        <ele>572</ele>
        <time>2016-12-18T12:02:57Z</time>
      </trkpt>
      <trkpt lat="44.78573" lon="4.64598">
        <ele>572</ele>
        <time>2016-12-18T12:02:47Z</time>
      </trkpt>
      <trkpt lat="44.7857" lon="4.64588">
        <ele>570</ele>
        <time>2016-12-18T12:02:37Z</time>
      </trkpt>
      <trkpt lat="44.78576" lon="4.64573">
        <ele>570</ele>
        <time>2016-12-18T12:02:27Z</time>
      </trkpt>
      <trkpt lat="44.7858" lon="4.64568">
        <ele>574</ele>
        <time>2016-12-18T12:02:17Z</time>
      </trkpt>
      <trkpt lat="44.78582" lon="4.64566">
        <ele>574</ele>
        <time>2016-12-18T12:02:08Z</time>
      </trkpt>
      <trkpt lat="44.78596" lon="4.64558">
        <ele>574</ele>
        <time>2016-12-18T12:01:57Z</time>
      </trkpt>
      <trkpt lat="44.78605" lon="4.64559">
        <ele>564</ele>
        <time>2016-12-18T12:01:48Z</time>
      </trkpt>
      <trkpt lat="44.78609" lon="4.64558">
        <ele>564</ele>
        <time>2016-12-18T12:01:38Z</time>
      </trkpt>
      <trkpt lat="44.78619" lon="4.64556">
        <ele>564</ele>
        <time>2016-12-18T12:01:28Z</time>
      </trkpt>
      <trkpt lat="44.78622" lon="4.64554">
        <ele>564</ele>
        <time>2016-12-18T12:01:23Z</time>
      </trkpt>
      <trkpt lat="44.78628" lon="4.64545">
        <ele>554</ele>
        <time>2016-12-18T12:01:13Z</time>
      </trkpt>
      <trkpt lat="44.78636" lon="4.64528">
        <ele>558</ele>
        <time>2016-12-18T12:01:02Z</time>
      </trkpt>
      <trkpt lat="44.78643" lon="4.64517">
        <ele>558</ele>
        <time>2016-12-18T12:00:53Z</time>
      </trkpt>
      <trkpt lat="44.78649" lon="4.64512">
        <ele>564</ele>
        <time>2016-12-18T12:00:43Z</time>
      </trkpt>
      <trkpt lat="44.78656" lon="4.64497">
        <ele>548</ele>
        <time>2016-12-18T12:00:33Z</time>
      </trkpt>
      <trkpt lat="44.78658" lon="4.64489">
        <ele>548</ele>
        <time>2016-12-18T12:00:23Z</time>
      </trkpt>
      <trkpt lat="44.78669" lon="4.64476">
        <ele>553</ele>
        <time>2016-12-18T12:00:11Z</time>
      </trkpt>
      <trkpt lat="44.78671" lon="4.64472">
        <ele>553</ele>
        <time>2016-12-18T12:00:01Z</time>
      </trkpt>
      <trkpt lat="44.78675" lon="4.64463">
        <ele>553</ele>
        <time>2016-12-18T11:59:53Z</time>
      </trkpt>
      <trkpt lat="44.7868" lon="4.64453">
        <ele>557</ele>
        <time>2016-12-18T11:59:43Z</time>
      </trkpt>
      <trkpt lat="44.78686" lon="4.64446">
        <ele>544</ele>
        <time>2016-12-18T11:59:33Z</time>
      </trkpt>
      <trkpt lat="44.78693" lon="4.64438">
        <ele>544</ele>
        <time>2016-12-18T11:59:23Z</time>
      </trkpt>
      <trkpt lat="44.78696" lon="4.64431">
        <ele>544</ele>
        <time>2016-12-18T11:59:13Z</time>
      </trkpt>
      <trkpt lat="44.78706" lon="4.64423">
        <ele>546</ele>
        <time>2016-12-18T11:59:01Z</time>
      </trkpt>
      <trkpt lat="44.78712" lon="4.64421">
        <ele>530</ele>
        <time>2016-12-18T11:58:53Z</time>
      </trkpt>
      <trkpt lat="44.78717" lon="4.64408">
        <ele>530</ele>
        <time>2016-12-18T11:58:43Z</time>
      </trkpt>
      <trkpt lat="44.78719" lon="4.64404">
        <ele>530</ele>
        <time>2016-12-18T11:58:33Z</time>
      </trkpt>
      <trkpt lat="44.78723" lon="4.644">
        <ele>534</ele>
        <time>2016-12-18T11:58:23Z</time>
      </trkpt>
      <trkpt lat="44.78727" lon="4.64394">
        <ele>534</ele>
        <time>2016-12-18T11:58:13Z</time>
      </trkpt>
      <trkpt lat="44.78728" lon="4.64388">
        <ele>534</ele>
        <time>2016-12-18T11:58:03Z</time>
      </trkpt>
      <trkpt lat="44.7873" lon="4.64378">
        <ele>534</ele>
        <time>2016-12-18T11:57:53Z</time>
      </trkpt>
      <trkpt lat="44.78732" lon="4.64363">
        <ele>534</ele>
        <time>2016-12-18T11:57:43Z</time>
      </trkpt>
      <trkpt lat="44.78733" lon="4.64351">
        <ele>534</ele>
        <time>2016-12-18T11:57:33Z</time>
      </trkpt>
      <trkpt lat="44.7873" lon="4.64338">
        <ele>531</ele>
        <time>2016-12-18T11:57:23Z</time>
      </trkpt>
      <trkpt lat="44.78734" lon="4.64323">
        <ele>531</ele>
        <time>2016-12-18T11:57:13Z</time>
      </trkpt>
      <trkpt lat="44.78733" lon="4.64311">
        <ele>525</ele>
        <time>2016-12-18T11:57:03Z</time>
      </trkpt>
      <trkpt lat="44.78738" lon="4.64302">
        <ele>516</ele>
        <time>2016-12-18T11:56:58Z</time>
      </trkpt>
      <trkpt lat="44.78739" lon="4.64285">
        <ele>513</ele>
        <time>2016-12-18T11:56:48Z</time>
      </trkpt>
      <trkpt lat="44.78749" lon="4.64267">
        <ele>513</ele>
        <time>2016-12-18T11:56:38Z</time>
      </trkpt>
      <trkpt lat="44.78743" lon="4.64257">
        <ele>512</ele>
        <time>2016-12-18T11:56:29Z</time>
      </trkpt>
      <trkpt lat="44.7874" lon="4.64244">
        <ele>512</ele>
        <time>2016-12-18T11:56:19Z</time>
      </trkpt>
      <trkpt lat="44.78739" lon="4.64231">
        <ele>510</ele>
        <time>2016-12-18T11:56:09Z</time>
      </trkpt>
      <trkpt lat="44.78743" lon="4.64223">
        <ele>510</ele>
        <time>2016-12-18T11:55:58Z</time>
      </trkpt>
      <trkpt lat="44.78749" lon="4.64212">
        <ele>510</ele>
        <time>2016-12-18T11:55:48Z</time>
      </trkpt>
      <trkpt lat="44.7875" lon="4.64208">
        <ele>508</ele>
        <time>2016-12-18T11:55:37Z</time>
      </trkpt>
      <trkpt lat="44.78756" lon="4.64206">
        <ele>508</ele>
        <time>2016-12-18T11:55:27Z</time>
      </trkpt>
      <trkpt lat="44.78757" lon="4.64204">
        <ele>508</ele>
        <time>2016-12-18T11:55:17Z</time>
      </trkpt>
      <trkpt lat="44.78764" lon="4.64206">
        <ele>503</ele>
        <time>2016-12-18T11:55:07Z</time>
      </trkpt>
      <trkpt lat="44.78772" lon="4.64218">
        <ele>504</ele>
        <time>2016-12-18T11:54:57Z</time>
      </trkpt>
      <trkpt lat="44.78777" lon="4.64233">
        <ele>504</ele>
        <time>2016-12-18T11:54:47Z</time>
      </trkpt>
      <trkpt lat="44.7879" lon="4.64232">
        <ele>504</ele>
        <time>2016-12-18T11:54:37Z</time>
      </trkpt>
      <trkpt lat="44.78797" lon="4.64228">
        <ele>500</ele>
        <time>2016-12-18T11:54:27Z</time>
      </trkpt>
      <trkpt lat="44.7881" lon="4.64225">
        <ele>500</ele>
        <time>2016-12-18T11:54:16Z</time>
      </trkpt>
      <trkpt lat="44.78821" lon="4.64221">
        <ele>493</ele>
        <time>2016-12-18T11:54:08Z</time>
      </trkpt>
      <trkpt lat="44.78832" lon="4.64205">
        <ele>496</ele>
        <time>2016-12-18T11:53:58Z</time>
      </trkpt>
      <trkpt lat="44.78842" lon="4.6419">
        <ele>496</ele>
        <time>2016-12-18T11:53:48Z</time>
      </trkpt>
      <trkpt lat="44.7885" lon="4.64176">
        <ele>491</ele>
        <time>2016-12-18T11:53:38Z</time>
      </trkpt>
      <trkpt lat="44.78857" lon="4.64156">
        <ele>491</ele>
        <time>2016-12-18T11:53:27Z</time>
      </trkpt>
      <trkpt lat="44.78862" lon="4.64145">
        <ele>491</ele>
        <time>2016-12-18T11:53:17Z</time>
      </trkpt>
      <trkpt lat="44.78866" lon="4.64134">
        <ele>491</ele>
        <time>2016-12-18T11:53:07Z</time>
      </trkpt>
      <trkpt lat="44.78868" lon="4.64125">
        <ele>491</ele>
        <time>2016-12-18T11:52:58Z</time>
      </trkpt>
      <trkpt lat="44.78868" lon="4.6411">
        <ele>490</ele>
        <time>2016-12-18T11:52:48Z</time>
      </trkpt>
      <trkpt lat="44.78864" lon="4.64104">
        <ele>490</ele>
        <time>2016-12-18T11:52:38Z</time>
      </trkpt>
      <trkpt lat="44.78861" lon="4.64089">
        <ele>487</ele>
        <time>2016-12-18T11:51:23Z</time>
      </trkpt>
      <trkpt lat="44.78862" lon="4.64087">
        <ele>487</ele>
        <time>2016-12-18T11:51:18Z</time>
      </trkpt>
      <trkpt lat="44.78872" lon="4.64095">
        <ele>487</ele>
        <time>2016-12-18T11:51:09Z</time>
      </trkpt>
      <trkpt lat="44.78884" lon="4.64094">
        <ele>484</ele>
        <time>2016-12-18T11:50:58Z</time>
      </trkpt>
      <trkpt lat="44.78896" lon="4.64088">
        <ele>484</ele>
        <time>2016-12-18T11:50:48Z</time>
      </trkpt>
      <trkpt lat="44.78901" lon="4.64074">
        <ele>484</ele>
        <time>2016-12-18T11:50:38Z</time>
      </trkpt>
      <trkpt lat="44.7891" lon="4.64058">
        <ele>477</ele>
        <time>2016-12-18T11:50:28Z</time>
      </trkpt>
      <trkpt lat="44.78918" lon="4.64048">
        <ele>477</ele>
        <time>2016-12-18T11:50:17Z</time>
      </trkpt>
      <trkpt lat="44.78926" lon="4.64035">
        <ele>474</ele>
        <time>2016-12-18T11:50:07Z</time>
      </trkpt>
      <trkpt lat="44.78931" lon="4.6402">
        <ele>474</ele>
        <time>2016-12-18T11:49:57Z</time>
      </trkpt>
      <trkpt lat="44.78936" lon="4.64008">
        <ele>473</ele>
        <time>2016-12-18T11:49:47Z</time>
      </trkpt>
      <trkpt lat="44.78937" lon="4.64002">
        <ele>473</ele>
        <time>2016-12-18T11:49:38Z</time>
      </trkpt>
      <trkpt lat="44.78937" lon="4.63995">
        <ele>473</ele>
        <time>2016-12-18T11:49:27Z</time>
      </trkpt>
      <trkpt lat="44.78937" lon="4.63983">
        <ele>469</ele>
        <time>2016-12-18T11:49:17Z</time>
      </trkpt>
      <trkpt lat="44.78928" lon="4.63977">
        <ele>467</ele>
        <time>2016-12-18T11:49:06Z</time>
      </trkpt>
      <trkpt lat="44.78919" lon="4.63978">
        <ele>467</ele>
        <time>2016-12-18T11:48:59Z</time>
      </trkpt>
      <trkpt lat="44.78905" lon="4.63979">
        <ele>467</ele>
        <time>2016-12-18T11:48:49Z</time>
      </trkpt>
      <trkpt lat="44.78894" lon="4.63982">
        <ele>466</ele>
        <time>2016-12-18T11:48:39Z</time>
      </trkpt>
      <trkpt lat="44.78883" lon="4.63989">
        <ele>471</ele>
        <time>2016-12-18T11:48:28Z</time>
      </trkpt>
      <trkpt lat="44.78872" lon="4.63994">
        <ele>471</ele>
        <time>2016-12-18T11:48:17Z</time>
      </trkpt>
      <trkpt lat="44.78861" lon="4.64003">
        <ele>471</ele>
        <time>2016-12-18T11:48:06Z</time>
      </trkpt>
      <trkpt lat="44.78861" lon="4.64005">
        <ele>471</ele>
        <time>2016-12-18T11:47:56Z</time>
      </trkpt>
      <trkpt lat="44.78859" lon="4.64003">
        <ele>471</ele>
        <time>2016-12-18T11:47:46Z</time>
      </trkpt>
      <trkpt lat="44.78854" lon="4.64">
        <ele>471</ele>
        <time>2016-12-18T11:47:12Z</time>
      </trkpt>
      <trkpt lat="44.78844" lon="4.64009">
        <ele>471</ele>
        <time>2016-12-18T11:47:02Z</time>
      </trkpt>
      <trkpt lat="44.78836" lon="4.6401">
        <ele>471</ele>
        <time>2016-12-18T11:46:52Z</time>
      </trkpt>
      <trkpt lat="44.78827" lon="4.64007">
        <ele>471</ele>
        <time>2016-12-18T11:46:42Z</time>
      </trkpt>
      <trkpt lat="44.78817" lon="4.64002">
        <ele>473</ele>
        <time>2016-12-18T11:46:32Z</time>
      </trkpt>
      <trkpt lat="44.78808" lon="4.63997">
        <ele>473</ele>
        <time>2016-12-18T11:46:22Z</time>
      </trkpt>
      <trkpt lat="44.78806" lon="4.63994">
        <ele>473</ele>
        <time>2016-12-18T11:46:18Z</time>
      </trkpt>
      <trkpt lat="44.78796" lon="4.6399">
        <ele>473</ele>
        <time>2016-12-18T11:46:08Z</time>
      </trkpt>
      <trkpt lat="44.78791" lon="4.63979">
        <ele>474</ele>
        <time>2016-12-18T11:45:57Z</time>
      </trkpt>
      <trkpt lat="44.78792" lon="4.63968">
        <ele>474</ele>
        <time>2016-12-18T11:45:48Z</time>
      </trkpt>
      <trkpt lat="44.78791" lon="4.63956">
        <ele>472</ele>
        <time>2016-12-18T11:45:38Z</time>
      </trkpt>
      <trkpt lat="44.78788" lon="4.63941">
        <ele>472</ele>
        <time>2016-12-18T11:45:28Z</time>
      </trkpt>
      <trkpt lat="44.78787" lon="4.63929">
        <ele>471</ele>
        <time>2016-12-18T11:45:18Z</time>
      </trkpt>
      <trkpt lat="44.78788" lon="4.63927">
        <ele>471</ele>
        <time>2016-12-18T11:45:08Z</time>
      </trkpt>
      <trkpt lat="44.78786" lon="4.63929">
        <ele>471</ele>
        <time>2016-12-18T11:44:58Z</time>
      </trkpt>
      <trkpt lat="44.78788" lon="4.63932">
        <ele>472</ele>
        <time>2016-12-18T11:44:48Z</time>
      </trkpt>
      <trkpt lat="44.78788" lon="4.63937">
        <ele>472</ele>
        <time>2016-12-18T11:44:38Z</time>
      </trkpt>
      <trkpt lat="44.78787" lon="4.6393">
        <ele>471</ele>
        <time>2016-12-18T11:44:29Z</time>
      </trkpt>
      <trkpt lat="44.78788" lon="4.6391">
        <ele>471</ele>
        <time>2016-12-18T11:44:17Z</time>
      </trkpt>
      <trkpt lat="44.78786" lon="4.639">
        <ele>470</ele>
        <time>2016-12-18T11:44:09Z</time>
      </trkpt>
      <trkpt lat="44.78788" lon="4.63887">
        <ele>470</ele>
        <time>2016-12-18T11:43:59Z</time>
      </trkpt>
      <trkpt lat="44.78789" lon="4.63873">
        <ele>470</ele>
        <time>2016-12-18T11:43:49Z</time>
      </trkpt>
      <trkpt lat="44.7879" lon="4.63858">
        <ele>470</ele>
        <time>2016-12-18T11:43:39Z</time>
      </trkpt>
      <trkpt lat="44.78787" lon="4.63842">
        <ele>470</ele>
        <time>2016-12-18T11:43:29Z</time>
      </trkpt>
      <trkpt lat="44.78785" lon="4.63828">
        <ele>470</ele>
        <time>2016-12-18T11:43:18Z</time>
      </trkpt>
      <trkpt lat="44.78785" lon="4.63809">
        <ele>469</ele>
        <time>2016-12-18T11:43:08Z</time>
      </trkpt>
      <trkpt lat="44.78782" lon="4.63794">
        <ele>469</ele>
        <time>2016-12-18T11:42:58Z</time>
      </trkpt>
      <trkpt lat="44.78796" lon="4.63791">
        <ele>463</ele>
        <time>2016-12-18T11:42:48Z</time>
      </trkpt>
      <trkpt lat="44.78801" lon="4.63791">
        <ele>463</ele>
        <time>2016-12-18T11:42:39Z</time>
      </trkpt>
      <trkpt lat="44.78806" lon="4.63792">
        <ele>467</ele>
        <time>2016-12-18T11:42:29Z</time>
      </trkpt>
      <trkpt lat="44.78812" lon="4.63787">
        <ele>463</ele>
        <time>2016-12-18T11:42:19Z</time>
      </trkpt>
      <trkpt lat="44.78819" lon="4.63783">
        <ele>463</ele>
        <time>2016-12-18T11:42:09Z</time>
      </trkpt>
      <trkpt lat="44.7882" lon="4.63776">
        <ele>456</ele>
        <time>2016-12-18T11:41:59Z</time>
      </trkpt>
      <trkpt lat="44.78825" lon="4.63766">
        <ele>456</ele>
        <time>2016-12-18T11:41:49Z</time>
      </trkpt>
      <trkpt lat="44.78828" lon="4.63765">
        <ele>456</ele>
        <time>2016-12-18T11:41:42Z</time>
      </trkpt>
      <trkpt lat="44.78827" lon="4.63758">
        <ele>453</ele>
        <time>2016-12-18T11:41:33Z</time>
      </trkpt>
      <trkpt lat="44.78827" lon="4.63751">
        <ele>453</ele>
        <time>2016-12-18T11:41:22Z</time>
      </trkpt>
      <trkpt lat="44.78826" lon="4.63751">
        <ele>453</ele>
        <time>2016-12-18T11:41:12Z</time>
      </trkpt>
      <trkpt lat="44.78822" lon="4.63756">
        <ele>453</ele>
        <time>2016-12-18T11:41:02Z</time>
      </trkpt>
      <trkpt lat="44.78827" lon="4.63753">
        <ele>453</ele>
        <time>2016-12-18T11:40:53Z</time>
      </trkpt>
      <trkpt lat="44.78824" lon="4.63737">
        <ele>453</ele>
        <time>2016-12-18T11:40:43Z</time>
      </trkpt>
      <trkpt lat="44.78828" lon="4.63713">
        <ele>450</ele>
        <time>2016-12-18T11:36:53Z</time>
      </trkpt>
      <trkpt lat="44.7883" lon="4.63712">
        <ele>450</ele>
        <time>2016-12-18T11:36:43Z</time>
      </trkpt>
      <trkpt lat="44.78831" lon="4.63706">
        <ele>446</ele>
        <time>2016-12-18T11:36:33Z</time>
      </trkpt>
      <trkpt lat="44.78832" lon="4.63709">
        <ele>450</ele>
        <time>2016-12-18T11:36:22Z</time>
      </trkpt>
      <trkpt lat="44.78831" lon="4.63706">
        <ele>446</ele>
        <time>2016-12-18T11:36:11Z</time>
      </trkpt>
      <trkpt lat="44.78831" lon="4.63702">
        <ele>446</ele>
        <time>2016-12-18T11:36:01Z</time>
      </trkpt>
      <trkpt lat="44.78834" lon="4.63699">
        <ele>446</ele>
        <time>2016-12-18T11:35:53Z</time>
      </trkpt>
      <trkpt lat="44.78835" lon="4.63696">
        <ele>446</ele>
        <time>2016-12-18T11:35:43Z</time>
      </trkpt>
      <trkpt lat="44.78835" lon="4.63694">
        <ele>446</ele>
        <time>2016-12-18T11:35:33Z</time>
      </trkpt>
      <trkpt lat="44.78837" lon="4.63692">
        <ele>446</ele>
        <time>2016-12-18T11:35:23Z</time>
      </trkpt>
      <trkpt lat="44.78841" lon="4.63684">
        <ele>446</ele>
        <time>2016-12-18T11:35:13Z</time>
      </trkpt>
      <trkpt lat="44.78845" lon="4.63676">
        <ele>445</ele>
        <time>2016-12-18T11:35:03Z</time>
      </trkpt>
      <trkpt lat="44.78852" lon="4.63661">
        <ele>443</ele>
        <time>2016-12-18T11:34:53Z</time>
      </trkpt>
      <trkpt lat="44.78861" lon="4.63656">
        <ele>443</ele>
        <time>2016-12-18T11:34:43Z</time>
      </trkpt>
      <trkpt lat="44.78868" lon="4.63645">
        <ele>444</ele>
        <time>2016-12-18T11:34:34Z</time>
      </trkpt>
      <trkpt lat="44.78875" lon="4.63626">
        <ele>443</ele>
        <time>2016-12-18T11:34:24Z</time>
      </trkpt>
      <trkpt lat="44.7888" lon="4.63609">
        <ele>444</ele>
        <time>2016-12-18T11:34:15Z</time>
      </trkpt>
      <trkpt lat="44.78887" lon="4.63597">
        <ele>442</ele>
        <time>2016-12-18T11:34:01Z</time>
      </trkpt>
      <trkpt lat="44.78893" lon="4.63587">
        <ele>442</ele>
        <time>2016-12-18T11:33:53Z</time>
      </trkpt>
      <trkpt lat="44.78899" lon="4.63575">
        <ele>442</ele>
        <time>2016-12-18T11:33:42Z</time>
      </trkpt>
      <trkpt lat="44.789" lon="4.63571">
        <ele>442</ele>
        <time>2016-12-18T11:33:39Z</time>
      </trkpt>
      <trkpt lat="44.78906" lon="4.63561">
        <ele>436</ele>
        <time>2016-12-18T11:33:28Z</time>
      </trkpt>
      <trkpt lat="44.78908" lon="4.63548">
        <ele>436</ele>
        <time>2016-12-18T11:33:18Z</time>
      </trkpt>
      <trkpt lat="44.78908" lon="4.63538">
        <ele>433</ele>
        <time>2016-12-18T11:33:08Z</time>
      </trkpt>
      <trkpt lat="44.78912" lon="4.63523">
        <ele>433</ele>
        <time>2016-12-18T11:32:57Z</time>
      </trkpt>
      <trkpt lat="44.78917" lon="4.63518">
        <ele>433</ele>
        <time>2016-12-18T11:32:48Z</time>
      </trkpt>
      <trkpt lat="44.78921" lon="4.63513">
        <ele>430</ele>
        <time>2016-12-18T11:32:38Z</time>
      </trkpt>
      <trkpt lat="44.78928" lon="4.63503">
        <ele>430</ele>
        <time>2016-12-18T11:32:28Z</time>
      </trkpt>
      <trkpt lat="44.78934" lon="4.63495">
        <ele>431</ele>
        <time>2016-12-18T11:32:19Z</time>
      </trkpt>
      <trkpt lat="44.78943" lon="4.63487">
        <ele>431</ele>
        <time>2016-12-18T11:32:09Z</time>
      </trkpt>
      <trkpt lat="44.78951" lon="4.6348">
        <ele>426</ele>
        <time>2016-12-18T11:31:58Z</time>
      </trkpt>
      <trkpt lat="44.78958" lon="4.63474">
        <ele>426</ele>
        <time>2016-12-18T11:31:48Z</time>
      </trkpt>
      <trkpt lat="44.78964" lon="4.63462">
        <ele>427</ele>
        <time>2016-12-18T11:31:38Z</time>
      </trkpt>
      <trkpt lat="44.78973" lon="4.63453">
        <ele>422</ele>
        <time>2016-12-18T11:31:27Z</time>
      </trkpt>
      <trkpt lat="44.78982" lon="4.63442">
        <ele>422</ele>
        <time>2016-12-18T11:31:17Z</time>
      </trkpt>
      <trkpt lat="44.78988" lon="4.63433">
        <ele>420</ele>
        <time>2016-12-18T11:31:06Z</time>
      </trkpt>
      <trkpt lat="44.78992" lon="4.63423">
        <ele>416</ele>
        <time>2016-12-18T11:30:58Z</time>
      </trkpt>
      <trkpt lat="44.78998" lon="4.6342">
        <ele>416</ele>
        <time>2016-12-18T11:30:48Z</time>
      </trkpt>
      <trkpt lat="44.79006" lon="4.63429">
        <ele>416</ele>
        <time>2016-12-18T11:30:38Z</time>
      </trkpt>
      <trkpt lat="44.79016" lon="4.63439">
        <ele>418</ele>
        <time>2016-12-18T11:30:29Z</time>
      </trkpt>
      <trkpt lat="44.79024" lon="4.63459">
        <ele>421</ele>
        <time>2016-12-18T11:30:19Z</time>
      </trkpt>
      <trkpt lat="44.79025" lon="4.63478">
        <ele>421</ele>
        <time>2016-12-18T11:30:08Z</time>
      </trkpt>
      <trkpt lat="44.79026" lon="4.63498">
        <ele>421</ele>
        <time>2016-12-18T11:29:58Z</time>
      </trkpt>
      <trkpt lat="44.79029" lon="4.63517">
        <ele>420</ele>
        <time>2016-12-18T11:29:48Z</time>
      </trkpt>
      <trkpt lat="44.7903" lon="4.63533">
        <ele>420</ele>
        <time>2016-12-18T11:29:38Z</time>
      </trkpt>
      <trkpt lat="44.79027" lon="4.63549">
        <ele>417</ele>
        <time>2016-12-18T11:29:28Z</time>
      </trkpt>
      <trkpt lat="44.79026" lon="4.63565">
        <ele>417</ele>
        <time>2016-12-18T11:29:18Z</time>
      </trkpt>
      <trkpt lat="44.79022" lon="4.63577">
        <ele>411</ele>
        <time>2016-12-18T11:29:09Z</time>
      </trkpt>
      <trkpt lat="44.79021" lon="4.63588">
        <ele>411</ele>
        <time>2016-12-18T11:29:02Z</time>
      </trkpt>
      <trkpt lat="44.79019" lon="4.63606">
        <ele>405</ele>
        <time>2016-12-18T11:28:51Z</time>
      </trkpt>
      <trkpt lat="44.79014" lon="4.63621">
        <ele>413</ele>
        <time>2016-12-18T11:28:41Z</time>
      </trkpt>
      <trkpt lat="44.79009" lon="4.63635">
        <ele>409</ele>
        <time>2016-12-18T11:28:31Z</time>
      </trkpt>
      <trkpt lat="44.79007" lon="4.6365">
        <ele>409</ele>
        <time>2016-12-18T11:28:21Z</time>
      </trkpt>
      <trkpt lat="44.79015" lon="4.63648">
        <ele>401</ele>
        <time>2016-12-18T11:28:11Z</time>
      </trkpt>
      <trkpt lat="44.79024" lon="4.63638">
        <ele>401</ele>
        <time>2016-12-18T11:28:01Z</time>
      </trkpt>
      <trkpt lat="44.79031" lon="4.6363">
        <ele>401</ele>
        <time>2016-12-18T11:27:52Z</time>
      </trkpt>
      <trkpt lat="44.79039" lon="4.63626">
        <ele>401</ele>
        <time>2016-12-18T11:27:43Z</time>
      </trkpt>
      <trkpt lat="44.79046" lon="4.63621">
        <ele>398</ele>
        <time>2016-12-18T11:27:33Z</time>
      </trkpt>
      <trkpt lat="44.79054" lon="4.63615">
        <ele>398</ele>
        <time>2016-12-18T11:27:23Z</time>
      </trkpt>
      <trkpt lat="44.79063" lon="4.63606">
        <ele>398</ele>
        <time>2016-12-18T11:27:13Z</time>
      </trkpt>
      <trkpt lat="44.79073" lon="4.63604">
        <ele>391</ele>
        <time>2016-12-18T11:27:03Z</time>
      </trkpt>
      <trkpt lat="44.79083" lon="4.63598">
        <ele>391</ele>
        <time>2016-12-18T11:26:53Z</time>
      </trkpt>
      <trkpt lat="44.79092" lon="4.63587">
        <ele>394</ele>
        <time>2016-12-18T11:26:43Z</time>
      </trkpt>
      <trkpt lat="44.79098" lon="4.63578">
        <ele>386</ele>
        <time>2016-12-18T11:26:33Z</time>
      </trkpt>
      <trkpt lat="44.79109" lon="4.63569">
        <ele>389</ele>
        <time>2016-12-18T11:26:23Z</time>
      </trkpt>
      <trkpt lat="44.79116" lon="4.63565">
        <ele>389</ele>
        <time>2016-12-18T11:26:13Z</time>
      </trkpt>
      <trkpt lat="44.79125" lon="4.63559">
        <ele>379</ele>
        <time>2016-12-18T11:26:03Z</time>
      </trkpt>
      <trkpt lat="44.79135" lon="4.63553">
        <ele>379</ele>
        <time>2016-12-18T11:25:53Z</time>
      </trkpt>
      <trkpt lat="44.79143" lon="4.63553">
        <ele>379</ele>
        <time>2016-12-18T11:25:43Z</time>
      </trkpt>
      <trkpt lat="44.79152" lon="4.63552">
        <ele>379</ele>
        <time>2016-12-18T11:25:32Z</time>
      </trkpt>
      <trkpt lat="44.79159" lon="4.63557">
        <ele>375</ele>
        <time>2016-12-18T11:25:23Z</time>
      </trkpt>
      <trkpt lat="44.79168" lon="4.63559">
        <ele>375</ele>
        <time>2016-12-18T11:25:13Z</time>
      </trkpt>
      <trkpt lat="44.79173" lon="4.63563">
        <ele>375</ele>
        <time>2016-12-18T11:25:02Z</time>
      </trkpt>
      <trkpt lat="44.79166" lon="4.6357">
        <ele>374</ele>
        <time>2016-12-18T11:24:53Z</time>
      </trkpt>
      <trkpt lat="44.79159" lon="4.63581">
        <ele>374</ele>
        <time>2016-12-18T11:24:43Z</time>
      </trkpt>
      <trkpt lat="44.79158" lon="4.63593">
        <ele>374</ele>
        <time>2016-12-18T11:24:33Z</time>
      </trkpt>
      <trkpt lat="44.79156" lon="4.636">
        <ele>375</ele>
        <time>2016-12-18T11:24:27Z</time>
      </trkpt>
      <trkpt lat="44.79144" lon="4.6361">
        <ele>375</ele>
        <time>2016-12-18T11:24:16Z</time>
      </trkpt>
      <trkpt lat="44.79138" lon="4.63623">
        <ele>375</ele>
        <time>2016-12-18T11:24:08Z</time>
      </trkpt>
      <trkpt lat="44.79136" lon="4.63639">
        <ele>375</ele>
        <time>2016-12-18T11:23:58Z</time>
      </trkpt>
      <trkpt lat="44.79139" lon="4.63652">
        <ele>375</ele>
        <time>2016-12-18T11:23:48Z</time>
      </trkpt>
      <trkpt lat="44.79149" lon="4.63656">
        <ele>376</ele>
        <time>2016-12-18T11:23:38Z</time>
      </trkpt>
      <trkpt lat="44.7916" lon="4.63644">
        <ele>376</ele>
        <time>2016-12-18T11:23:28Z</time>
      </trkpt>
      <trkpt lat="44.7917" lon="4.63627">
        <ele>376</ele>
        <time>2016-12-18T11:23:18Z</time>
      </trkpt>
      <trkpt lat="44.79183" lon="4.63622">
        <ele>376</ele>
        <time>2016-12-18T11:23:06Z</time>
      </trkpt>
      <trkpt lat="44.79195" lon="4.6362">
        <ele>376</ele>
        <time>2016-12-18T11:22:58Z</time>
      </trkpt>
      <trkpt lat="44.79206" lon="4.63616">
        <ele>376</ele>
        <time>2016-12-18T11:22:48Z</time>
      </trkpt>
      <trkpt lat="44.79218" lon="4.63619">
        <ele>379</ele>
        <time>2016-12-18T11:22:38Z</time>
      </trkpt>
      <trkpt lat="44.79229" lon="4.63616">
        <ele>379</ele>
        <time>2016-12-18T11:22:28Z</time>
      </trkpt>
      <trkpt lat="44.79238" lon="4.63615">
        <ele>385</ele>
        <time>2016-12-18T11:22:18Z</time>
      </trkpt>
      <trkpt lat="44.79251" lon="4.63611">
        <ele>385</ele>
        <time>2016-12-18T11:22:08Z</time>
      </trkpt>
      <trkpt lat="44.79263" lon="4.6361">
        <ele>385</ele>
        <time>2016-12-18T11:21:58Z</time>
      </trkpt>
      <trkpt lat="44.79279" lon="4.63604">
        <ele>388</ele>
        <time>2016-12-18T11:21:48Z</time>
      </trkpt>
      <trkpt lat="44.79292" lon="4.63606">
        <ele>392</ele>
        <time>2016-12-18T11:21:38Z</time>
      </trkpt>
      <trkpt lat="44.79298" lon="4.63603">
        <ele>392</ele>
        <time>2016-12-18T11:21:28Z</time>
      </trkpt>
      <trkpt lat="44.7931" lon="4.63595">
        <ele>399</ele>
        <time>2016-12-18T11:21:18Z</time>
      </trkpt>
      <trkpt lat="44.79317" lon="4.63583">
        <ele>399</ele>
        <time>2016-12-18T11:21:07Z</time>
      </trkpt>
      <trkpt lat="44.79326" lon="4.63578">
        <ele>403</ele>
        <time>2016-12-18T11:20:58Z</time>
      </trkpt>
      <trkpt lat="44.79337" lon="4.63586">
        <ele>403</ele>
        <time>2016-12-18T11:20:48Z</time>
      </trkpt>
      <trkpt lat="44.79347" lon="4.63593">
        <ele>403</ele>
        <time>2016-12-18T11:20:38Z</time>
      </trkpt>
      <trkpt lat="44.79359" lon="4.63598">
        <ele>402</ele>
        <time>2016-12-18T11:20:28Z</time>
      </trkpt>
      <trkpt lat="44.79375" lon="4.63598">
        <ele>402</ele>
        <time>2016-12-18T11:20:17Z</time>
      </trkpt>
      <trkpt lat="44.79387" lon="4.636">
        <ele>406</ele>
        <time>2016-12-18T11:20:07Z</time>
      </trkpt>
      <trkpt lat="44.79399" lon="4.63599">
        <ele>406</ele>
        <time>2016-12-18T11:19:59Z</time>
      </trkpt>
      <trkpt lat="44.79405" lon="4.63597">
        <ele>415</ele>
        <time>2016-12-18T11:19:52Z</time>
      </trkpt>
      <trkpt lat="44.79417" lon="4.63601">
        <ele>410</ele>
        <time>2016-12-18T11:19:43Z</time>
      </trkpt>
      <trkpt lat="44.79432" lon="4.63607">
        <ele>416</ele>
        <time>2016-12-18T11:19:33Z</time>
      </trkpt>
      <trkpt lat="44.79447" lon="4.63612">
        <ele>416</ele>
        <time>2016-12-18T11:19:23Z</time>
      </trkpt>
      <trkpt lat="44.79461" lon="4.63616">
        <ele>423</ele>
        <time>2016-12-18T11:19:14Z</time>
      </trkpt>
      <trkpt lat="44.79472" lon="4.63621">
        <ele>423</ele>
        <time>2016-12-18T11:19:03Z</time>
      </trkpt>
      <trkpt lat="44.79486" lon="4.63631">
        <ele>422</ele>
        <time>2016-12-18T11:18:53Z</time>
      </trkpt>
      <trkpt lat="44.79498" lon="4.63635">
        <ele>422</ele>
        <time>2016-12-18T11:18:43Z</time>
      </trkpt>
      <trkpt lat="44.79511" lon="4.63637">
        <ele>422</ele>
        <time>2016-12-18T11:18:33Z</time>
      </trkpt>
      <trkpt lat="44.79522" lon="4.6364">
        <ele>428</ele>
        <time>2016-12-18T11:18:23Z</time>
      </trkpt>
      <trkpt lat="44.79536" lon="4.63644">
        <ele>428</ele>
        <time>2016-12-18T11:18:13Z</time>
      </trkpt>
      <trkpt lat="44.79554" lon="4.63652">
        <ele>433</ele>
        <time>2016-12-18T11:18:01Z</time>
      </trkpt>
      <trkpt lat="44.79566" lon="4.63656">
        <ele>428</ele>
        <time>2016-12-18T11:17:51Z</time>
      </trkpt>
      <trkpt lat="44.79577" lon="4.63655">
        <ele>432</ele>
        <time>2016-12-18T11:17:41Z</time>
      </trkpt>
      <trkpt lat="44.7959" lon="4.63659">
        <ele>432</ele>
        <time>2016-12-18T11:17:31Z</time>
      </trkpt>
      <trkpt lat="44.79599" lon="4.63656">
        <ele>432</ele>
        <time>2016-12-18T11:17:21Z</time>
      </trkpt>
      <trkpt lat="44.79609" lon="4.63651">
        <ele>438</ele>
        <time>2016-12-18T11:17:11Z</time>
      </trkpt>
      <trkpt lat="44.79619" lon="4.63648">
        <ele>438</ele>
        <time>2016-12-18T11:17:03Z</time>
      </trkpt>
      <trkpt lat="44.79629" lon="4.63649">
        <ele>435</ele>
        <time>2016-12-18T11:16:53Z</time>
      </trkpt>
      <trkpt lat="44.79641" lon="4.63638">
        <ele>435</ele>
        <time>2016-12-18T11:16:43Z</time>
      </trkpt>
      <trkpt lat="44.79652" lon="4.63633">
        <ele>435</ele>
        <time>2016-12-18T11:16:33Z</time>
      </trkpt>
      <trkpt lat="44.79664" lon="4.63628">
        <ele>426</ele>
        <time>2016-12-18T11:16:23Z</time>
      </trkpt>
      <trkpt lat="44.79676" lon="4.63623">
        <ele>437</ele>
        <time>2016-12-18T11:16:13Z</time>
      </trkpt>
      <trkpt lat="44.79688" lon="4.63616">
        <ele>433</ele>
        <time>2016-12-18T11:16:03Z</time>
      </trkpt>
      <trkpt lat="44.79701" lon="4.63604">
        <ele>433</ele>
        <time>2016-12-18T11:15:53Z</time>
      </trkpt>
      <trkpt lat="44.79713" lon="4.63597">
        <ele>441</ele>
        <time>2016-12-18T11:15:43Z</time>
      </trkpt>
      <trkpt lat="44.79726" lon="4.63598">
        <ele>434</ele>
        <time>2016-12-18T11:15:34Z</time>
      </trkpt>
      <trkpt lat="44.7974" lon="4.63592">
        <ele>441</ele>
        <time>2016-12-18T11:15:25Z</time>
      </trkpt>
      <trkpt lat="44.79748" lon="4.63586">
        <ele>441</ele>
        <time>2016-12-18T11:15:17Z</time>
      </trkpt>
      <trkpt lat="44.79759" lon="4.63589">
        <ele>441</ele>
        <time>2016-12-18T11:15:07Z</time>
      </trkpt>
      <trkpt lat="44.79773" lon="4.63584">
        <ele>440</ele>
        <time>2016-12-18T11:14:58Z</time>
      </trkpt>
      <trkpt lat="44.79787" lon="4.63586">
        <ele>440</ele>
        <time>2016-12-18T11:14:48Z</time>
      </trkpt>
      <trkpt lat="44.79798" lon="4.63591">
        <ele>439</ele>
        <time>2016-12-18T11:14:37Z</time>
      </trkpt>
      <trkpt lat="44.79809" lon="4.63582">
        <ele>439</ele>
        <time>2016-12-18T11:14:27Z</time>
      </trkpt>
      <trkpt lat="44.7982" lon="4.63566">
        <ele>443</ele>
        <time>2016-12-18T11:14:17Z</time>
      </trkpt>
      <trkpt lat="44.7983" lon="4.6356">
        <ele>443</ele>
        <time>2016-12-18T11:14:09Z</time>
      </trkpt>
      <trkpt lat="44.79839" lon="4.63554">
        <ele>443</ele>
        <time>2016-12-18T11:13:59Z</time>
      </trkpt>
      <trkpt lat="44.79844" lon="4.63548">
        <ele>443</ele>
        <time>2016-12-18T11:13:49Z</time>
      </trkpt>
      <trkpt lat="44.79835" lon="4.63539">
        <ele>446</ele>
        <time>2016-12-18T11:13:40Z</time>
      </trkpt>
      <trkpt lat="44.79822" lon="4.63534">
        <ele>446</ele>
        <time>2016-12-18T11:13:28Z</time>
      </trkpt>
      <trkpt lat="44.79815" lon="4.63537">
        <ele>447</ele>
        <time>2016-12-18T11:13:18Z</time>
      </trkpt>
      <trkpt lat="44.79805" lon="4.63531">
        <ele>447</ele>
        <time>2016-12-18T11:13:08Z</time>
      </trkpt>
      <trkpt lat="44.79788" lon="4.63526">
        <ele>447</ele>
        <time>2016-12-18T11:12:57Z</time>
      </trkpt>
      <trkpt lat="44.79778" lon="4.63521">
        <ele>447</ele>
        <time>2016-12-18T11:12:47Z</time>
      </trkpt>
      <trkpt lat="44.79769" lon="4.63516">
        <ele>447</ele>
        <time>2016-12-18T11:12:38Z</time>
      </trkpt>
      <trkpt lat="44.79759" lon="4.63508">
        <ele>455</ele>
        <time>2016-12-18T11:12:28Z</time>
      </trkpt>
      <trkpt lat="44.79752" lon="4.63497">
        <ele>455</ele>
        <time>2016-12-18T11:12:16Z</time>
      </trkpt>
      <trkpt lat="44.79743" lon="4.63471">
        <ele>456</ele>
        <time>2016-12-18T11:11:39Z</time>
      </trkpt>
      <trkpt lat="44.79741" lon="4.63471">
        <ele>456</ele>
        <time>2016-12-18T11:11:28Z</time>
      </trkpt>
      <trkpt lat="44.79742" lon="4.63472">
        <ele>456</ele>
        <time>2016-12-18T11:11:18Z</time>
      </trkpt>
      <trkpt lat="44.79742" lon="4.63474">
        <ele>456</ele>
        <time>2016-12-18T11:11:09Z</time>
      </trkpt>
      <trkpt lat="44.79743" lon="4.63473">
        <ele>456</ele>
        <time>2016-12-18T11:10:57Z</time>
      </trkpt>
      <trkpt lat="44.7975" lon="4.63469">
        <ele>456</ele>
        <time>2016-12-18T11:06:01Z</time>
      </trkpt>
      <trkpt lat="44.79751" lon="4.63468">
        <ele>456</ele>
        <time>2016-12-18T11:05:53Z</time>
      </trkpt>
      <trkpt lat="44.79747" lon="4.63466">
        <ele>456</ele>
        <time>2016-12-18T11:05:43Z</time>
      </trkpt>
      <trkpt lat="44.79743" lon="4.63467">
        <ele>456</ele>
        <time>2016-12-18T11:05:38Z</time>
      </trkpt>
      <trkpt lat="44.79745" lon="4.63468">
        <ele>456</ele>
        <time>2016-12-18T11:05:28Z</time>
      </trkpt>
      <trkpt lat="44.79743" lon="4.63468">
        <ele>456</ele>
        <time>2016-12-18T11:05:18Z</time>
      </trkpt>
      <trkpt lat="44.79749" lon="4.63462">
        <ele>456</ele>
        <time>2016-12-18T11:05:08Z</time>
      </trkpt>
      <trkpt lat="44.7975" lon="4.63446">
        <ele>453</ele>
        <time>2016-12-18T11:04:57Z</time>
      </trkpt>
      <trkpt lat="44.79745" lon="4.63432">
        <ele>453</ele>
        <time>2016-12-18T11:04:47Z</time>
      </trkpt>
      <trkpt lat="44.79744" lon="4.63417">
        <ele>450</ele>
        <time>2016-12-18T11:04:36Z</time>
      </trkpt>
      <trkpt lat="44.79738" lon="4.63404">
        <ele>450</ele>
        <time>2016-12-18T11:04:26Z</time>
      </trkpt>
      <trkpt lat="44.79737" lon="4.63387">
        <ele>445</ele>
        <time>2016-12-18T11:04:16Z</time>
      </trkpt>
      <trkpt lat="44.79742" lon="4.63378">
        <ele>445</ele>
        <time>2016-12-18T11:04:06Z</time>
      </trkpt>
      <trkpt lat="44.79737" lon="4.63366">
        <ele>440</ele>
        <time>2016-12-18T11:03:57Z</time>
      </trkpt>
      <trkpt lat="44.79724" lon="4.63352">
        <ele>450</ele>
        <time>2016-12-18T11:03:46Z</time>
      </trkpt>
      <trkpt lat="44.79722" lon="4.63339">
        <ele>444</ele>
        <time>2016-12-18T11:03:37Z</time>
      </trkpt>
      <trkpt lat="44.79716" lon="4.63327">
        <ele>444</ele>
        <time>2016-12-18T11:03:26Z</time>
      </trkpt>
      <trkpt lat="44.79709" lon="4.63315">
        <ele>437</ele>
        <time>2016-12-18T11:03:17Z</time>
      </trkpt>
      <trkpt lat="44.79705" lon="4.63304">
        <ele>448</ele>
        <time>2016-12-18T11:03:06Z</time>
      </trkpt>
      <trkpt lat="44.7971" lon="4.63294">
        <ele>437</ele>
        <time>2016-12-18T11:02:57Z</time>
      </trkpt>
      <trkpt lat="44.79701" lon="4.6328">
        <ele>444</ele>
        <time>2016-12-18T11:02:47Z</time>
      </trkpt>
      <trkpt lat="44.79695" lon="4.63259">
        <ele>439</ele>
        <time>2016-12-18T11:02:37Z</time>
      </trkpt>
      <trkpt lat="44.79694" lon="4.63246">
        <ele>439</ele>
        <time>2016-12-18T11:02:27Z</time>
      </trkpt>
      <trkpt lat="44.79692" lon="4.63231">
        <ele>437</ele>
        <time>2016-12-18T11:02:17Z</time>
      </trkpt>
      <trkpt lat="44.79695" lon="4.63217">
        <ele>437</ele>
        <time>2016-12-18T11:02:07Z</time>
      </trkpt>
      <trkpt lat="44.79692" lon="4.632">
        <ele>435</ele>
        <time>2016-12-18T11:01:57Z</time>
      </trkpt>
      <trkpt lat="44.79688" lon="4.63181">
        <ele>435</ele>
        <time>2016-12-18T11:01:46Z</time>
      </trkpt>
      <trkpt lat="44.79685" lon="4.63169">
        <ele>437</ele>
        <time>2016-12-18T11:01:36Z</time>
      </trkpt>
      <trkpt lat="44.79691" lon="4.63161">
        <ele>437</ele>
        <time>2016-12-18T11:01:27Z</time>
      </trkpt>
      <trkpt lat="44.79697" lon="4.63143">
        <ele>438</ele>
        <time>2016-12-18T11:01:16Z</time>
      </trkpt>
      <trkpt lat="44.79704" lon="4.6313">
        <ele>438</ele>
        <time>2016-12-18T11:01:06Z</time>
      </trkpt>
      <trkpt lat="44.79708" lon="4.63127">
        <ele>438</ele>
        <time>2016-12-18T11:01:02Z</time>
      </trkpt>
      <trkpt lat="44.79712" lon="4.63126">
        <ele>427</ele>
        <time>2016-12-18T11:00:51Z</time>
      </trkpt>
      <trkpt lat="44.79721" lon="4.63114">
        <ele>432</ele>
        <time>2016-12-18T11:00:41Z</time>
      </trkpt>
      <trkpt lat="44.79724" lon="4.63104">
        <ele>432</ele>
        <time>2016-12-18T11:00:31Z</time>
      </trkpt>
      <trkpt lat="44.79727" lon="4.63107">
        <ele>432</ele>
        <time>2016-12-18T11:00:22Z</time>
      </trkpt>
      <trkpt lat="44.79735" lon="4.63115">
        <ele>432</ele>
        <time>2016-12-18T11:00:11Z</time>
      </trkpt>
      <trkpt lat="44.79732" lon="4.63125">
        <ele>432</ele>
        <time>2016-12-18T11:00:01Z</time>
      </trkpt>
      <trkpt lat="44.79728" lon="4.63138">
        <ele>427</ele>
        <time>2016-12-18T10:59:52Z</time>
      </trkpt>
      <trkpt lat="44.79725" lon="4.63148">
        <ele>427</ele>
        <time>2016-12-18T10:59:42Z</time>
      </trkpt>
      <trkpt lat="44.79721" lon="4.63157">
        <ele>423</ele>
        <time>2016-12-18T10:59:32Z</time>
      </trkpt>
      <trkpt lat="44.79716" lon="4.63167">
        <ele>423</ele>
        <time>2016-12-18T10:59:21Z</time>
      </trkpt>
      <trkpt lat="44.79717" lon="4.63182">
        <ele>421</ele>
        <time>2016-12-18T10:59:11Z</time>
      </trkpt>
      <trkpt lat="44.79721" lon="4.63197">
        <ele>421</ele>
        <time>2016-12-18T10:59:02Z</time>
      </trkpt>
      <trkpt lat="44.79726" lon="4.63212">
        <ele>424</ele>
        <time>2016-12-18T10:58:51Z</time>
      </trkpt>
      <trkpt lat="44.79732" lon="4.63226">
        <ele>424</ele>
        <time>2016-12-18T10:58:41Z</time>
      </trkpt>
      <trkpt lat="44.79741" lon="4.6323">
        <ele>410</ele>
        <time>2016-12-18T10:58:31Z</time>
      </trkpt>
      <trkpt lat="44.79748" lon="4.63235">
        <ele>410</ele>
        <time>2016-12-18T10:58:22Z</time>
      </trkpt>
      <trkpt lat="44.79758" lon="4.63244">
        <ele>416</ele>
        <time>2016-12-18T10:58:12Z</time>
      </trkpt>
      <trkpt lat="44.79769" lon="4.63251">
        <ele>409</ele>
        <time>2016-12-18T10:58:01Z</time>
      </trkpt>
      <trkpt lat="44.79777" lon="4.63258">
        <ele>409</ele>
        <time>2016-12-18T10:57:52Z</time>
      </trkpt>
      <trkpt lat="44.79787" lon="4.63268">
        <ele>416</ele>
        <time>2016-12-18T10:57:41Z</time>
      </trkpt>
      <trkpt lat="44.79794" lon="4.63268">
        <ele>413</ele>
        <time>2016-12-18T10:57:32Z</time>
      </trkpt>
      <trkpt lat="44.79807" lon="4.63275">
        <ele>413</ele>
        <time>2016-12-18T10:57:22Z</time>
      </trkpt>
      <trkpt lat="44.79821" lon="4.63272">
        <ele>409</ele>
        <time>2016-12-18T10:57:11Z</time>
      </trkpt>
      <trkpt lat="44.79832" lon="4.63275">
        <ele>409</ele>
        <time>2016-12-18T10:57:01Z</time>
      </trkpt>
      <trkpt lat="44.79841" lon="4.63276">
        <ele>409</ele>
        <time>2016-12-18T10:56:52Z</time>
      </trkpt>
      <trkpt lat="44.79849" lon="4.63276">
        <ele>400</ele>
        <time>2016-12-18T10:56:42Z</time>
      </trkpt>
      <trkpt lat="44.79862" lon="4.63273">
        <ele>400</ele>
        <time>2016-12-18T10:56:31Z</time>
      </trkpt>
      <trkpt lat="44.79878" lon="4.63272">
        <ele>392</ele>
        <time>2016-12-18T10:54:13Z</time>
      </trkpt>
      <trkpt lat="44.79879" lon="4.63273">
        <ele>392</ele>
        <time>2016-12-18T10:54:01Z</time>
      </trkpt>
      <trkpt lat="44.79885" lon="4.63274">
        <ele>392</ele>
        <time>2016-12-18T10:53:53Z</time>
      </trkpt>
      <trkpt lat="44.79892" lon="4.63274">
        <ele>392</ele>
        <time>2016-12-18T10:53:43Z</time>
      </trkpt>
      <trkpt lat="44.79892" lon="4.63268">
        <ele>392</ele>
        <time>2016-12-18T10:53:33Z</time>
      </trkpt>
      <trkpt lat="44.79887" lon="4.63259">
        <ele>384</ele>
        <time>2016-12-18T10:53:22Z</time>
      </trkpt>
      <trkpt lat="44.79882" lon="4.6325">
        <ele>384</ele>
        <time>2016-12-18T10:53:11Z</time>
      </trkpt>
      <trkpt lat="44.79878" lon="4.63245">
        <ele>384</ele>
        <time>2016-12-18T10:53:01Z</time>
      </trkpt>
      <trkpt lat="44.79879" lon="4.63248">
        <ele>384</ele>
        <time>2016-12-18T10:52:53Z</time>
      </trkpt>
      <trkpt lat="44.79878" lon="4.6325">
        <ele>384</ele>
        <time>2016-12-18T10:52:43Z</time>
      </trkpt>
      <trkpt lat="44.79876" lon="4.63248">
        <ele>384</ele>
        <time>2016-12-18T10:52:33Z</time>
      </trkpt>
      <trkpt lat="44.79875" lon="4.63247">
        <ele>389</ele>
        <time>2016-12-18T10:52:23Z</time>
      </trkpt>
      <trkpt lat="44.79876" lon="4.63242">
        <ele>384</ele>
        <time>2016-12-18T10:52:11Z</time>
      </trkpt>
      <trkpt lat="44.79876" lon="4.63246">
        <ele>384</ele>
        <time>2016-12-18T10:52:01Z</time>
      </trkpt>
      <trkpt lat="44.79873" lon="4.63246">
        <ele>389</ele>
        <time>2016-12-18T10:51:52Z</time>
      </trkpt>
      <trkpt lat="44.79866" lon="4.63239">
        <ele>389</ele>
        <time>2016-12-18T10:51:42Z</time>
      </trkpt>
      <trkpt lat="44.79859" lon="4.63232">
        <ele>380</ele>
        <time>2016-12-18T10:51:32Z</time>
      </trkpt>
      <trkpt lat="44.79854" lon="4.63226">
        <ele>380</ele>
        <time>2016-12-18T10:51:22Z</time>
      </trkpt>
      <trkpt lat="44.7985" lon="4.6322">
        <ele>380</ele>
        <time>2016-12-18T10:51:13Z</time>
      </trkpt>
      <trkpt lat="44.79845" lon="4.63213">
        <ele>387</ele>
        <time>2016-12-18T10:51:03Z</time>
      </trkpt>
      <trkpt lat="44.79836" lon="4.63207">
        <ele>380</ele>
        <time>2016-12-18T10:50:53Z</time>
      </trkpt>
      <trkpt lat="44.79828" lon="4.63197">
        <ele>380</ele>
        <time>2016-12-18T10:50:43Z</time>
      </trkpt>
      <trkpt lat="44.79819" lon="4.63188">
        <ele>387</ele>
        <time>2016-12-18T10:50:33Z</time>
      </trkpt>
      <trkpt lat="44.79814" lon="4.63183">
        <ele>387</ele>
        <time>2016-12-18T10:50:23Z</time>
      </trkpt>
      <trkpt lat="44.79809" lon="4.63176">
        <ele>386</ele>
        <time>2016-12-18T10:50:14Z</time>
      </trkpt>
      <trkpt lat="44.79811" lon="4.63169">
        <ele>386</ele>
        <time>2016-12-18T10:50:04Z</time>
      </trkpt>
      <trkpt lat="44.79819" lon="4.63159">
        <ele>386</ele>
        <time>2016-12-18T10:49:54Z</time>
      </trkpt>
      <trkpt lat="44.79826" lon="4.63152">
        <ele>379</ele>
        <time>2016-12-18T10:49:44Z</time>
      </trkpt>
      <trkpt lat="44.79828" lon="4.63149">
        <ele>379</ele>
        <time>2016-12-18T10:49:37Z</time>
      </trkpt>
      <trkpt lat="44.79835" lon="4.63152">
        <ele>379</ele>
        <time>2016-12-18T10:49:27Z</time>
      </trkpt>
      <trkpt lat="44.79844" lon="4.63147">
        <ele>379</ele>
        <time>2016-12-18T10:49:17Z</time>
      </trkpt>
      <trkpt lat="44.79852" lon="4.6314">
        <ele>370</ele>
        <time>2016-12-18T10:49:07Z</time>
      </trkpt>
      <trkpt lat="44.79859" lon="4.63138">
        <ele>370</ele>
        <time>2016-12-18T10:48:58Z</time>
      </trkpt>
      <trkpt lat="44.79869" lon="4.6314">
        <ele>370</ele>
        <time>2016-12-18T10:48:48Z</time>
      </trkpt>
      <trkpt lat="44.79876" lon="4.63127">
        <ele>363</ele>
        <time>2016-12-18T10:48:39Z</time>
      </trkpt>
      <trkpt lat="44.79884" lon="4.63121">
        <ele>367</ele>
        <time>2016-12-18T10:48:28Z</time>
      </trkpt>
      <trkpt lat="44.79892" lon="4.63115">
        <ele>367</ele>
        <time>2016-12-18T10:48:18Z</time>
      </trkpt>
      <trkpt lat="44.79897" lon="4.63108">
        <ele>367</ele>
        <time>2016-12-18T10:48:08Z</time>
      </trkpt>
      <trkpt lat="44.79904" lon="4.63106">
        <ele>355</ele>
        <time>2016-12-18T10:47:58Z</time>
      </trkpt>
      <trkpt lat="44.79912" lon="4.63102">
        <ele>355</ele>
        <time>2016-12-18T10:47:48Z</time>
      </trkpt>
      <trkpt lat="44.79918" lon="4.63101">
        <ele>355</ele>
        <time>2016-12-18T10:47:38Z</time>
      </trkpt>
      <trkpt lat="44.79923" lon="4.63096">
        <ele>361</ele>
        <time>2016-12-18T10:47:29Z</time>
      </trkpt>
      <trkpt lat="44.79931" lon="4.63091">
        <ele>351</ele>
        <time>2016-12-18T10:47:19Z</time>
      </trkpt>
      <trkpt lat="44.7994" lon="4.63089">
        <ele>351</ele>
        <time>2016-12-18T10:47:08Z</time>
      </trkpt>
      <trkpt lat="44.79947" lon="4.63091">
        <ele>351</ele>
        <time>2016-12-18T10:46:58Z</time>
      </trkpt>
      <trkpt lat="44.79956" lon="4.63086">
        <ele>351</ele>
        <time>2016-12-18T10:46:48Z</time>
      </trkpt>
      <trkpt lat="44.79963" lon="4.6308">
        <ele>342</ele>
        <time>2016-12-18T10:46:38Z</time>
      </trkpt>
      <trkpt lat="44.79972" lon="4.63073">
        <ele>342</ele>
        <time>2016-12-18T10:46:28Z</time>
      </trkpt>
      <trkpt lat="44.79995" lon="4.63053">
        <ele>335</ele>
        <time>2016-12-18T10:45:57Z</time>
      </trkpt>
      <trkpt lat="44.80001" lon="4.63043">
        <ele>335</ele>
        <time>2016-12-18T10:45:47Z</time>
      </trkpt>
      <trkpt lat="44.80005" lon="4.63031">
        <ele>340</ele>
        <time>2016-12-18T10:45:37Z</time>
      </trkpt>
      <trkpt lat="44.80009" lon="4.63029">
        <ele>340</ele>
        <time>2016-12-18T10:45:27Z</time>
      </trkpt>
      <trkpt lat="44.80018" lon="4.63019">
        <ele>330</ele>
        <time>2016-12-18T10:45:17Z</time>
      </trkpt>
      <trkpt lat="44.80021" lon="4.63008">
        <ele>337</ele>
        <time>2016-12-18T10:45:07Z</time>
      </trkpt>
      <trkpt lat="44.80025" lon="4.62998">
        <ele>337</ele>
        <time>2016-12-18T10:44:57Z</time>
      </trkpt>
      <trkpt lat="44.80024" lon="4.62994">
        <ele>337</ele>
        <time>2016-12-18T10:44:54Z</time>
      </trkpt>
      <trkpt lat="44.80024" lon="4.6298">
        <ele>340</ele>
        <time>2016-12-18T10:44:44Z</time>
      </trkpt>
      <trkpt lat="44.80026" lon="4.62971">
        <ele>340</ele>
        <time>2016-12-18T10:44:33Z</time>
      </trkpt>
      <trkpt lat="44.80034" lon="4.62973">
        <ele>340</ele>
        <time>2016-12-18T10:44:24Z</time>
      </trkpt>
      <trkpt lat="44.80042" lon="4.62985">
        <ele>342</ele>
        <time>2016-12-18T10:44:12Z</time>
      </trkpt>
      <trkpt lat="44.80047" lon="4.62992">
        <ele>337</ele>
        <time>2016-12-18T10:44:02Z</time>
      </trkpt>
      <trkpt lat="44.8005" lon="4.63001">
        <ele>337</ele>
        <time>2016-12-18T10:43:52Z</time>
      </trkpt>
      <trkpt lat="44.80053" lon="4.6301">
        <ele>337</ele>
        <time>2016-12-18T10:43:42Z</time>
      </trkpt>
      <trkpt lat="44.80057" lon="4.63019">
        <ele>329</ele>
        <time>2016-12-18T10:43:32Z</time>
      </trkpt>
      <trkpt lat="44.80062" lon="4.63028">
        <ele>329</ele>
        <time>2016-12-18T10:43:23Z</time>
      </trkpt>
      <trkpt lat="44.80064" lon="4.63035">
        <ele>329</ele>
        <time>2016-12-18T10:43:13Z</time>
      </trkpt>
      <trkpt lat="44.80069" lon="4.63048">
        <ele>319</ele>
        <time>2016-12-18T10:43:03Z</time>
      </trkpt>
      <trkpt lat="44.80074" lon="4.63052">
        <ele>318</ele>
        <time>2016-12-18T10:42:53Z</time>
      </trkpt>
      <trkpt lat="44.80084" lon="4.63056">
        <ele>318</ele>
        <time>2016-12-18T10:42:43Z</time>
      </trkpt>
      <trkpt lat="44.80089" lon="4.63057">
        <ele>318</ele>
        <time>2016-12-18T10:42:33Z</time>
      </trkpt>
      <trkpt lat="44.801" lon="4.63054">
        <ele>311</ele>
        <time>2016-12-18T10:42:23Z</time>
      </trkpt>
      <trkpt lat="44.80105" lon="4.63055">
        <ele>311</ele>
        <time>2016-12-18T10:42:13Z</time>
      </trkpt>
      <trkpt lat="44.80111" lon="4.63052">
        <ele>311</ele>
        <time>2016-12-18T10:42:03Z</time>
      </trkpt>
      <trkpt lat="44.8012" lon="4.63048">
        <ele>311</ele>
        <time>2016-12-18T10:41:53Z</time>
      </trkpt>
      <trkpt lat="44.80123" lon="4.63045">
        <ele>311</ele>
        <time>2016-12-18T10:41:43Z</time>
      </trkpt>
      <trkpt lat="44.80131" lon="4.63044">
        <ele>303</ele>
        <time>2016-12-18T10:41:33Z</time>
      </trkpt>
      <trkpt lat="44.80135" lon="4.63049">
        <ele>303</ele>
        <time>2016-12-18T10:41:23Z</time>
      </trkpt>
      <trkpt lat="44.80142" lon="4.63039">
        <ele>315</ele>
        <time>2016-12-18T10:41:13Z</time>
      </trkpt>
      <trkpt lat="44.80147" lon="4.63041">
        <ele>315</ele>
        <time>2016-12-18T10:41:03Z</time>
      </trkpt>
      <trkpt lat="44.80155" lon="4.63032">
        <ele>299</ele>
        <time>2016-12-18T10:40:53Z</time>
      </trkpt>
      <trkpt lat="44.80166" lon="4.63016">
        <ele>299</ele>
        <time>2016-12-18T10:40:43Z</time>
      </trkpt>
      <trkpt lat="44.80171" lon="4.63008">
        <ele>309</ele>
        <time>2016-12-18T10:40:33Z</time>
      </trkpt>
      <trkpt lat="44.8018" lon="4.62996">
        <ele>309</ele>
        <time>2016-12-18T10:40:23Z</time>
      </trkpt>
      <trkpt lat="44.80184" lon="4.62994">
        <ele>295</ele>
        <time>2016-12-18T10:40:18Z</time>
      </trkpt>
      <trkpt lat="44.80197" lon="4.62981">
        <ele>305</ele>
        <time>2016-12-18T10:40:07Z</time>
      </trkpt>
      <trkpt lat="44.80204" lon="4.62975">
        <ele>305</ele>
        <time>2016-12-18T10:39:58Z</time>
      </trkpt>
      <trkpt lat="44.80214" lon="4.62961">
        <ele>289</ele>
        <time>2016-12-18T10:39:48Z</time>
      </trkpt>
      <trkpt lat="44.80225" lon="4.62955">
        <ele>296</ele>
        <time>2016-12-18T10:39:38Z</time>
      </trkpt>
      <trkpt lat="44.80235" lon="4.62942">
        <ele>296</ele>
        <time>2016-12-18T10:39:28Z</time>
      </trkpt>
      <trkpt lat="44.80244" lon="4.62934">
        <ele>281</ele>
        <time>2016-12-18T10:39:18Z</time>
      </trkpt>
      <trkpt lat="44.80249" lon="4.62932">
        <ele>281</ele>
        <time>2016-12-18T10:39:08Z</time>
      </trkpt>
      <trkpt lat="44.80253" lon="4.62918">
        <ele>285</ele>
        <time>2016-12-18T10:38:58Z</time>
      </trkpt>
      <trkpt lat="44.80258" lon="4.6292">
        <ele>285</ele>
        <time>2016-12-18T10:38:48Z</time>
      </trkpt>
      <trkpt lat="44.80259" lon="4.62912">
        <ele>285</ele>
        <time>2016-12-18T10:38:38Z</time>
      </trkpt>
      <trkpt lat="44.80258" lon="4.62902">
        <ele>285</ele>
        <time>2016-12-18T10:38:28Z</time>
      </trkpt>
      <trkpt lat="44.80253" lon="4.62885">
        <ele>285</ele>
        <time>2016-12-18T10:38:18Z</time>
      </trkpt>
      <trkpt lat="44.80251" lon="4.62861">
        <ele>282</ele>
        <time>2016-12-18T10:38:06Z</time>
      </trkpt>
      <trkpt lat="44.80251" lon="4.62846">
        <ele>279</ele>
        <time>2016-12-18T10:37:57Z</time>
      </trkpt>
      <trkpt lat="44.80257" lon="4.62836">
        <ele>279</ele>
        <time>2016-12-18T10:37:47Z</time>
      </trkpt>
      <trkpt lat="44.80261" lon="4.62824">
        <ele>279</ele>
        <time>2016-12-18T10:37:37Z</time>
      </trkpt>
      <trkpt lat="44.80262" lon="4.62813">
        <ele>278</ele>
        <time>2016-12-18T10:37:27Z</time>
      </trkpt>
      <trkpt lat="44.80263" lon="4.62801">
        <ele>278</ele>
        <time>2016-12-18T10:37:17Z</time>
      </trkpt>
      <trkpt lat="44.8026" lon="4.62796">
        <ele>278</ele>
        <time>2016-12-18T10:37:07Z</time>
      </trkpt>
      <trkpt lat="44.80256" lon="4.62784">
        <ele>276</ele>
        <time>2016-12-18T10:36:58Z</time>
      </trkpt>
      <trkpt lat="44.80252" lon="4.6277">
        <ele>276</ele>
        <time>2016-12-18T10:36:48Z</time>
      </trkpt>
      <trkpt lat="44.80249" lon="4.62763">
        <ele>271</ele>
        <time>2016-12-18T10:36:38Z</time>
      </trkpt>
      <trkpt lat="44.8024" lon="4.62747">
        <ele>271</ele>
        <time>2016-12-18T10:36:29Z</time>
      </trkpt>
      <trkpt lat="44.80237" lon="4.6274">
        <ele>271</ele>
        <time>2016-12-18T10:36:19Z</time>
      </trkpt>
      <trkpt lat="44.8023" lon="4.62733">
        <ele>284</ele>
        <time>2016-12-18T10:36:09Z</time>
      </trkpt>
      <trkpt lat="44.80232" lon="4.62719">
        <ele>284</ele>
        <time>2016-12-18T10:35:58Z</time>
      </trkpt>
      <trkpt lat="44.80241" lon="4.62713">
        <ele>268</ele>
        <time>2016-12-18T10:35:48Z</time>
      </trkpt>
      <trkpt lat="44.80246" lon="4.62712">
        <ele>268</ele>
        <time>2016-12-18T10:35:43Z</time>
      </trkpt>
      <trkpt lat="44.80253" lon="4.62698">
        <ele>270</ele>
        <time>2016-12-18T10:35:33Z</time>
      </trkpt>
      <trkpt lat="44.8026" lon="4.62681">
        <ele>270</ele>
        <time>2016-12-18T10:35:23Z</time>
      </trkpt>
      <trkpt lat="44.80269" lon="4.62677">
        <ele>261</ele>
        <time>2016-12-18T10:35:13Z</time>
      </trkpt>
      <trkpt lat="44.80276" lon="4.62664">
        <ele>261</ele>
        <time>2016-12-18T10:35:03Z</time>
      </trkpt>
      <trkpt lat="44.80275" lon="4.62655">
        <ele>261</ele>
        <time>2016-12-18T10:34:53Z</time>
      </trkpt>
      <trkpt lat="44.80276" lon="4.62642">
        <ele>261</ele>
        <time>2016-12-18T10:34:44Z</time>
      </trkpt>
      <trkpt lat="44.80274" lon="4.62627">
        <ele>261</ele>
        <time>2016-12-18T10:34:34Z</time>
      </trkpt>
      <trkpt lat="44.80278" lon="4.62612">
        <ele>261</ele>
        <time>2016-12-18T10:34:24Z</time>
      </trkpt>
      <trkpt lat="44.80279" lon="4.626">
        <ele>261</ele>
        <time>2016-12-18T10:34:14Z</time>
      </trkpt>
      <trkpt lat="44.80284" lon="4.62588">
        <ele>257</ele>
        <time>2016-12-18T10:34:02Z</time>
      </trkpt>
      <trkpt lat="44.8028" lon="4.62575">
        <ele>257</ele>
        <time>2016-12-18T10:33:53Z</time>
      </trkpt>
      <trkpt lat="44.8028" lon="4.62565">
        <ele>251</ele>
        <time>2016-12-18T10:33:43Z</time>
      </trkpt>
      <trkpt lat="44.80273" lon="4.62553">
        <ele>251</ele>
        <time>2016-12-18T10:33:33Z</time>
      </trkpt>
      <trkpt lat="44.80261" lon="4.6255">
        <ele>260</ele>
        <time>2016-12-18T10:33:23Z</time>
      </trkpt>
      <trkpt lat="44.8025" lon="4.62531">
        <ele>252</ele>
        <time>2016-12-18T10:33:12Z</time>
      </trkpt>
      <trkpt lat="44.80227" lon="4.6251">
        <ele>252</ele>
        <time>2016-12-18T10:32:42Z</time>
      </trkpt>
      <trkpt lat="44.80229" lon="4.62505">
        <ele>252</ele>
        <time>2016-12-18T10:32:32Z</time>
      </trkpt>
      <trkpt lat="44.80232" lon="4.62501">
        <ele>252</ele>
        <time>2016-12-18T10:32:22Z</time>
      </trkpt>
      <trkpt lat="44.80229" lon="4.6249">
        <ele>252</ele>
        <time>2016-12-18T10:32:12Z</time>
      </trkpt>
      <trkpt lat="44.80224" lon="4.6248">
        <ele>243</ele>
        <time>2016-12-18T10:32:02Z</time>
      </trkpt>
      <trkpt lat="44.80221" lon="4.62471">
        <ele>243</ele>
        <time>2016-12-18T10:31:53Z</time>
      </trkpt>
      <trkpt lat="44.80216" lon="4.62461">
        <ele>243</ele>
        <time>2016-12-18T10:31:42Z</time>
      </trkpt>
      <trkpt lat="44.8021" lon="4.62443">
        <ele>236</ele>
        <time>2016-12-18T10:31:32Z</time>
      </trkpt>
      <trkpt lat="44.80206" lon="4.62431">
        <ele>248</ele>
        <time>2016-12-18T10:31:23Z</time>
      </trkpt>
      <trkpt lat="44.80203" lon="4.62418">
        <ele>242</ele>
        <time>2016-12-18T10:31:12Z</time>
      </trkpt>
      <trkpt lat="44.80201" lon="4.62414">
        <ele>242</ele>
        <time>2016-12-18T10:31:02Z</time>
      </trkpt>
      <trkpt lat="44.80198" lon="4.62406">
        <ele>242</ele>
        <time>2016-12-18T10:30:53Z</time>
      </trkpt>
      <trkpt lat="44.80198" lon="4.62403">
        <ele>242</ele>
        <time>2016-12-18T10:30:48Z</time>
      </trkpt>
      <trkpt lat="44.80194" lon="4.6239">
        <ele>236</ele>
        <time>2016-12-18T10:30:39Z</time>
      </trkpt>
      <trkpt lat="44.80196" lon="4.62379">
        <ele>236</ele>
        <time>2016-12-18T10:30:29Z</time>
      </trkpt>
      <trkpt lat="44.80188" lon="4.62347">
        <ele>223</ele>
        <time>2016-12-18T10:29:57Z</time>
      </trkpt>
      <trkpt lat="44.80186" lon="4.62339">
        <ele>223</ele>
        <time>2016-12-18T10:29:47Z</time>
      </trkpt>
      <trkpt lat="44.80191" lon="4.6233">
        <ele>223</ele>
        <time>2016-12-18T10:29:37Z</time>
      </trkpt>
      <trkpt lat="44.80198" lon="4.62325">
        <ele>223</ele>
        <time>2016-12-18T10:29:29Z</time>
      </trkpt>
      <trkpt lat="44.80208" lon="4.62323">
        <ele>223</ele>
        <time>2016-12-18T10:29:18Z</time>
      </trkpt>
      <trkpt lat="44.8021" lon="4.6231">
        <ele>209</ele>
        <time>2016-12-18T10:29:08Z</time>
      </trkpt>
      <trkpt lat="44.80207" lon="4.62294">
        <ele>219</ele>
        <time>2016-12-18T10:28:58Z</time>
      </trkpt>
      <trkpt lat="44.80207" lon="4.62291">
        <ele>217</ele>
        <time>2016-12-18T10:28:47Z</time>
      </trkpt>
      <trkpt lat="44.80202" lon="4.62276">
        <ele>217</ele>
        <time>2016-12-18T10:28:38Z</time>
      </trkpt>
      <trkpt lat="44.80204" lon="4.62256">
        <ele>214</ele>
        <time>2016-12-18T10:28:26Z</time>
      </trkpt>
      <trkpt lat="44.80204" lon="4.62253">
        <ele>214</ele>
        <time>2016-12-18T10:28:16Z</time>
      </trkpt>
      <trkpt lat="44.80204" lon="4.6224">
        <ele>214</ele>
        <time>2016-12-18T10:28:07Z</time>
      </trkpt>
      <trkpt lat="44.80204" lon="4.62231">
        <ele>213</ele>
        <time>2016-12-18T10:27:59Z</time>
      </trkpt>
      <trkpt lat="44.80207" lon="4.6222">
        <ele>213</ele>
        <time>2016-12-18T10:27:49Z</time>
      </trkpt>
      <trkpt lat="44.80207" lon="4.62208">
        <ele>211</ele>
        <time>2016-12-18T10:27:39Z</time>
      </trkpt>
      <trkpt lat="44.80208" lon="4.62197">
        <ele>211</ele>
        <time>2016-12-18T10:27:29Z</time>
      </trkpt>
      <trkpt lat="44.80211" lon="4.62183">
        <ele>194</ele>
        <time>2016-12-18T10:27:18Z</time>
      </trkpt>
      <trkpt lat="44.80209" lon="4.62169">
        <ele>191</ele>
        <time>2016-12-18T10:27:08Z</time>
      </trkpt>
      <trkpt lat="44.80208" lon="4.62155">
        <ele>209</ele>
        <time>2016-12-18T10:26:58Z</time>
      </trkpt>
      <trkpt lat="44.80208" lon="4.62144">
        <ele>208</ele>
        <time>2016-12-18T10:26:48Z</time>
      </trkpt>
      <trkpt lat="44.80203" lon="4.6213">
        <ele>208</ele>
        <time>2016-12-18T10:26:39Z</time>
      </trkpt>
      <trkpt lat="44.80203" lon="4.62119">
        <ele>203</ele>
        <time>2016-12-18T10:26:29Z</time>
      </trkpt>
      <trkpt lat="44.80196" lon="4.62105">
        <ele>203</ele>
        <time>2016-12-18T10:26:19Z</time>
      </trkpt>
      <trkpt lat="44.80192" lon="4.62093">
        <ele>193</ele>
        <time>2016-12-18T10:26:10Z</time>
      </trkpt>
      <trkpt lat="44.80189" lon="4.62079">
        <ele>193</ele>
        <time>2016-12-18T10:26:00Z</time>
      </trkpt>
      <trkpt lat="44.80187" lon="4.62067">
        <ele>186</ele>
        <time>2016-12-18T10:25:51Z</time>
      </trkpt>
      <trkpt lat="44.80186" lon="4.62057">
        <ele>186</ele>
        <time>2016-12-18T10:25:41Z</time>
      </trkpt>
      <trkpt lat="44.80189" lon="4.62054">
        <ele>186</ele>
        <time>2016-12-18T10:25:31Z</time>
      </trkpt>
      <trkpt lat="44.80184" lon="4.62044">
        <ele>186</ele>
        <time>2016-12-18T10:25:21Z</time>
      </trkpt>
      <trkpt lat="44.80185" lon="4.62037">
        <ele>184</ele>
        <time>2016-12-18T10:25:14Z</time>
      </trkpt>
      <trkpt lat="44.80187" lon="4.62031">
        <ele>184</ele>
        <time>2016-12-18T10:25:03Z</time>
      </trkpt>
      <trkpt lat="44.80181" lon="4.62024">
        <ele>184</ele>
        <time>2016-12-18T10:24:54Z</time>
      </trkpt>
      <trkpt lat="44.80175" lon="4.62011">
        <ele>190</ele>
        <time>2016-12-18T10:24:44Z</time>
      </trkpt>
      <trkpt lat="44.80164" lon="4.62003">
        <ele>190</ele>
        <time>2016-12-18T10:24:34Z</time>
      </trkpt>
      <trkpt lat="44.80157" lon="4.6199">
        <ele>190</ele>
        <time>2016-12-18T10:24:24Z</time>
      </trkpt>
      <trkpt lat="44.80148" lon="4.61973">
        <ele>194</ele>
        <time>2016-12-18T10:24:13Z</time>
      </trkpt>
      <trkpt lat="44.80144" lon="4.61955">
        <ele>188</ele>
        <time>2016-12-18T10:24:03Z</time>
      </trkpt>
      <trkpt lat="44.80138" lon="4.61935">
        <ele>188</ele>
        <time>2016-12-18T10:23:53Z</time>
      </trkpt>
      <trkpt lat="44.80136" lon="4.61916">
        <ele>186</ele>
        <time>2016-12-18T10:23:43Z</time>
      </trkpt>
      <trkpt lat="44.80131" lon="4.61901">
        <ele>184</ele>
        <time>2016-12-18T10:23:33Z</time>
      </trkpt>
      <trkpt lat="44.80123" lon="4.61888">
        <ele>189</ele>
        <time>2016-12-18T10:23:23Z</time>
      </trkpt>
      <trkpt lat="44.8012" lon="4.61874">
        <ele>184</ele>
        <time>2016-12-18T10:23:13Z</time>
      </trkpt>
      <trkpt lat="44.80116" lon="4.61855">
        <ele>184</ele>
        <time>2016-12-18T10:23:02Z</time>
      </trkpt>
      <trkpt lat="44.80118" lon="4.61837">
        <ele>181</ele>
        <time>2016-12-18T10:22:52Z</time>
      </trkpt>
      <trkpt lat="44.80124" lon="4.61824">
        <ele>181</ele>
        <time>2016-12-18T10:22:42Z</time>
      </trkpt>
      <trkpt lat="44.80128" lon="4.61812">
        <ele>178</ele>
        <time>2016-12-18T10:22:32Z</time>
      </trkpt>
      <trkpt lat="44.80135" lon="4.61799">
        <ele>178</ele>
        <time>2016-12-18T10:22:22Z</time>
      </trkpt>
      <trkpt lat="44.80143" lon="4.61783">
        <ele>177</ele>
        <time>2016-12-18T10:22:12Z</time>
      </trkpt>
      <trkpt lat="44.8015" lon="4.61769">
        <ele>177</ele>
        <time>2016-12-18T10:22:02Z</time>
      </trkpt>
      <trkpt lat="44.80155" lon="4.61753">
        <ele>172</ele>
        <time>2016-12-18T10:21:53Z</time>
      </trkpt>
      <trkpt lat="44.80154" lon="4.61735">
        <ele>171</ele>
        <time>2016-12-18T10:21:43Z</time>
      </trkpt>
      <trkpt lat="44.8015" lon="4.61719">
        <ele>175</ele>
        <time>2016-12-18T10:21:32Z</time>
      </trkpt>
      <trkpt lat="44.8015" lon="4.61714">
        <ele>175</ele>
        <time>2016-12-18T10:21:29Z</time>
      </trkpt>
      <trkpt lat="44.80139" lon="4.61703">
        <ele>175</ele>
        <time>2016-12-18T10:21:16Z</time>
      </trkpt>
      <trkpt lat="44.8013" lon="4.61687">
        <ele>175</ele>
        <time>2016-12-18T10:21:06Z</time>
      </trkpt>
      <trkpt lat="44.80126" lon="4.61672">
        <ele>175</ele>
        <time>2016-12-18T10:20:59Z</time>
      </trkpt>
      <trkpt lat="44.80126" lon="4.61656">
        <ele>175</ele>
        <time>2016-12-18T10:20:50Z</time>
      </trkpt>
      <trkpt lat="44.8012" lon="4.61638">
        <ele>178</ele>
        <time>2016-12-18T10:20:38Z</time>
      </trkpt>
      <trkpt lat="44.80113" lon="4.61621">
        <ele>182</ele>
        <time>2016-12-18T10:20:29Z</time>
      </trkpt>
      <trkpt lat="44.80109" lon="4.61606">
        <ele>182</ele>
        <time>2016-12-18T10:20:19Z</time>
      </trkpt>
      <trkpt lat="44.80105" lon="4.61591">
        <ele>184</ele>
        <time>2016-12-18T10:20:09Z</time>
      </trkpt>
      <trkpt lat="44.80096" lon="4.61578">
        <ele>190</ele>
        <time>2016-12-18T10:19:59Z</time>
      </trkpt>
      <trkpt lat="44.80091" lon="4.61566">
        <ele>194</ele>
        <time>2016-12-18T10:19:49Z</time>
      </trkpt>
      <trkpt lat="44.8008" lon="4.61551">
        <ele>194</ele>
        <time>2016-12-18T10:19:39Z</time>
      </trkpt>
      <trkpt lat="44.80081" lon="4.61535">
        <ele>198</ele>
        <time>2016-12-18T10:19:29Z</time>
      </trkpt>
      <trkpt lat="44.80089" lon="4.61525">
        <ele>198</ele>
        <time>2016-12-18T10:19:19Z</time>
      </trkpt>
      <trkpt lat="44.801" lon="4.61508">
        <ele>191</ele>
        <time>2016-12-18T10:19:09Z</time>
      </trkpt>
      <trkpt lat="44.80111" lon="4.61494">
        <ele>191</ele>
        <time>2016-12-18T10:18:58Z</time>
      </trkpt>
      <trkpt lat="44.80122" lon="4.61483">
        <ele>201</ele>
        <time>2016-12-18T10:18:48Z</time>
      </trkpt>
      <trkpt lat="44.80136" lon="4.61475">
        <ele>192</ele>
        <time>2016-12-18T10:18:37Z</time>
      </trkpt>
      <trkpt lat="44.80151" lon="4.61463">
        <ele>192</ele>
        <time>2016-12-18T10:18:27Z</time>
      </trkpt>
      <trkpt lat="44.80162" lon="4.6146">
        <ele>186</ele>
        <time>2016-12-18T10:18:17Z</time>
      </trkpt>
      <trkpt lat="44.80172" lon="4.61451">
        <ele>191</ele>
        <time>2016-12-18T10:18:07Z</time>
      </trkpt>
      <trkpt lat="44.80186" lon="4.61437">
        <ele>185</ele>
        <time>2016-12-18T10:17:56Z</time>
      </trkpt>
      <trkpt lat="44.80192" lon="4.6143">
        <ele>187</ele>
        <time>2016-12-18T10:17:49Z</time>
      </trkpt>
      <trkpt lat="44.80201" lon="4.61412">
        <ele>187</ele>
        <time>2016-12-18T10:17:38Z</time>
      </trkpt>
      <trkpt lat="44.80209" lon="4.61401">
        <ele>186</ele>
        <time>2016-12-18T10:17:28Z</time>
      </trkpt>
      <trkpt lat="44.80221" lon="4.61388">
        <ele>186</ele>
        <time>2016-12-18T10:17:17Z</time>
      </trkpt>
      <trkpt lat="44.80232" lon="4.61383">
        <ele>186</ele>
        <time>2016-12-18T10:17:08Z</time>
      </trkpt>
      <trkpt lat="44.80243" lon="4.61371">
        <ele>190</ele>
        <time>2016-12-18T10:16:56Z</time>
      </trkpt>
      <trkpt lat="44.80244" lon="4.6137">
        <ele>190</ele>
        <time>2016-12-18T10:16:53Z</time>
      </trkpt>
      <trkpt lat="44.80251" lon="4.61359">
        <ele>190</ele>
        <time>2016-12-18T10:16:43Z</time>
      </trkpt>
      <trkpt lat="44.80265" lon="4.61358">
        <ele>191</ele>
        <time>2016-12-18T10:16:33Z</time>
      </trkpt>
      <trkpt lat="44.80277" lon="4.61362">
        <ele>191</ele>
        <time>2016-12-18T10:16:23Z</time>
      </trkpt>
      <trkpt lat="44.80281" lon="4.61374">
        <ele>191</ele>
        <time>2016-12-18T10:16:13Z</time>
      </trkpt>
      <trkpt lat="44.80289" lon="4.61383">
        <ele>184</ele>
        <time>2016-12-18T10:16:03Z</time>
      </trkpt>
      <trkpt lat="44.80299" lon="4.61391">
        <ele>184</ele>
        <time>2016-12-18T10:15:53Z</time>
      </trkpt>
      <trkpt lat="44.8031" lon="4.61392">
        <ele>184</ele>
        <time>2016-12-18T10:15:44Z</time>
      </trkpt>
      <trkpt lat="44.80321" lon="4.61393">
        <ele>183</ele>
        <time>2016-12-18T10:15:34Z</time>
      </trkpt>
      <trkpt lat="44.80334" lon="4.6139">
        <ele>183</ele>
        <time>2016-12-18T10:15:22Z</time>
      </trkpt>
      <trkpt lat="44.80347" lon="4.61391">
        <ele>183</ele>
        <time>2016-12-18T10:15:13Z</time>
      </trkpt>
      <trkpt lat="44.80358" lon="4.61385">
        <ele>183</ele>
        <time>2016-12-18T10:15:03Z</time>
      </trkpt>
      <trkpt lat="44.80369" lon="4.61382">
        <ele>183</ele>
        <time>2016-12-18T10:14:52Z</time>
      </trkpt>
      <trkpt lat="44.80378" lon="4.61382">
        <ele>180</ele>
        <time>2016-12-18T10:14:43Z</time>
      </trkpt>
    </trkseg>
  </trk>
</gpx>